TOM1573 / G-FDZD 7700 Squawk Report (6th of December, 2019)

Aircraft B738 Reg No. G-FDZD Age 12 years old
Model 737 Jet engines 2 First flight 18-05-07
Registered 13-04-19 Rollout 09-05-07 Delivered 30-05-07
Construction No. 35132 Line No. 2276 Series 8K5
ADSHEX 400FF4 Airline name TUI Airways Owner TUI AG
Airfield based Luton~Beds~G First tracked 2017-07-13 07:48:00

Flight history for G-FDZD

Route Flight No Date Playback
East Midlands Airport (EMA) - Son Sant Joan (PMI) TOM4663 2020-01-18 23:20:00
Manchester (MAN) - Adnan Menderes (ADB) BY662 2020-01-18 20:42:00
Aix Les Bains (CMF) - Gatwick (LGW) BY4633 2020-01-18 17:44:00
???? N/A 2020-01-18 12:22:00
Menara (RAK) - Gatwick (LGW) TOM517 2020-01-17 16:45:00
Gatwick (LGW) - Menara (RAK) BY516 2020-01-17 11:24:00
Gatwick (LGW) - Fuerteventura (FUE) TOM4465 2020-01-16 19:16:00
Gatwick (LGW) - La Palma (SPC) BY4464 2020-01-16 14:29:00
Cardiff (CWL) - Kos (KGS) TOM4349 2020-01-15 19:45:00
Pafos Intl (PFO) - Birmingham (BHX) TOM4348 2020-01-15 15:55:00
Menara (RAK) - Gatwick (LGW) TOM607 2020-01-14 16:59:00
Salzburg (SZG) - Birmingham (BHX) BY7609 2020-01-14 12:09:00
Arrecife Airport (ACE) - Gatwick (LGW) BY4141 2020-01-13 18:57:00
Gatwick (LGW) - Arrecife Airport (ACE) BY4140 2020-01-13 15:14:00
Larnaca International Airport (LCA) - Exeter (EXT) BY5769 2020-01-13 02:55:00
Bristol (BRS) - Son Sant Joan (PMI) BY6224 2020-01-12 20:02:00
Bournemouth (BOH) - Tenerife Sur (TFS) TOM4749 2020-01-12 14:45:00
Gatwick (LGW) - Keflavik International Airport (KEF) TOM4748 2020-01-12 11:50:00
Son Sant Joan (PMI) - Dublin (DUB) TOM4669 2020-01-11 22:45:00
Gatwick (LGW) - Fuerteventura (FUE) BY4668 2020-01-11 17:44:00
Time Lat Lon Altitude Heading Speed Vertical Rate
2019-12-06 21:59:40 GMT 55.879211 -4.419680 425 227 138 -768
2019-12-06 21:59:34 GMT 55.881226 -4.415921 475 227 137 -512
2019-12-06 21:59:24 GMT 55.885731 -4.407578 575 227 137 -704
2019-12-06 21:59:13 GMT 55.890385 -4.398909 700 227 139 -832
2019-12-06 21:59:04 GMT 55.894730 -4.390786 850 227 139 -832
2019-12-06 21:58:54 GMT 55.898987 -4.382796 975 227 139 -896
2019-12-06 21:58:51 GMT 55.900223 -4.380465 1,025 227 137 -704
2019-12-06 21:58:43 GMT 55.903606 -4.374018 1,100 227 137 -640
2019-12-06 21:58:36 GMT 55.906860 -4.367898 1,200 227 138 -768
2019-12-06 21:58:32 GMT 55.913086 -4.356329 1,275 227 139 -768
2019-12-06 21:58:23 GMT 55.913086 -4.356329 1,400 227 141 -768
2019-12-06 21:58:11 GMT 55.918121 -4.346924 1,525 227 140 -704
2019-12-06 21:58:02 GMT 55.921967 -4.339600 1,625 227 137 -640
2019-12-06 21:57:59 GMT 55.923340 -4.336936 1,675 227 137 -704
2019-12-06 21:57:53 GMT 55.925903 -4.332026 1,750 227 137 -704
2019-12-06 21:57:43 GMT 55.930115 -4.324202 1,875 226 137 -832
2019-12-06 21:57:40 GMT 55.931900 -4.320956 1,925 226 137 -704
2019-12-06 21:57:33 GMT 55.934704 -4.315910 2,000 226 140 -768
2019-12-06 21:57:30 GMT 55.936333 -4.312992 2,025 226 140 -832
2019-12-06 21:57:25 GMT 55.938263 -4.309554 2,100 225 142 -768
2019-12-06 21:57:21 GMT 55.940475 -4.305782 2,250 225 143 -768
2019-12-06 21:57:15 GMT 55.942894 -4.301405 2,225 226 146 -640
2019-12-06 21:57:12 GMT 55.944717 -4.298151 2,275 226 147 -832
2019-12-06 21:57:09 GMT 55.945862 -4.296070 2,300 227 147 -896
2019-12-06 21:57:05 GMT 55.947739 -4.292492 2,350 228 147 -896
2019-12-06 21:57:02 GMT 55.949020 -4.289995 2,450 229 147 -768
2019-12-06 21:56:59 GMT 55.950390 -4.287329 2,425 229 147 -832
2019-12-06 21:56:56 GMT 55.952206 -4.283638 2,500 230 146 -768
2019-12-06 21:56:52 GMT 55.954765 -4.278145 2,575 234 145 -640
2019-12-06 21:56:44 GMT 55.957977 -4.270506 2,650 234 143 -576
2019-12-06 21:56:38 GMT 55.959183 -4.267689 2,700 234 143 -576
2019-12-06 21:56:35 GMT 55.961975 -4.260947 2,750 234 141 -704
2019-12-06 21:56:32 GMT 55.961975 -4.260947 2,775 234 140 -704
2019-12-06 21:56:29 GMT 55.962818 -4.258833 2,800 235 139 -640
2019-12-06 21:56:23 GMT 55.965286 -4.252396 2,875 239 137 -640
2019-12-06 21:56:19 GMT 55.966415 -4.249129 2,900 239 136 -640
2019-12-06 21:56:16 GMT 55.967514 -4.245633 2,975 241 136 -512
2019-12-06 21:56:12 GMT 55.968658 -4.242138 2,975 245 137 -448
2019-12-06 21:56:09 GMT 55.969345 -4.239724 3,000 261 138 -768
2019-12-06 21:56:05 GMT 55.970222 -4.234715 3,050 266 140 -832
2019-12-06 21:56:02 GMT 55.970314 -4.227762 3,150 272 143 -960
2019-12-06 21:55:59 GMT 55.970314 -4.227762 3,150 272 143 -960
2019-12-06 21:55:55 GMT 55.970261 -4.223244 3,225 272 148 -576
2019-12-06 21:55:52 GMT 55.970215 -4.219416 3,250 272 151 -512
2019-12-06 21:55:49 GMT 55.970123 -4.216420 3,250 272 151 -512
2019-12-06 21:55:45 GMT 55.970036 -4.210682 3,325 273 153 -320
2019-12-06 21:55:42 GMT 55.969849 -4.205704 3,325 276 153 0
2019-12-06 21:55:39 GMT 55.969757 -4.203129 3,325 278 153 0
2019-12-06 21:55:34 GMT 55.969242 -4.197721 3,325 289 151 64
2019-12-06 21:55:31 GMT 55.967697 -4.190951 3,325 299 151 64
2019-12-06 21:55:28 GMT 55.967697 -4.190951 3,325 302 151 0
2019-12-06 21:55:25 GMT 55.966125 -4.187164 3,350 314 152 -64
2019-12-06 21:55:22 GMT 55.964729 -4.184675 3,350 321 153 0
2019-12-06 21:55:19 GMT 55.960026 -4.179783 3,325 340 158 0
2019-12-06 21:55:15 GMT 55.960026 -4.179783 3,325 339 159 -64
2019-12-06 21:55:11 GMT 55.957123 -4.177801 3,325 340 159 0
2019-12-06 21:55:08 GMT 55.955750 -4.176885 3,325 340 159 0
2019-12-06 21:55:04 GMT 55.953278 -4.175221 3,350 340 158 0
2019-12-06 21:55:00 GMT 55.949707 -4.172890 3,350 340 158 64
2019-12-06 21:54:54 GMT 55.945969 -4.170427 3,350 340 158 0
2019-12-06 21:54:51 GMT 55.944489 -4.169478 3,325 340 157 0
2019-12-06 21:54:48 GMT 55.942017 -4.167813 3,325 340 157 0
2019-12-06 21:54:42 GMT 55.937496 -4.164934 3,325 341 157 0
2019-12-06 21:54:38 GMT 55.935150 -4.163485 3,325 341 156 -64
2019-12-06 21:54:34 GMT 55.932281 -4.161587 3,325 340 156 64
2019-12-06 21:54:30 GMT 55.928741 -4.159355 3,325 342 156 64
2019-12-06 21:54:24 GMT 55.925308 -4.157410 3,325 346 158 -64
2019-12-06 21:54:21 GMT 55.923294 -4.156577 3,325 354 160 -64
2019-12-06 21:54:17 GMT 55.920784 -4.156179 3,350 359 163 0
2019-12-06 21:54:14 GMT 55.917892 -4.156494 3,350 14 171 128
2019-12-06 21:54:11 GMT 55.915741 -4.157326 3,325 16 172 128
2019-12-06 21:54:07 GMT 55.913197 -4.159012 3,325 24 176 0
2019-12-06 21:54:03 GMT 55.910213 -4.161501 3,325 26 176 0
2019-12-06 21:54:00 GMT 55.908051 -4.163402 3,325 26 176 0
2019-12-06 21:53:57 GMT 55.905838 -4.165363 3,325 26 176 0
2019-12-06 21:53:54 GMT 55.901047 -4.169644 3,325 26 175 64
2019-12-06 21:53:51 GMT 55.898579 -4.171801 3,325 26 175 0
2019-12-06 21:53:48 GMT 55.898579 -4.171801 3,325 26 175 0
2019-12-06 21:53:41 GMT 55.893875 -4.176006 3,325 26 176 0
2019-12-06 21:53:38 GMT 55.891548 -4.178066 3,325 26 177 0
2019-12-06 21:53:34 GMT 55.888008 -4.181242 3,325 26 179 64
2019-12-06 21:53:30 GMT 55.886242 -4.182787 3,325 26 180 -128
2019-12-06 21:53:27 GMT 55.883423 -4.185375 3,325 26 180 -512
2019-12-06 21:53:23 GMT 55.880562 -4.187937 3,375 26 181 -512
2019-12-06 21:53:20 GMT 55.878468 -4.189825 3,400 26 182 -448
2019-12-06 21:53:17 GMT 55.875595 -4.192366 3,425 26 183 -512
2019-12-06 21:53:13 GMT 55.873169 -4.194530 3,450 26 185 -576
2019-12-06 21:53:10 GMT 55.870743 -4.196694 3,500 26 187 -704
2019-12-06 21:53:07 GMT 55.868271 -4.198858 3,500 26 188 -640
2019-12-06 21:53:01 GMT 55.860397 -4.205766 3,625 26 192 -768
2019-12-06 21:52:57 GMT 55.857052 -4.208794 3,725 26 193 -704
2019-12-06 21:52:53 GMT 55.857052 -4.208794 3,700 26 194 -704
2019-12-06 21:52:50 GMT 55.854996 -4.210593 3,725 26 194 -704
2019-12-06 21:52:46 GMT 55.852066 -4.213174 3,750 26 196 -512
2019-12-06 21:52:43 GMT 55.849136 -4.215754 3,800 26 198 -512
2019-12-06 21:52:37 GMT 55.844063 -4.220381 3,850 26 200 -960
2019-12-06 21:52:30 GMT 55.838432 -4.225445 3,950 27 201 -1024
2019-12-06 21:52:26 GMT 55.835632 -4.227989 4,000 27 201 -1024
2019-12-06 21:52:23 GMT 55.832336 -4.231068 4,100 27 200 -1152
2019-12-06 21:52:20 GMT 55.830193 -4.232998 4,150 27 199 -1024
2019-12-06 21:52:17 GMT 55.827393 -4.235562 4,225 26 200 -896
2019-12-06 21:52:13 GMT 55.824097 -4.238475 4,275 26 200 -960
2019-12-06 21:52:10 GMT 55.821762 -4.240556 4,325 26 201 -1024
2019-12-06 21:52:06 GMT 55.818600 -4.243383 4,375 26 201 -1024
2019-12-06 21:52:03 GMT 55.815445 -4.246133 4,450 26 202 -832
2019-12-06 21:52:00 GMT 55.813431 -4.247964 4,475 26 203 -832
2019-12-06 21:51:55 GMT 55.809570 -4.251280 4,550 26 203 -768
2019-12-06 21:51:51 GMT 55.806015 -4.254372 4,625 26 205 -832
2019-12-06 21:51:48 GMT 55.803799 -4.256344 4,650 26 207 -768
2019-12-06 21:51:45 GMT 55.801048 -4.258747 4,675 26 206 -832
2019-12-06 21:51:41 GMT 55.797821 -4.261530 4,725 26 207 -768
2019-12-06 21:51:38 GMT 55.794907 -4.264154 4,775 26 208 -704
2019-12-06 21:51:35 GMT 55.792282 -4.266441 4,825 26 209 -1216
2019-12-06 21:51:31 GMT 55.788849 -4.269520 4,875 26 210 -1216
2019-12-06 21:51:28 GMT 55.783779 -4.274025 5,025 26 213 -1152
2019-12-06 21:51:22 GMT 55.780941 -4.276514 5,100 26 215 -1216
2019-12-06 21:51:19 GMT 55.778427 -4.278746 5,175 25 216 -1152
2019-12-06 21:51:15 GMT 55.775391 -4.281339 5,225 26 218 -1088
2019-12-06 21:51:12 GMT 55.771954 -4.284325 5,275 25 220 -1088
2019-12-06 21:51:08 GMT 55.768799 -4.286998 5,300 25 220 -1088
2019-12-06 21:51:05 GMT 55.765671 -4.289732 5,400 25 223 -1088
2019-12-06 21:51:02 GMT 55.762691 -4.292221 5,450 25 225 -704
2019-12-06 21:50:59 GMT 55.760036 -4.294538 5,500 25 228 -576
2019-12-06 21:50:55 GMT 55.755848 -4.298058 5,525 25 233 -576
2019-12-06 21:50:49 GMT 55.746597 -4.305808 5,650 24 238 -896
2019-12-06 21:50:46 GMT 55.746597 -4.305808 5,650 24 238 -896
2019-12-06 21:50:40 GMT 55.741379 -4.310053 5,750 24 241 -1152
2019-12-06 21:50:37 GMT 55.738541 -4.312383 6,675 28 275 -960
2019-12-06 21:50:33 GMT 55.734467 -4.315629 5,850 24 244 -704
2019-12-06 21:50:30 GMT 55.728241 -4.320623 5,900 24 247 -704
2019-12-06 21:50:23 GMT 55.722980 -4.324751 5,975 24 252 -640
2019-12-06 21:50:20 GMT 55.720421 -4.326811 6,000 24 252 -640
2019-12-06 21:50:17 GMT 55.717442 -4.329128 6,675 28 275 -960
2019-12-06 21:50:14 GMT 55.713776 -4.332026 6,075 23 256 -896
2019-12-06 21:50:11 GMT 55.710926 -4.334192 6,125 23 258 -960
2019-12-06 21:50:08 GMT 55.707642 -4.336770 6,175 23 260 -960
2019-12-06 21:50:04 GMT 55.701920 -4.341264 6,250 23 265 -896
2019-12-06 21:50:01 GMT 55.699890 -4.342861 6,300 23 265 -896
2019-12-06 21:49:57 GMT 55.695190 -4.346508 6,350 23 267 -1152
2019-12-06 21:49:54 GMT 55.691574 -4.349337 6,400 23 268 -1152
2019-12-06 21:49:51 GMT 55.688370 -4.351751 6,450 23 269 -1088
2019-12-06 21:49:47 GMT 55.683598 -4.355478 6,600 25 273 -896
2019-12-06 21:49:43 GMT 55.679035 -4.359083 6,575 24 272 -960
2019-12-06 21:49:40 GMT 55.670242 -4.367065 6,650 27 275 -960
2019-12-06 21:49:36 GMT 55.670242 -4.367065 6,700 30 276 -1024
2019-12-06 21:49:33 GMT 55.668045 -4.369313 6,725 30 276 -960
2019-12-06 21:49:29 GMT 55.660995 -4.376803 6,875 30 278 -960
2019-12-06 21:49:23 GMT 55.651478 -4.386806 6,950 30 278 -1280
2019-12-06 21:49:18 GMT 55.651478 -4.386806 7,000 30 278 -1280
2019-12-06 21:49:14 GMT 55.646393 -4.392201 7,100 30 278 -1408
2019-12-06 21:49:11 GMT 55.642868 -4.395946 7,175 30 277 -1536
2019-12-06 21:49:08 GMT 55.640446 -4.398479 7,250 30 277 -1344
2019-12-06 21:49:04 GMT 55.636276 -4.402937 7,325 31 278 -1152
2019-12-06 21:49:01 GMT 55.633209 -4.406267 7,375 31 278 -1152
2019-12-06 21:48:58 GMT 55.629459 -4.410238 7,450 31 278 -1472
2019-12-06 21:48:54 GMT 55.625034 -4.414959 7,550 31 277 -1536
2019-12-06 21:48:51 GMT 55.622223 -4.418085 7,625 31 278 -1536
2019-12-06 21:48:48 GMT 55.618286 -4.422330 7,700 31 277 -1600
2019-12-06 21:48:44 GMT 55.614143 -4.426889 7,825 31 278 -1344
2019-12-06 21:48:41 GMT 55.610001 -4.431402 7,900 31 278 -1024
2019-12-06 21:48:38 GMT 55.606064 -4.435730 7,950 31 278 -640
2019-12-06 21:48:35 GMT 55.604134 -4.437876 7,950 31 278 -512
2019-12-06 21:48:31 GMT 55.599976 -4.442472 8,000 31 278 -192
2019-12-06 21:48:28 GMT 55.596451 -4.446300 8,000 31 278 -64
2019-12-06 21:48:25 GMT 55.593147 -4.449892 8,025 31 278 -64
2019-12-06 21:48:22 GMT 55.589447 -4.453957 8,025 31 277 64
2019-12-06 21:48:19 GMT 55.586380 -4.457286 8,025 31 277 64
2019-12-06 21:48:16 GMT 55.583557 -4.460363 8,000 31 275 128
2019-12-06 21:48:12 GMT 55.579422 -4.464860 8,000 31 275 128
2019-12-06 21:48:09 GMT 55.569313 -4.475985 8,000 32 274 64
2019-12-06 21:48:04 GMT 55.569313 -4.475985 8,000 32 274 0
2019-12-06 21:48:00 GMT 55.561539 -4.484568 8,000 31 275 -128
2019-12-06 21:47:56 GMT 55.561539 -4.484568 8,000 32 277 -256
2019-12-06 21:47:50 GMT 55.556324 -4.490318 8,025 31 279 -704
2019-12-06 21:47:47 GMT 55.552597 -4.494407 8,050 32 279 -960
2019-12-06 21:47:44 GMT 55.548248 -4.499234 8,200 32 280 -1600
2019-12-06 21:47:40 GMT 55.541656 -4.506559 8,275 32 281 -1536
2019-12-06 21:47:37 GMT 55.541656 -4.506559 8,300 32 281 -1472
2019-12-06 21:47:34 GMT 55.538132 -4.510470 8,400 32 282 -1472
2019-12-06 21:47:31 GMT 55.535019 -4.513883 8,450 32 282 -1408
2019-12-06 21:47:28 GMT 55.531281 -4.518042 8,525 32 283 -1472
2019-12-06 21:47:25 GMT 55.527279 -4.522505 8,575 32 283 -1536
2019-12-06 21:47:22 GMT 55.524624 -4.525509 8,675 32 284 -1600
2019-12-06 21:47:19 GMT 55.521286 -4.529197 8,725 32 284 -1600
2019-12-06 21:47:16 GMT 55.517452 -4.533405 8,875 32 286 -1536
2019-12-06 21:47:10 GMT 55.511681 -4.539843 9,050 32 287 -1472
2019-12-06 21:47:07 GMT 55.507629 -4.544392 9,100 32 287 -1536
2019-12-06 21:47:04 GMT 55.503117 -4.549370 9,200 32 290 -1536
2019-12-06 21:47:00 GMT 55.500229 -4.552668 9,250 32 288 -1536
2019-12-06 21:46:56 GMT 55.495949 -4.557438 9,350 32 289 -1344
2019-12-06 21:46:53 GMT 55.489380 -4.564736 9,550 32 290 -1536
2019-12-06 21:46:50 GMT 55.485054 -4.569454 9,525 32 290 -1536
2019-12-06 21:46:47 GMT 55.485054 -4.569454 9,575 32 290 -1600
2019-12-06 21:46:44 GMT 55.481186 -4.573808 9,675 32 290 -1600
2019-12-06 21:46:40 GMT 55.478256 -4.577093 9,825 32 292 -1600
2019-12-06 21:46:36 GMT 55.471878 -4.584131 9,875 32 292 -1600
2019-12-06 21:46:33 GMT 55.469131 -4.587221 9,950 32 292 -1536
2019-12-06 21:46:30 GMT 55.465256 -4.591536 10,150 32 293 -1600
2019-12-06 21:46:27 GMT 55.462509 -4.594532 10,075 32 292 -1600
2019-12-06 21:46:24 GMT 55.459076 -4.598379 10,150 32 292 -1664
2019-12-06 21:46:21 GMT 55.456100 -4.601690 10,275 32 292 -1792
2019-12-06 21:46:18 GMT 55.452438 -4.605768 10,350 32 292 -1664
2019-12-06 21:46:15 GMT 55.448090 -4.610567 10,425 32 292 -1664
2019-12-06 21:46:12 GMT 55.444656 -4.614258 10,675 31 292 -1408
2019-12-06 21:46:09 GMT 55.441666 -4.617587 10,575 31 292 -1408
2019-12-06 21:46:06 GMT 55.434036 -4.625729 10,725 31 293 -1664
2019-12-06 21:46:03 GMT 55.434036 -4.625729 11,225 31 294 -1600
2019-12-06 21:46:00 GMT 55.431519 -4.628490 10,850 31 293 -1664
2019-12-06 21:45:57 GMT 55.428040 -4.632191 10,950 31 293 -1664
2019-12-06 21:45:54 GMT 55.424835 -4.635746 11,000 31 294 -1664
2019-12-06 21:45:50 GMT 55.419975 -4.640975 11,125 31 294 -1728
2019-12-06 21:45:47 GMT 55.417179 -4.643971 11,200 31 294 -1664
2019-12-06 21:45:44 GMT 55.410198 -4.651462 11,575 31 295 -1408
2019-12-06 21:45:38 GMT 55.405495 -4.656455 11,425 31 297 -1408
2019-12-06 21:45:35 GMT 55.401993 -4.660303 11,475 31 297 -1536
2019-12-06 21:45:32 GMT 55.398464 -4.664029 11,575 31 298 -1536
2019-12-06 21:45:29 GMT 55.395401 -4.667331 11,650 31 298 -1536
2019-12-06 21:45:26 GMT 55.392834 -4.670105 11,700 31 299 -1536
2019-12-06 21:45:23 GMT 55.384827 -4.678761 11,850 32 301 -1728
2019-12-06 21:45:17 GMT 55.380589 -4.683422 12,025 32 300 -1728
2019-12-06 21:45:11 GMT 55.374207 -4.690435 12,175 32 301 -1600
2019-12-06 21:45:08 GMT 55.370720 -4.694408 12,225 32 301 -1600
2019-12-06 21:45:05 GMT 55.367882 -4.697571 12,300 32 301 -1728
2019-12-06 21:45:02 GMT 55.362946 -4.703118 12,425 32 301 -1792
2019-12-06 21:44:59 GMT 55.360611 -4.705784 12,450 32 301 -1792
2019-12-06 21:44:55 GMT 55.350517 -4.717130 12,700 32 301 -1792
2019-12-06 21:44:49 GMT 55.348656 -4.719294 12,800 32 301 -1792
2019-12-06 21:44:46 GMT 55.345139 -4.723232 12,875 32 301 -1792
2019-12-06 21:44:43 GMT 55.336716 -4.732765 13,050 32 301 -1728
2019-12-06 21:44:39 GMT 55.336716 -4.732765 13,100 32 301 -1728
2019-12-06 21:44:33 GMT 55.329941 -4.740517 13,300 32 301 -1664
2019-12-06 21:44:30 GMT 55.326218 -4.744762 13,375 32 301 -1664
2019-12-06 21:44:27 GMT 55.322910 -4.748424 13,425 32 301 -1664
2019-12-06 21:44:24 GMT 55.317535 -4.754576 13,600 32 302 -1472
2019-12-06 21:44:20 GMT 55.314285 -4.758292 13,650 32 302 -1472
2019-12-06 21:44:17 GMT 55.310989 -4.762008 13,700 32 302 -1472
2019-12-06 21:44:14 GMT 55.308197 -4.765158 13,950 32 303 -1344
2019-12-06 21:44:11 GMT 55.302567 -4.771540 13,850 32 303 -1408
2019-12-06 21:44:08 GMT 55.301357 -4.772894 13,875 32 303 -1344
2019-12-06 21:44:05 GMT 55.297123 -4.777721 13,925 32 303 -1344
2019-12-06 21:44:02 GMT 55.292885 -4.782548 14,050 32 305 -1408
2019-12-06 21:43:56 GMT 55.287254 -4.788957 14,150 32 305 -1472
2019-12-06 21:43:53 GMT 55.278946 -4.798360 14,250 32 305 -1408
2019-12-06 21:43:50 GMT 55.274918 -4.802856 14,350 32 305 -1216
2019-12-06 21:43:47 GMT 55.274918 -4.802856 14,425 32 306 -1088
2019-12-06 21:43:44 GMT 55.271851 -4.806357 14,425 32 306 -1088
2019-12-06 21:43:41 GMT 55.269192 -4.809348 14,525 32 307 -1152
2019-12-06 21:43:38 GMT 55.265121 -4.813870 14,525 32 308 -1216
2019-12-06 21:43:34 GMT 55.260315 -4.819201 14,675 32 308 -1408
2019-12-06 21:43:31 GMT 55.255508 -4.824533 14,700 32 308 -1472
2019-12-06 21:43:28 GMT 55.248524 -4.832320 14,825 32 309 -1408
2019-12-06 21:43:24 GMT 55.248524 -4.832320 14,850 32 309 -1344
2019-12-06 21:43:20 GMT 55.242237 -4.839228 14,900 32 309 -1024
2019-12-06 21:43:16 GMT 55.238113 -4.843759 14,975 31 309 -128
2019-12-06 21:43:13 GMT 55.234222 -4.847960 15,000 31 310 0
2019-12-06 21:43:10 GMT 55.230789 -4.851676 15,000 31 316 64
2019-12-06 21:43:07 GMT 55.228363 -4.854341 15,000 31 310 0
2019-12-06 21:43:04 GMT 55.223969 -4.859108 15,000 31 311 0
2019-12-06 21:43:01 GMT 55.220264 -4.863115 15,000 31 313 -64
2019-12-06 21:42:58 GMT 55.212399 -4.871604 15,000 31 313 0
2019-12-06 21:42:55 GMT 55.207973 -4.876432 15,000 31 313 0
2019-12-06 21:42:52 GMT 55.207973 -4.876432 15,000 31 314 0
2019-12-06 21:42:48 GMT 55.203781 -4.880999 15,000 31 315 64
2019-12-06 21:42:45 GMT 55.200062 -4.885004 15,000 31 317 64
2019-12-06 21:42:42 GMT 55.197083 -4.888250 14,975 31 318 64
2019-12-06 21:42:36 GMT 55.189819 -4.896106 14,975 31 328 -384
2019-12-06 21:42:33 GMT 55.182129 -4.904345 14,975 31 325 -128
2019-12-06 21:42:30 GMT 55.182129 -4.904345 15,225 31 328 -384
2019-12-06 21:42:27 GMT 55.177505 -4.909354 15,000 31 330 -512
2019-12-06 21:42:24 GMT 55.174347 -4.912666 15,025 31 331 -576
2019-12-06 21:42:21 GMT 55.168579 -4.918805 15,050 31 335 -512
2019-12-06 21:42:18 GMT 55.164635 -4.923040 15,100 31 337 -832
2019-12-06 21:42:15 GMT 55.158257 -4.929865 15,150 31 338 -1216
2019-12-06 21:42:09 GMT 55.152390 -4.936191 15,275 31 339 -1792
2019-12-06 21:42:06 GMT 55.149178 -4.939603 15,350 31 338 -1920
2019-12-06 21:42:03 GMT 55.146240 -4.942797 15,450 31 338 -1856
2019-12-06 21:42:00 GMT 55.141983 -4.947402 15,575 31 338 -1792
2019-12-06 21:41:57 GMT 55.137726 -4.952007 15,600 31 338 -1792
2019-12-06 21:41:53 GMT 55.128204 -4.962347 15,750 31 338 -1856
2019-12-06 21:41:47 GMT 55.124496 -4.966386 15,925 31 336 -1856
2019-12-06 21:41:44 GMT 55.120789 -4.970425 16,000 31 336 -1792
2019-12-06 21:41:39 GMT 55.114975 -4.976726 16,225 32 336 -1728
2019-12-06 21:41:36 GMT 55.110764 -4.981330 16,225 32 336 -1728
2019-12-06 21:41:33 GMT 55.106552 -4.985935 16,300 32 336 -1728
2019-12-06 21:41:29 GMT 55.100784 -4.992236 16,425 32 336 -1728
2019-12-06 21:41:26 GMT 55.097366 -4.996033 16,500 32 336 -1728
2019-12-06 21:41:23 GMT 55.092667 -5.001276 16,575 32 335 -1728
2019-12-06 21:41:20 GMT 55.088745 -5.005565 16,650 32 335 -1728
2019-12-06 21:41:16 GMT 55.084286 -5.010515 16,800 32 335 -1792
2019-12-06 21:41:13 GMT 55.080654 -5.014593 16,900 32 335 -1792
2019-12-06 21:41:10 GMT 55.076202 -5.019621 16,950 32 335 -1792
2019-12-06 21:41:06 GMT 55.071251 -5.025163 17,100 32 336 -1792
2019-12-06 21:41:02 GMT 55.065525 -5.031655 17,175 32 336 -1792
2019-12-06 21:40:59 GMT 55.061600 -5.036020 17,300 32 336 -1728
2019-12-06 21:40:56 GMT 55.053513 -5.045138 17,450 32 336 -1728
2019-12-06 21:40:53 GMT 55.053513 -5.045138 17,500 32 336 -1728
2019-12-06 21:40:49 GMT 55.049606 -5.049591 17,575 32 336 -1728
2019-12-06 21:40:46 GMT 55.044937 -5.054842 17,675 32 337 -1728
2019-12-06 21:40:43 GMT 55.035778 -5.065113 17,825 32 337 -1728
2019-12-06 21:40:39 GMT 55.035778 -5.065113 18,075 32 336 -1728
2019-12-06 21:40:36 GMT 55.031635 -5.069858 18,000 32 336 -1728
2019-12-06 21:40:33 GMT 55.026375 -5.075684 18,100 32 336 -1728
2019-12-06 21:40:30 GMT 55.023514 -5.078834 18,175 32 336 -1728
2019-12-06 21:40:26 GMT 55.017994 -5.084922 18,275 32 336 -1728
2019-12-06 21:40:21 GMT 55.012733 -5.090748 18,450 32 336 -1728
2019-12-06 21:40:18 GMT 55.004059 -5.100322 18,575 32 336 -1728
2019-12-06 21:40:15 GMT 55.004059 -5.100322 18,575 32 336 -1728
2019-12-06 21:40:12 GMT 55.000118 -5.104648 18,850 32 337 -1728
2019-12-06 21:40:08 GMT 54.995682 -5.109612 18,750 32 337 -1792
2019-12-06 21:40:05 GMT 54.987305 -5.118983 18,925 32 337 -1792
2019-12-06 21:40:02 GMT 54.987305 -5.118983 18,975 32 337 -1792
2019-12-06 21:39:58 GMT 54.977875 -5.129565 19,175 32 337 -1728
2019-12-06 21:39:55 GMT 54.973911 -5.134028 19,250 32 337 -1728
2019-12-06 21:39:52 GMT 54.969452 -5.139017 19,350 32 337 -1728
2019-12-06 21:39:48 GMT 54.969452 -5.139017 19,425 32 338 -1728
2019-12-06 21:39:45 GMT 54.964737 -5.144267 19,500 32 338 -1728
2019-12-06 21:39:42 GMT 54.960781 -5.148676 19,550 32 338 -1792
2019-12-06 21:39:38 GMT 54.955765 -5.154204 19,850 32 338 -1792
2019-12-06 21:39:33 GMT 54.949448 -5.161232 19,875 32 338 -1856
2019-12-06 21:39:30 GMT 54.943932 -5.167320 19,950 32 338 -1856
2019-12-06 21:39:26 GMT 54.936310 -5.175853 20,100 32 338 -1728
2019-12-06 21:39:20 GMT 54.931828 -5.180886 20,150 32 339 -1728
2019-12-06 21:39:17 GMT 54.923401 -5.190374 20,325 32 339 -1728
2019-12-06 21:39:14 GMT 54.923401 -5.190374 20,450 32 340 -1728
2019-12-06 21:39:10 GMT 54.918411 -5.195968 20,550 32 339 -1792
2019-12-06 21:39:04 GMT 54.911545 -5.203561 20,675 32 339 -1792
2019-12-06 21:39:01 GMT 54.901752 -5.214428 20,825 32 339 -1728
2019-12-06 21:38:57 GMT 54.901752 -5.214428 20,875 32 340 -1728
2019-12-06 21:38:54 GMT 54.898075 -5.218589 20,975 32 340 -1728
2019-12-06 21:38:51 GMT 54.893555 -5.223514 21,000 32 339 -1728
2019-12-06 21:38:47 GMT 54.888794 -5.228765 21,175 32 339 -1792
2019-12-06 21:38:43 GMT 54.882385 -5.235793 21,250 32 339 -1792
2019-12-06 21:38:40 GMT 54.876850 -5.241893 21,425 32 341 -1792
2019-12-06 21:38:37 GMT 54.871494 -5.247720 21,475 32 341 -1792
2019-12-06 21:38:34 GMT 54.871494 -5.247720 21,600 32 341 -1792
2019-12-06 21:38:31 GMT 54.866749 -5.253046 21,650 32 341 -1792
2019-12-06 21:38:27 GMT 54.861954 -5.258290 21,875 32 342 -1792
2019-12-06 21:38:23 GMT 54.856598 -5.264199 21,875 32 342 -1792
2019-12-06 21:38:20 GMT 54.848591 -5.273105 22,025 32 345 -1792
2019-12-06 21:38:17 GMT 54.844311 -5.277765 22,150 32 344 -1792
2019-12-06 21:38:14 GMT 54.839516 -5.283175 22,225 32 344 -1792
2019-12-06 21:38:11 GMT 54.839516 -5.283175 22,800 32 345 -1792
2019-12-06 21:38:05 GMT 54.831161 -5.292340 22,475 32 345 -1792
2019-12-06 21:38:02 GMT 54.827957 -5.295895 22,525 32 345 -1792
2019-12-06 21:37:59 GMT 54.823917 -5.300404 23,725 32 348 -1728
2019-12-06 21:37:56 GMT 54.820148 -5.304565 22,700 32 346 -1792
2019-12-06 21:37:52 GMT 54.813950 -5.311486 22,850 32 346 -1792
2019-12-06 21:37:49 GMT 54.810467 -5.315302 22,950 32 347 -1792
2019-12-06 21:37:46 GMT 54.806396 -5.319806 23,000 32 347 -1792
2019-12-06 21:37:42 GMT 54.802048 -5.324572 23,125 32 347 -1792
2019-12-06 21:37:39 GMT 54.797478 -5.329701 23,275 32 348 -1728
2019-12-06 21:37:36 GMT 54.793148 -5.334445 23,300 32 348 -1792
2019-12-06 21:37:32 GMT 54.782547 -5.346141 23,425 32 348 -1728
2019-12-06 21:37:29 GMT 54.782547 -5.346141 23,550 32 348 -1792
2019-12-06 21:37:26 GMT 54.779846 -5.349130 23,600 32 349 -1792
2019-12-06 21:37:23 GMT 54.775738 -5.353671 23,725 32 349 -1792
2019-12-06 21:37:20 GMT 54.770050 -5.359955 23,800 32 350 -1792
2019-12-06 21:37:17 GMT 54.765961 -5.364491 23,900 32 351 -1856
2019-12-06 21:37:14 GMT 54.762909 -5.367791 23,975 32 352 -1856
2019-12-06 21:37:11 GMT 54.759350 -5.371732 24,025 32 352 -1856
2019-12-06 21:37:08 GMT 54.754974 -5.376559 24,375 32 353 -1792
2019-12-06 21:37:05 GMT 54.750870 -5.381039 24,225 32 352 -1856
2019-12-06 21:37:01 GMT 54.740078 -5.392789 24,400 32 355 -1792
2019-12-06 21:36:58 GMT 54.740078 -5.392789 24,475 32 355 -1792
2019-12-06 21:36:54 GMT 54.736774 -5.396451 24,525 32 355 -1856
2019-12-06 21:36:51 GMT 54.731506 -5.402204 24,675 32 355 -1856
2019-12-06 21:36:48 GMT 54.721226 -5.413430 24,825 32 356 -1856
2019-12-06 21:36:44 GMT 54.721226 -5.413430 24,900 32 356 -1856
2019-12-06 21:36:40 GMT 54.716198 -5.418840 24,950 32 357 -1856
2019-12-06 21:36:37 GMT 54.711411 -5.424015 25,100 32 358 -1856
2019-12-06 21:36:34 GMT 54.708618 -5.427085 25,175 32 359 -1920
2019-12-06 21:36:31 GMT 54.703300 -5.432906 25,275 32 360 -1856
2019-12-06 21:36:28 GMT 54.694565 -5.442433 25,450 32 362 -1856
2019-12-06 21:36:24 GMT 54.694565 -5.442433 25,475 32 362 -1792
2019-12-06 21:36:21 GMT 54.688385 -5.449300 25,600 32 362 -1856
2019-12-06 21:36:18 GMT 54.684170 -5.453963 25,700 32 362 -1856
2019-12-06 21:36:14 GMT 54.679916 -5.458589 25,775 32 364 -1792
2019-12-06 21:36:11 GMT 54.675697 -5.463285 25,900 32 364 -1792
2019-12-06 21:36:08 GMT 54.670303 -5.469253 26,000 32 365 -1792
2019-12-06 21:36:02 GMT 54.660892 -5.479598 26,225 32 366 -1856
2019-12-06 21:35:59 GMT 54.658905 -5.481774 26,300 32 366 -1856
2019-12-06 21:35:56 GMT 54.654049 -5.487172 26,425 32 367 -1984
2019-12-06 21:35:53 GMT 54.648930 -5.492831 26,475 32 367 -1984
2019-12-06 21:35:50 GMT 54.644321 -5.497825 26,525 32 367 -1984
2019-12-06 21:35:47 GMT 54.641479 -5.500988 26,650 32 368 -1920
2019-12-06 21:35:44 GMT 54.637161 -5.505766 26,775 32 369 -1920
2019-12-06 21:35:41 GMT 54.632820 -5.510476 26,850 32 370 -1920
2019-12-06 21:35:38 GMT 54.624767 -5.519298 26,975 32 370 -1920
2019-12-06 21:35:32 GMT 54.619553 -5.525041 27,175 32 372 -1920
2019-12-06 21:35:29 GMT 54.615189 -5.529758 27,675 32 373 -1920
2019-12-06 21:35:26 GMT 54.610847 -5.534529 27,375 32 373 -1920
2019-12-06 21:35:23 GMT 54.606194 -5.539689 27,475 32 373 -1920
2019-12-06 21:35:20 GMT 54.602703 -5.543518 27,475 32 374 -1920
2019-12-06 21:35:17 GMT 54.592182 -5.555004 27,700 32 375 -1920
2019-12-06 21:35:13 GMT 54.592182 -5.555004 27,825 32 375 -1920
2019-12-06 21:35:10 GMT 54.587173 -5.560375 27,850 32 376 -1920
2019-12-06 21:35:06 GMT 54.579845 -5.568404 28,025 32 377 -1920
2019-12-06 21:35:00 GMT 54.567169 -5.582186 28,250 32 378 -1920
2019-12-06 21:34:57 GMT 54.567169 -5.582186 28,300 32 379 -1920
2019-12-06 21:34:54 GMT 54.563599 -5.586063 28,400 32 379 -1920
2019-12-06 21:34:51 GMT 54.558884 -5.591152 28,475 32 380 -1920
2019-12-06 21:34:48 GMT 54.555313 -5.595030 28,525 32 380 -1920
2019-12-06 21:34:45 GMT 54.549362 -5.601412 28,675 32 381 -1920
2019-12-06 21:34:42 GMT 54.546097 -5.605025 28,775 32 381 -1984
2019-12-06 21:34:39 GMT 54.542770 -5.608521 28,900 32 382 -1984
2019-12-06 21:34:36 GMT 54.536507 -5.615345 28,975 32 382 -1984
2019-12-06 21:34:33 GMT 54.532921 -5.619174 29,025 32 383 -1984
2019-12-06 21:34:30 GMT 54.525421 -5.627262 29,200 32 385 -1920
2019-12-06 21:34:27 GMT 54.522400 -5.630574 29,300 32 386 -1920
2019-12-06 21:34:21 GMT 54.514526 -5.639056 29,425 32 387 -1920
2019-12-06 21:34:18 GMT 54.509720 -5.644307 29,550 32 389 -1920
2019-12-06 21:34:12 GMT 54.501205 -5.653516 29,775 32 390 -1984
2019-12-06 21:34:09 GMT 54.496609 -5.658458 29,825 32 390 -1984
2019-12-06 21:34:06 GMT 54.491768 -5.663785 29,950 32 392 -1984
2019-12-06 21:34:03 GMT 54.486229 -5.669778 30,025 32 392 -1984
2019-12-06 21:34:00 GMT 54.481945 -5.674438 30,150 32 394 -1920
2019-12-06 21:33:57 GMT 54.476715 -5.680174 30,200 32 394 -1920
2019-12-06 21:33:54 GMT 54.472729 -5.684509 30,350 32 395 -1984
2019-12-06 21:33:51 GMT 54.463165 -5.694876 30,475 32 396 -1984
2019-12-06 21:33:48 GMT 54.463165 -5.694876 30,550 32 396 -1984
2019-12-06 21:33:42 GMT 54.455109 -5.703681 30,750 32 398 -2048
2019-12-06 21:33:39 GMT 54.449524 -5.709740 30,900 32 399 -2048
2019-12-06 21:33:36 GMT 54.444241 -5.715554 30,975 32 399 -2048
2019-12-06 21:33:33 GMT 54.441727 -5.718217 31,025 32 399 -2048
2019-12-06 21:33:30 GMT 54.436138 -5.724376 33,125 26 405 -1984
2019-12-06 21:33:27 GMT 54.431763 -5.729120 31,225 32 401 -1920
2019-12-06 21:33:24 GMT 54.427387 -5.733948 31,275 32 401 -1856
2019-12-06 21:33:21 GMT 54.421753 -5.740024 31,400 31 402 -1920
2019-12-06 21:33:18 GMT 54.417938 -5.744019 31,475 30 400 -1920
2019-12-06 21:33:15 GMT 54.407650 -5.753923 32,450 28 398 -2048
2019-12-06 21:33:12 GMT 54.407650 -5.753923 31,725 27 397 -2048
2019-12-06 21:33:09 GMT 54.401459 -5.759421 31,825 26 396 -2112
2019-12-06 21:33:06 GMT 54.396835 -5.763218 31,975 25 397 -2048
2019-12-06 21:33:03 GMT 54.393539 -5.766045 32,025 25 397 -2048
2019-12-06 21:33:00 GMT 54.387959 -5.770735 32,100 26 398 -2048
2019-12-06 21:32:57 GMT 54.378693 -5.778476 32,300 26 399 -2048
2019-12-06 21:32:51 GMT 54.373032 -5.783171 32,500 26 402 -2048
2019-12-06 21:32:48 GMT 54.368080 -5.787381 32,550 26 401 -2048
2019-12-06 21:32:45 GMT 54.363098 -5.791572 32,650 26 402 -2048
2019-12-06 21:32:42 GMT 54.357418 -5.796370 32,775 26 402 -2048
2019-12-06 21:32:39 GMT 54.352764 -5.800282 32,825 26 403 -2048
2019-12-06 21:32:36 GMT 54.348061 -5.804194 32,925 26 403 -2048
2019-12-06 21:32:33 GMT 54.343048 -5.808456 33,025 26 404 -2048
2019-12-06 21:32:30 GMT 54.338005 -5.812683 33,200 25 405 -1984
2019-12-06 21:32:24 GMT 54.320801 -5.826874 33,475 25 407 -2048
2019-12-06 21:32:21 GMT 54.316406 -5.830494 33,525 25 407 -2112
2019-12-06 21:32:18 GMT 54.316406 -5.830494 33,675 25 407 -2112
2019-12-06 21:32:15 GMT 54.307205 -5.838022 33,775 25 408 -2112
2019-12-06 21:32:12 GMT 54.303131 -5.841334 33,925 25 409 -2112
2019-12-06 21:32:06 GMT 54.297321 -5.846058 34,050 25 409 -2112
2019-12-06 21:32:03 GMT 54.286697 -5.854744 34,150 25 411 -2048
2019-12-06 21:32:00 GMT 54.286697 -5.854744 34,275 25 411 -2048
2019-12-06 21:31:57 GMT 54.282238 -5.858376 34,375 25 412 -2048
2019-12-06 21:31:54 GMT 54.275394 -5.863953 34,450 26 412 -3584
2019-12-06 21:31:51 GMT 54.271591 -5.867013 34,525 25 414 -2176
2019-12-06 21:31:48 GMT 54.265366 -5.872035 34,675 25 414 -2496
2019-12-06 21:31:45 GMT 54.261246 -5.875410 34,750 25 414 -2752
2019-12-06 21:31:42 GMT 54.256775 -5.879059 34,875 25 413 -3008
2019-12-06 21:31:39 GMT 54.245041 -5.888753 35,125 25 409 0
2019-12-06 21:31:36 GMT 54.245041 -5.888753 35,225 25 413 -2880
2019-12-06 21:31:33 GMT 54.240944 -5.892145 35,500 26 414 -2880
2019-12-06 21:31:30 GMT 54.232704 -5.899012 35,575 26 414 -3008
2019-12-06 21:31:27 GMT 54.229259 -5.901839 35,675 26 412 -3456
2019-12-06 21:31:23 GMT 54.223434 -5.906721 35,950 26 411 -3648
2019-12-06 21:31:20 GMT 54.213528 -5.914926 36,250 25 410 -3712
2019-12-06 21:31:17 GMT 54.206032 -5.921146 36,375 25 409 -3520
2019-12-06 21:31:14 GMT 54.206032 -5.921146 36,500 25 408 -3008
2019-12-06 21:31:10 GMT 54.201981 -5.924458 36,625 25 407 -2624
2019-12-06 21:31:07 GMT 54.196583 -5.928901 36,750 25 406 -256
2019-12-06 21:31:04 GMT 54.184067 -5.939131 36,925 25 406 -960
2019-12-06 21:31:00 GMT 54.184067 -5.939131 36,950 25 406 -768
2019-12-06 21:30:56 GMT 54.177635 -5.944411 36,975 25 406 -448
2019-12-06 21:30:53 GMT 54.167484 -5.952732 37,000 25 406 0
2019-12-06 21:30:50 GMT 54.160400 -5.958514 37,000 25 408 -64
2019-12-06 21:30:46 GMT 54.160400 -5.958514 37,000 25 407 0
2019-12-06 21:30:43 GMT 54.154953 -5.962987 37,000 25 407 0
2019-12-06 21:30:39 GMT 54.149891 -5.967111 37,000 25 407 0
2019-12-06 21:30:36 GMT 54.144104 -5.971854 37,000 25 408 -64
2019-12-06 21:30:33 GMT 54.139694 -5.975512 37,000 25 408 -64
2019-12-06 21:30:30 GMT 54.132568 -5.981349 37,000 25 408 0
2019-12-06 21:30:26 GMT 54.123047 -5.989197 37,000 25 409 0
2019-12-06 21:30:20 GMT 54.117256 -5.993931 37,000 25 409 0
2019-12-06 21:30:17 GMT 54.110458 -5.999505 37,000 25 409 0
2019-12-06 21:30:14 GMT 54.105015 -6.003948 37,000 25 409 0
2019-12-06 21:30:11 GMT 54.101944 -6.006461 37,000 25 409 0
2019-12-06 21:30:08 GMT 54.096169 -6.011299 37,000 25 410 0
2019-12-06 21:30:05 GMT 54.091049 -6.015485 37,000 25 409 0
2019-12-06 21:30:02 GMT 54.079826 -6.024628 37,000 25 410 0
2019-12-06 21:29:56 GMT 54.075729 -6.028021 37,000 25 411 0
2019-12-06 21:29:53 GMT 54.068890 -6.033594 37,000 25 410 0
2019-12-06 21:29:50 GMT 54.065781 -6.036046 37,000 25 411 0
2019-12-06 21:29:47 GMT 54.059647 -6.041068 37,000 25 411 0
2019-12-06 21:29:43 GMT 54.053154 -6.046439 37,000 25 411 0
2019-12-06 21:29:40 GMT 54.048359 -6.050316 37,000 25 411 0
2019-12-06 21:29:37 GMT 54.043213 -6.054565 37,000 25 412 -64
2019-12-06 21:29:34 GMT 54.038071 -6.058798 37,000 25 411 -64
2019-12-06 21:29:31 GMT 54.032578 -6.063161 37,000 24 411 0
2019-12-06 21:29:28 GMT 54.028107 -6.066650 37,000 23 411 0
2019-12-06 21:29:25 GMT 54.022522 -6.070731 37,000 23 409 -64
2019-12-06 21:29:22 GMT 54.016937 -6.074733 37,000 22 410 -64
2019-12-06 21:29:16 GMT 54.006832 -6.081983 37,000 22 410 -64
2019-12-06 21:29:13 GMT 53.996361 -6.089415 37,000 22 410 0
2019-12-06 21:29:10 GMT 53.996361 -6.089415 37,000 22 411 0
2019-12-06 21:29:06 GMT 53.989746 -6.094195 37,000 22 411 0
2019-12-06 21:29:03 GMT 53.984848 -6.097648 37,000 22 411 -64
2019-12-06 21:29:00 GMT 53.979263 -6.101650 37,000 22 411 -64
2019-12-06 21:28:57 GMT 53.972260 -6.106594 37,000 22 410 -64
2019-12-06 21:28:53 GMT 53.966984 -6.110337 37,000 22 410 -64
2019-12-06 21:28:50 GMT 53.961731 -6.114049 37,000 22 411 0
2019-12-06 21:28:47 GMT 53.955067 -6.118739 37,000 22 411 0
2019-12-06 21:28:44 GMT 53.949829 -6.122445 37,000 22 411 0
2019-12-06 21:28:41 GMT 53.940033 -6.129429 37,000 22 411 -64
2019-12-06 21:28:38 GMT 53.940033 -6.129429 37,000 22 413 0
2019-12-06 21:28:35 GMT 53.934025 -6.133683 37,000 22 413 0
2019-12-06 21:28:32 GMT 53.929138 -6.137157 37,000 22 412 0
2019-12-06 21:28:29 GMT 53.924561 -6.140416 37,000 22 412 0
2019-12-06 21:28:26 GMT 53.919662 -6.143869 37,000 22 412 0
2019-12-06 21:28:20 GMT 53.907715 -6.152344 37,000 22 413 0
2019-12-06 21:28:16 GMT 53.902084 -6.156346 37,000 22 413 0
2019-12-06 21:28:13 GMT 53.895767 -6.160819 37,000 22 413 -64
2019-12-06 21:28:10 GMT 53.890823 -6.164272 37,000 22 413 -64
2019-12-06 21:28:07 GMT 53.879234 -6.172539 37,000 22 413 0
2019-12-06 21:28:04 GMT 53.874996 -6.175528 37,000 22 413 0
2019-12-06 21:28:01 GMT 53.874996 -6.175528 37,000 22 413 0
2019-12-06 21:27:55 GMT 53.864429 -6.183041 37,000 22 414 0
2019-12-06 21:27:52 GMT 53.859879 -6.186244 37,000 22 414 0
2019-12-06 21:27:49 GMT 53.853863 -6.190473 37,000 22 414 0
2019-12-06 21:27:46 GMT 53.847885 -6.194720 37,000 22 414 0
2019-12-06 21:27:43 GMT 53.841900 -6.198955 37,000 22 414 0
2019-12-06 21:27:40 GMT 53.839108 -6.200974 37,000 22 414 0
2019-12-06 21:27:37 GMT 53.832367 -6.205706 37,000 22 414 0
2019-12-06 21:27:34 GMT 53.827793 -6.208891 37,000 22 414 0
2019-12-06 21:27:31 GMT 53.822525 -6.212690 37,000 22 414 64
2019-12-06 21:27:28 GMT 53.816895 -6.216614 37,000 22 414 64
2019-12-06 21:27:25 GMT 53.812988 -6.219393 37,000 22 414 0
2019-12-06 21:27:22 GMT 53.807007 -6.223598 37,000 22 414 -64
2019-12-06 21:27:19 GMT 53.801678 -6.227390 37,000 22 414 -64
2019-12-06 21:27:16 GMT 53.796387 -6.231131 37,000 22 415 64
2019-12-06 21:27:13 GMT 53.790756 -6.235134 37,000 22 415 0
2019-12-06 21:27:10 GMT 53.786499 -6.238116 37,000 22 415 0
2019-12-06 21:27:07 GMT 53.781197 -6.241850 37,000 22 415 -64
2019-12-06 21:27:03 GMT 53.772724 -6.247828 37,000 22 415 0
2019-12-06 21:27:00 GMT 53.767090 -6.251867 37,000 22 415 -64
2019-12-06 21:26:57 GMT 53.756836 -6.259068 37,000 22 415 0
2019-12-06 21:26:54 GMT 53.756836 -6.259068 37,000 22 415 0
2019-12-06 21:26:51 GMT 53.751892 -6.262521 37,000 22 415 0
2019-12-06 21:26:48 GMT 53.746262 -6.266523 37,000 22 415 0
2019-12-06 21:26:44 GMT 53.737434 -6.272789 37,000 22 415 0
2019-12-06 21:26:38 GMT 53.727859 -6.279471 37,000 22 415 -64
2019-12-06 21:26:35 GMT 53.723984 -6.282241 37,000 22 415 -64
2019-12-06 21:26:32 GMT 53.717972 -6.286455 37,000 22 415 0
2019-12-06 21:26:29 GMT 53.713028 -6.289908 37,000 22 415 0
2019-12-06 21:26:25 GMT 53.705978 -6.294852 37,000 22 415 0
2019-12-06 21:26:22 GMT 53.700661 -6.298559 37,000 22 415 0
2019-12-06 21:26:19 GMT 53.695026 -6.302598 37,000 22 415 0
2019-12-06 21:26:16 GMT 53.687950 -6.307526 37,000 22 414 0
2019-12-06 21:26:13 GMT 53.684097 -6.310233 37,000 22 414 0
2019-12-06 21:26:10 GMT 53.679153 -6.313764 37,000 22 415 0
2019-12-06 21:26:07 GMT 53.673847 -6.317462 37,000 22 414 -64
2019-12-06 21:26:04 GMT 53.668533 -6.321141 37,000 22 414 -64
2019-12-06 21:26:00 GMT 53.660393 -6.326832 37,000 22 414 0
2019-12-06 21:25:57 GMT 53.656902 -6.329337 37,000 22 414 0
2019-12-06 21:25:54 GMT 53.650864 -6.333540 37,000 22 414 0
2019-12-06 21:25:51 GMT 53.645187 -6.337463 37,000 22 414 0
2019-12-06 21:25:48 GMT 53.640244 -6.340916 37,000 22 414 0
2019-12-06 21:25:45 GMT 53.634232 -6.345089 37,000 22 415 0
2019-12-06 21:25:42 GMT 53.628937 -6.348764 37,000 22 415 -64
2019-12-06 21:25:38 GMT 53.622917 -6.353006 37,000 22 415 0
2019-12-06 21:25:35 GMT 53.617584 -6.356689 37,000 22 415 0
2019-12-06 21:25:32 GMT 53.611954 -6.360613 37,000 22 415 0
2019-12-06 21:25:29 GMT 53.606964 -6.364066 37,000 22 415 -64
2019-12-06 21:25:26 GMT 53.602707 -6.366970 37,000 22 418 -64
2019-12-06 21:25:23 GMT 53.596710 -6.371182 37,000 22 415 0
2019-12-06 21:25:20 GMT 53.590668 -6.375366 37,000 22 415 0
2019-12-06 21:25:17 GMT 53.584305 -6.379839 37,000 22 415 0
2019-12-06 21:25:14 GMT 53.580414 -6.382572 37,000 22 415 0
2019-12-06 21:25:11 GMT 53.569756 -6.389923 37,000 22 420 0
2019-12-06 21:25:08 GMT 53.569756 -6.389923 37,000 22 416 0
2019-12-06 21:25:05 GMT 53.563705 -6.394121 37,000 22 416 0
2019-12-06 21:25:02 GMT 53.558395 -6.397840 37,000 22 416 0
2019-12-06 21:24:59 GMT 53.554504 -6.400556 37,000 22 416 0
2019-12-06 21:24:56 GMT 53.548435 -6.404706 37,000 22 416 0
2019-12-06 21:24:53 GMT 53.543106 -6.408482 37,000 22 416 0
2019-12-06 21:24:50 GMT 53.532486 -6.415859 37,000 22 416 0
2019-12-06 21:24:44 GMT 53.527496 -6.419312 37,000 22 417 0
2019-12-06 21:24:41 GMT 53.521088 -6.423785 37,000 22 417 0
2019-12-06 21:24:38 GMT 53.517151 -6.426517 37,000 22 417 0
2019-12-06 21:24:35 GMT 53.511841 -6.430219 37,000 22 417 0
2019-12-06 21:24:32 GMT 53.506851 -6.433672 37,000 22 417 0
2019-12-06 21:24:29 GMT 53.499710 -6.438616 37,000 22 417 0
2019-12-06 21:24:26 GMT 53.493988 -6.442618 37,000 22 417 0
2019-12-06 21:24:23 GMT 53.489731 -6.445600 37,000 22 417 0
2019-12-06 21:24:17 GMT 53.477955 -6.453741 37,000 22 418 0
2019-12-06 21:24:13 GMT 53.471878 -6.457921 37,000 22 418 0
2019-12-06 21:24:10 GMT 53.466202 -6.461923 37,000 22 418 -64
2019-12-06 21:24:07 GMT 53.455841 -6.469089 37,000 22 418 -64
2019-12-06 21:24:01 GMT 53.448673 -6.474017 37,000 22 418 -64
2019-12-06 21:23:58 GMT 53.438324 -6.481149 37,000 22 419 0
2019-12-06 21:23:55 GMT 53.438324 -6.481149 37,000 22 420 0
2019-12-06 21:23:51 GMT 53.431870 -6.485622 37,000 22 419 0
2019-12-06 21:23:47 GMT 53.423626 -6.491304 37,000 22 420 0
2019-12-06 21:23:44 GMT 53.413620 -6.498252 37,000 22 419 0
2019-12-06 21:23:40 GMT 53.413620 -6.498252 37,000 22 419 -64
2019-12-06 21:23:37 GMT 53.402168 -6.506168 37,000 22 420 -64
2019-12-06 21:23:31 GMT 53.386047 -6.517325 37,000 22 419 0
2019-12-06 21:23:26 GMT 53.386047 -6.517325 37,000 22 420 0
2019-12-06 21:23:23 GMT 53.382477 -6.519836 37,000 22 420 0
2019-12-06 21:23:20 GMT 53.377441 -6.523289 37,000 22 420 -64
2019-12-06 21:23:17 GMT 53.370987 -6.527762 37,000 22 420 0
2019-12-06 21:23:14 GMT 53.365952 -6.531137 37,000 22 420 0
2019-12-06 21:23:11 GMT 53.355927 -6.538042 37,000 22 420 -64
2019-12-06 21:23:08 GMT 53.349098 -6.542682 37,000 22 420 0
2019-12-06 21:23:05 GMT 53.349098 -6.542682 37,000 22 420 0
2019-12-06 21:23:02 GMT 53.340134 -6.548872 37,000 22 420 0
2019-12-06 21:22:59 GMT 53.340134 -6.548872 37,000 22 420 0
2019-12-06 21:22:56 GMT 53.332947 -6.553737 37,000 22 420 0
2019-12-06 21:22:53 GMT 53.328644 -6.556719 37,000 22 420 0
2019-12-06 21:22:50 GMT 53.322144 -6.561114 37,000 22 420 0
2019-12-06 21:22:47 GMT 53.317490 -6.564331 37,000 22 420 0
2019-12-06 21:22:44 GMT 53.312462 -6.567724 37,000 22 420 0
2019-12-06 21:22:40 GMT 53.304546 -6.573136 37,000 22 420 0
2019-12-06 21:22:36 GMT 53.288719 -6.583961 37,000 22 420 0
2019-12-06 21:22:31 GMT 53.288719 -6.583961 37,000 22 420 0
2019-12-06 21:22:28 GMT 53.283325 -6.587716 37,000 22 420 0
2019-12-06 21:22:25 GMT 53.279022 -6.590620 37,000 22 421 0
2019-12-06 21:22:22 GMT 53.271496 -6.595836 37,000 22 421 0
2019-12-06 21:22:19 GMT 53.266468 -6.599310 37,000 22 421 0
2019-12-06 21:22:16 GMT 53.262882 -6.601814 37,000 22 421 0
2019-12-06 21:22:13 GMT 53.256042 -6.606471 37,000 22 421 0
2019-12-06 21:22:09 GMT 53.247391 -6.612435 37,000 22 421 0
2019-12-06 21:22:06 GMT 53.243820 -6.614947 37,000 22 421 -64
2019-12-06 21:22:01 GMT 53.235214 -6.620911 37,000 22 421 0
2019-12-06 21:21:58 GMT 53.228027 -6.625854 37,000 22 430 0
2019-12-06 21:21:54 GMT 53.222614 -6.629603 37,000 22 421 -64
2019-12-06 21:21:51 GMT 53.217224 -6.633310 37,000 22 421 -64
2019-12-06 21:21:48 GMT 53.210770 -6.637783 37,000 22 421 0
2019-12-06 21:21:45 GMT 53.205002 -6.641706 37,000 22 421 -64
2019-12-06 21:21:42 GMT 53.201431 -6.644217 37,000 22 421 0
2019-12-06 21:21:39 GMT 53.196350 -6.647670 37,000 22 422 0
2019-12-06 21:21:36 GMT 53.189850 -6.652143 37,000 22 423 64
2019-12-06 21:21:32 GMT 53.182953 -6.656826 37,000 22 427 -64
2019-12-06 21:21:29 GMT 53.177490 -6.660540 37,000 22 427 -64
2019-12-06 21:21:26 GMT 53.170898 -6.665013 37,000 22 430 0
2019-12-06 21:21:22 GMT 53.164307 -6.669486 37,000 22 430 0
2019-12-06 21:21:19 GMT 53.158791 -6.673225 37,000 22 430 0
2019-12-06 21:21:15 GMT 53.151810 -6.677961 37,000 22 430 0
2019-12-06 21:21:12 GMT 53.145950 -6.682042 37,000 22 430 0
2019-12-06 21:21:09 GMT 53.139008 -6.686796 37,000 22 430 0
2019-12-06 21:21:06 GMT 53.134964 -6.689497 37,000 22 430 0
2019-12-06 21:21:03 GMT 53.129463 -6.693259 37,000 22 430 0
2019-12-06 21:21:00 GMT 53.123932 -6.697030 37,000 22 430 0
2019-12-06 21:20:57 GMT 53.118431 -6.700772 37,000 22 430 0
2019-12-06 21:20:54 GMT 53.106701 -6.708769 37,000 22 430 0
2019-12-06 21:20:51 GMT 53.106701 -6.708769 37,000 22 430 0
2019-12-06 21:20:48 GMT 53.096413 -6.715797 37,000 22 429 0
2019-12-06 21:20:45 GMT 53.096413 -6.715797 37,000 22 429 -64
2019-12-06 21:20:42 GMT 53.092037 -6.718846 37,000 22 429 0
2019-12-06 21:20:39 GMT 53.086533 -6.722565 37,000 22 429 0
2019-12-06 21:20:36 GMT 53.078430 -6.728134 37,000 22 429 -64
2019-12-06 21:20:33 GMT 53.074768 -6.730652 37,000 22 429 -64
2019-12-06 21:20:29 GMT 53.066338 -6.736424 37,000 22 429 0
2019-12-06 21:20:26 GMT 53.060120 -6.740646 37,000 22 429 0
2019-12-06 21:20:22 GMT 53.054607 -6.744428 37,000 22 427 0
2019-12-06 21:20:19 GMT 53.050232 -6.747410 37,000 22 428 0
2019-12-06 21:20:16 GMT 53.044006 -6.751709 37,000 22 429 0
2019-12-06 21:20:13 GMT 53.036636 -6.756668 37,000 22 429 -64
2019-12-06 21:20:10 GMT 53.025280 -6.764439 37,000 22 428 -64
2019-12-06 21:20:06 GMT 53.025280 -6.764439 37,000 22 428 -64
2019-12-06 21:20:03 GMT 53.020161 -6.767892 37,000 22 428 0
2019-12-06 21:20:00 GMT 53.013931 -6.772079 37,000 22 428 -64
2019-12-06 21:19:57 GMT 53.008427 -6.775818 37,000 22 428 0
2019-12-06 21:19:54 GMT 53.002563 -6.779742 37,000 22 428 0
2019-12-06 21:19:51 GMT 52.992645 -6.786423 37,000 22 428 0
2019-12-06 21:19:48 GMT 52.992645 -6.786423 37,000 22 428 0
2019-12-06 21:19:45 GMT 52.984589 -6.791840 37,000 22 428 0
2019-12-06 21:19:42 GMT 52.981659 -6.793823 37,000 22 427 0
2019-12-06 21:19:39 GMT 52.975800 -6.797791 37,000 22 428 0
2019-12-06 21:19:36 GMT 52.970303 -6.801479 37,000 22 428 0
2019-12-06 21:19:33 GMT 52.965546 -6.804657 37,000 22 428 0
2019-12-06 21:19:29 GMT 52.952007 -6.813721 37,000 22 428 0
2019-12-06 21:19:26 GMT 52.952007 -6.813721 37,000 21 428 0
2019-12-06 21:19:20 GMT 52.940643 -6.821365 37,000 21 428 0
2019-12-06 21:19:17 GMT 52.935902 -6.824472 37,000 21 428 0
2019-12-06 21:19:14 GMT 52.928543 -6.829415 37,000 21 428 0
2019-12-06 21:19:10 GMT 52.921234 -6.834281 37,000 21 428 0
2019-12-06 21:19:07 GMT 52.917606 -6.836714 37,000 22 427 0
2019-12-06 21:19:04 GMT 52.910995 -6.841108 37,000 22 427 0
2019-12-06 21:18:59 GMT 52.902943 -6.846444 37,000 22 427 0
2019-12-06 21:18:56 GMT 52.892002 -6.853821 37,000 22 427 0
2019-12-06 21:18:48 GMT 52.882095 -6.860428 37,000 22 426 0
2019-12-06 21:18:45 GMT 52.876640 -6.864101 37,000 22 426 0
2019-12-06 21:18:42 GMT 52.873009 -6.866534 37,000 22 426 0
2019-12-06 21:18:39 GMT 52.864956 -6.871948 37,000 22 426 0
2019-12-06 21:18:36 GMT 52.859879 -6.875401 37,000 22 426 0
2019-12-06 21:18:33 GMT 52.855865 -6.878128 37,000 22 426 0
2019-12-06 21:18:29 GMT 52.847809 -6.883545 37,000 22 426 0
2019-12-06 21:18:26 GMT 52.842377 -6.887251 37,000 22 426 0
2019-12-06 21:18:23 GMT 52.836868 -6.890945 37,000 22 426 0
2019-12-06 21:18:18 GMT 52.828125 -6.896820 37,000 22 426 0
2019-12-06 21:18:13 GMT 52.818310 -6.903495 37,000 22 426 0
2019-12-06 21:18:07 GMT 52.806290 -6.911545 37,000 22 425 0
2019-12-06 21:18:03 GMT 52.800476 -6.915436 37,000 22 425 0
2019-12-06 21:17:59 GMT 52.791733 -6.921310 37,000 22 425 0
2019-12-06 21:17:53 GMT 52.782604 -6.927351 37,000 22 425 0
2019-12-06 21:17:50 GMT 52.777176 -6.931000 37,000 21 424 0
2019-12-06 21:17:47 GMT 52.772781 -6.933899 37,000 21 424 0
2019-12-06 21:17:44 GMT 52.766636 -6.938023 37,000 21 424 0
2019-12-06 21:17:41 GMT 52.759003 -6.943130 37,000 22 423 0
2019-12-06 21:17:38 GMT 52.749527 -6.949387 37,000 21 424 0
2019-12-06 21:17:35 GMT 52.745178 -6.952286 37,000 22 422 -64
2019-12-06 21:17:32 GMT 52.735352 -6.958819 37,000 22 423 0
2019-12-06 21:17:28 GMT 52.735352 -6.958819 37,000 22 423 0
2019-12-06 21:17:25 GMT 52.731022 -6.961722 37,000 22 423 0
2019-12-06 21:17:22 GMT 52.726646 -6.964626 37,000 22 423 0
2019-12-06 21:17:18 GMT 52.713612 -6.973336 37,000 22 422 0
2019-12-06 21:17:15 GMT 52.713612 -6.973336 37,000 22 423 0
2019-12-06 21:17:12 GMT 52.708191 -6.976929 37,000 22 423 0
2019-12-06 21:17:08 GMT 52.700226 -6.982269 37,000 22 423 0
2019-12-06 21:17:05 GMT 52.693317 -6.986912 37,000 22 423 0
2019-12-06 21:17:02 GMT 52.689732 -6.989345 37,000 22 423 0
2019-12-06 21:16:58 GMT 52.682831 -6.993942 37,000 22 423 0
2019-12-06 21:16:55 GMT 52.677063 -6.997833 37,000 22 423 0
2019-12-06 21:16:52 GMT 52.672714 -7.000732 37,000 22 423 0
2019-12-06 21:16:49 GMT 52.666214 -7.005157 37,000 22 422 0
2019-12-06 21:16:45 GMT 52.657562 -7.010956 37,000 22 422 0
2019-12-06 21:16:42 GMT 52.653561 -7.013672 37,000 22 422 0
2019-12-06 21:16:36 GMT 52.643459 -7.020499 37,000 22 422 0
2019-12-06 21:16:33 GMT 52.638386 -7.023873 37,000 22 422 0
2019-12-06 21:16:30 GMT 52.631561 -7.028503 37,000 22 422 0
2019-12-06 21:16:26 GMT 52.624329 -7.033386 37,000 22 422 0
2019-12-06 21:16:23 GMT 52.618179 -7.037528 37,000 21 422 0
2019-12-06 21:16:20 GMT 52.614212 -7.040176 37,000 22 422 0
2019-12-06 21:16:16 GMT 52.606979 -7.045059 37,000 22 422 0
2019-12-06 21:16:13 GMT 52.601944 -7.048416 37,000 22 422 0
2019-12-06 21:16:10 GMT 52.596535 -7.052046 37,000 22 422 0
2019-12-06 21:16:07 GMT 52.590408 -7.056122 37,000 22 421 0
2019-12-06 21:16:04 GMT 52.579559 -7.063293 37,000 21 422 0
2019-12-06 21:16:01 GMT 52.572327 -7.068024 37,000 21 422 0
2019-12-06 21:15:57 GMT 52.572327 -7.068024 37,000 21 422 0
2019-12-06 21:15:54 GMT 52.565437 -7.072606 37,000 21 422 0
2019-12-06 21:15:51 GMT 52.561108 -7.075431 37,000 21 422 0
2019-12-06 21:15:47 GMT 52.554199 -7.079926 37,000 21 422 0
2019-12-06 21:15:44 GMT 52.548431 -7.083740 37,000 21 422 -64
2019-12-06 21:15:41 GMT 52.542999 -7.087359 37,000 21 422 0
2019-12-06 21:15:37 GMT 52.535782 -7.092146 37,000 21 422 64
2019-12-06 21:15:33 GMT 52.529617 -7.096176 37,000 21 422 0
2019-12-06 21:15:30 GMT 52.521305 -7.101719 37,000 21 422 0
2019-12-06 21:15:24 GMT 52.513344 -7.106977 37,000 21 422 -64
2019-12-06 21:15:21 GMT 52.505722 -7.111969 37,000 21 422 0
2019-12-06 21:15:15 GMT 52.495934 -7.118434 37,000 21 422 -64
2019-12-06 21:15:12 GMT 52.490906 -7.121809 37,000 21 422 0
2019-12-06 21:15:09 GMT 52.485832 -7.125183 37,000 21 422 0
2019-12-06 21:15:06 GMT 52.481094 -7.128296 37,000 21 422 0
2019-12-06 21:15:03 GMT 52.474987 -7.132324 37,000 21 422 0
2019-12-06 21:15:00 GMT 52.469166 -7.136169 37,000 21 422 0
2019-12-06 21:14:56 GMT 52.463013 -7.140198 37,000 21 422 0
2019-12-06 21:14:53 GMT 52.455048 -7.145462 37,000 21 422 -64
2019-12-06 21:14:50 GMT 52.451103 -7.148097 37,000 21 422 -64
2019-12-06 21:14:46 GMT 52.445286 -7.151864 37,000 21 422 0
2019-12-06 21:14:43 GMT 52.438068 -7.156573 37,000 21 422 0
2019-12-06 21:14:40 GMT 52.426117 -7.164459 37,000 21 422 0
2019-12-06 21:14:36 GMT 52.426117 -7.164459 37,000 21 422 -64
2019-12-06 21:14:33 GMT 52.421452 -7.167480 37,000 21 422 0
2019-12-06 21:14:30 GMT 52.414581 -7.172012 37,000 21 422 -64
2019-12-06 21:14:26 GMT 52.407349 -7.176819 37,000 21 421 0
2019-12-06 21:14:23 GMT 52.401199 -7.180821 37,000 21 421 0
2019-12-06 21:14:19 GMT 52.395428 -7.184666 37,000 21 421 0
2019-12-06 21:14:16 GMT 52.389656 -7.188433 37,000 21 421 0
2019-12-06 21:14:13 GMT 52.377365 -7.196437 37,000 21 421 0
2019-12-06 21:14:10 GMT 52.377365 -7.196437 37,000 21 421 0
2019-12-06 21:14:05 GMT 52.370152 -7.201224 37,000 21 421 0
2019-12-06 21:14:02 GMT 52.364731 -7.204742 37,000 21 421 0
2019-12-06 21:13:59 GMT 52.358963 -7.208557 37,000 21 421 0
2019-12-06 21:13:55 GMT 52.351341 -7.213545 37,000 21 421 0
2019-12-06 21:13:52 GMT 52.346695 -7.216568 37,000 21 421 0
2019-12-06 21:13:49 GMT 52.340881 -7.220383 37,000 21 421 0
2019-12-06 21:13:46 GMT 52.335114 -7.224121 37,000 21 420 0
2019-12-06 21:13:43 GMT 52.325367 -7.230495 37,000 21 421 0
2019-12-06 21:13:40 GMT 52.325367 -7.230495 37,000 21 421 0
2019-12-06 21:13:37 GMT 52.313126 -7.238499 37,000 21 421 0
2019-12-06 21:13:34 GMT 52.313126 -7.238499 37,000 21 421 0
2019-12-06 21:13:30 GMT 52.306606 -7.242737 37,000 21 421 0
2019-12-06 21:13:24 GMT 52.296158 -7.249603 37,000 21 421 0
2019-12-06 21:13:21 GMT 52.291431 -7.252703 37,000 21 421 0
2019-12-06 21:13:18 GMT 52.277699 -7.261649 37,000 21 421 0
2019-12-06 21:13:14 GMT 52.277699 -7.261649 37,000 21 421 0
2019-12-06 21:13:11 GMT 52.272671 -7.264945 37,000 21 421 64
2019-12-06 21:13:08 GMT 52.267597 -7.268319 37,000 22 421 0
2019-12-06 21:13:05 GMT 52.262569 -7.271615 37,000 21 422 0
2019-12-06 21:13:01 GMT 52.252419 -7.278207 37,000 21 422 0
2019-12-06 21:12:58 GMT 52.241573 -7.285348 37,000 21 422 0
2019-12-06 21:12:54 GMT 52.241573 -7.285348 37,000 21 422 0
2019-12-06 21:12:51 GMT 52.236546 -7.288644 37,000 21 422 0
2019-12-06 21:12:48 GMT 52.231110 -7.292175 37,000 21 422 0
2019-12-06 21:12:45 GMT 52.225700 -7.295785 37,000 21 422 0
2019-12-06 21:12:41 GMT 52.217377 -7.301178 37,000 21 422 0
2019-12-06 21:12:38 GMT 52.209412 -7.306366 37,000 21 421 0
2019-12-06 21:12:35 GMT 52.200375 -7.312186 37,000 21 421 0
2019-12-06 21:12:31 GMT 52.200375 -7.312186 37,000 21 421 0
2019-12-06 21:12:28 GMT 52.194214 -7.316208 37,000 21 421 0
2019-12-06 21:12:24 GMT 52.185898 -7.321603 37,000 21 422 0
2019-12-06 21:12:21 GMT 52.182266 -7.323957 37,000 21 422 0
2019-12-06 21:12:18 GMT 52.176132 -7.327957 37,000 21 422 0
2019-12-06 21:12:15 GMT 52.171783 -7.330780 37,000 21 420 0
2019-12-06 21:12:11 GMT 52.163086 -7.336426 37,000 21 421 0
2019-12-06 21:12:08 GMT 52.158051 -7.339706 37,000 21 421 0
2019-12-06 21:12:05 GMT 52.152611 -7.343183 37,000 21 421 0
2019-12-06 21:12:01 GMT 52.146095 -7.347342 37,000 21 421 0
2019-12-06 21:11:58 GMT 52.140324 -7.351031 37,000 21 421 0
2019-12-06 21:11:55 GMT 52.134548 -7.354797 37,000 21 420 -64
2019-12-06 21:11:50 GMT 52.126236 -7.360077 37,000 21 420 0
2019-12-06 21:11:47 GMT 52.115044 -7.367353 37,000 21 420 0
2019-12-06 21:11:40 GMT 52.108200 -7.371750 37,000 21 420 0
2019-12-06 21:11:37 GMT 52.103500 -7.374808 37,000 21 420 0
2019-12-06 21:11:34 GMT 52.098083 -7.378311 37,000 21 420 0
2019-12-06 21:11:31 GMT 52.092697 -7.381871 37,000 21 420 0
2019-12-06 21:11:28 GMT 52.079014 -7.390817 37,000 21 420 0
2019-12-06 21:11:25 GMT 52.076477 -7.392426 37,000 21 420 0
2019-12-06 21:11:19 GMT 52.071098 -7.395918 37,000 21 420 0
2019-12-06 21:11:16 GMT 52.064987 -7.399979 37,000 21 420 64
2019-12-06 21:11:13 GMT 52.057022 -7.405090 37,000 21 420 0
2019-12-06 21:11:09 GMT 52.052338 -7.408081 37,000 21 420 64
2019-12-06 21:11:06 GMT 52.045486 -7.412491 37,000 21 420 64
2019-12-06 21:11:03 GMT 52.041538 -7.415065 37,000 21 420 0
2019-12-06 21:11:00 GMT 52.031437 -7.421500 37,000 21 420 0
2019-12-06 21:10:54 GMT 52.022415 -7.427292 37,000 21 420 0
2019-12-06 21:10:50 GMT 52.018066 -7.430115 37,000 21 420 0
2019-12-06 21:10:47 GMT 52.011932 -7.434056 37,000 21 421 -64
2019-12-06 21:10:43 GMT 52.003227 -7.439628 37,000 21 421 0
2019-12-06 21:10:40 GMT 51.999252 -7.442169 37,000 21 421 0
2019-12-06 21:10:37 GMT 51.992424 -7.446612 37,000 21 421 0
2019-12-06 21:10:32 GMT 51.979389 -7.454930 37,000 21 421 0
2019-12-06 21:10:29 GMT 51.979389 -7.454930 37,000 21 421 0
2019-12-06 21:10:22 GMT 51.967438 -7.462616 37,000 21 421 0
2019-12-06 21:10:19 GMT 51.961670 -7.466354 37,000 21 421 0
2019-12-06 21:10:16 GMT 51.956253 -7.469840 37,000 21 421 0
2019-12-06 21:10:11 GMT 51.942474 -7.478629 37,000 21 422 0
2019-12-06 21:10:05 GMT 51.936657 -7.482396 37,000 21 422 0
2019-12-06 21:10:02 GMT 51.929764 -7.486801 37,000 21 422 0
2019-12-06 21:09:59 GMT 51.924320 -7.490243 37,000 21 422 -64
2019-12-06 21:09:56 GMT 51.920689 -7.492597 37,000 21 422 -64
2019-12-06 21:09:52 GMT 51.912369 -7.497864 37,000 21 423 -64
2019-12-06 21:09:49 GMT 51.908707 -7.500229 37,000 21 423 -64
2019-12-06 21:09:46 GMT 51.893829 -7.509705 37,000 21 423 -64
2019-12-06 21:09:41 GMT 51.893829 -7.509705 37,000 21 423 -64
2019-12-06 21:09:38 GMT 51.887310 -7.513885 37,000 21 423 -64
2019-12-06 21:09:35 GMT 51.881493 -7.517624 37,000 21 423 0
2019-12-06 21:09:31 GMT 51.873486 -7.522736 37,000 21 423 0
2019-12-06 21:09:28 GMT 51.869110 -7.525558 37,000 21 423 0
2019-12-06 21:09:25 GMT 51.863663 -7.529049 37,000 21 423 0
2019-12-06 21:09:22 GMT 51.853840 -7.535324 37,000 21 424 0
2019-12-06 21:09:19 GMT 51.853840 -7.535324 37,000 21 424 0
2019-12-06 21:09:16 GMT 51.847687 -7.539293 37,000 21 425 0
2019-12-06 21:09:13 GMT 51.842201 -7.542801 37,000 21 425 0
2019-12-06 21:09:10 GMT 51.836384 -7.546539 37,000 21 425 0
2019-12-06 21:09:07 GMT 51.826141 -7.553101 37,000 21 425 0
2019-12-06 21:09:01 GMT 51.813709 -7.561035 37,000 21 426 0
2019-12-06 21:08:58 GMT 51.813709 -7.561035 37,000 21 427 0
2019-12-06 21:08:54 GMT 51.797928 -7.571139 37,000 21 428 0
2019-12-06 21:08:49 GMT 51.797928 -7.571139 37,000 21 428 0
2019-12-06 21:08:46 GMT 51.793533 -7.573960 37,000 21 428 0
2019-12-06 21:08:43 GMT 51.787270 -7.577972 37,000 21 429 0
2019-12-06 21:08:40 GMT 51.781036 -7.581977 37,000 21 429 0
2019-12-06 21:08:37 GMT 51.776642 -7.584798 37,000 21 429 0
2019-12-06 21:08:34 GMT 51.771114 -7.588348 37,000 21 429 0
2019-12-06 21:08:31 GMT 51.763714 -7.593002 37,000 21 429 0
2019-12-06 21:08:27 GMT 51.756359 -7.597733 37,000 21 430 -64
2019-12-06 21:08:23 GMT 51.749702 -7.601929 37,000 21 430 0
2019-12-06 21:08:19 GMT 51.737549 -7.609740 37,000 21 430 0
2019-12-06 21:08:16 GMT 51.730522 -7.614212 37,000 21 428 0
2019-12-06 21:08:09 GMT 51.719055 -7.621542 37,000 21 430 0
2019-12-06 21:08:06 GMT 51.719055 -7.621542 37,000 21 430 0
2019-12-06 21:08:03 GMT 51.712788 -7.625504 37,000 21 430 0
2019-12-06 21:07:59 GMT 51.700962 -7.633057 37,000 21 430 0
2019-12-06 21:07:56 GMT 51.700962 -7.633057 37,000 21 430 0
2019-12-06 21:07:48 GMT 51.680649 -7.645965 37,000 21 430 0
2019-12-06 21:07:42 GMT 51.674381 -7.649994 37,000 21 430 0
2019-12-06 21:07:39 GMT 51.668839 -7.653536 37,000 21 430 0
2019-12-06 21:07:36 GMT 51.663300 -7.657013 37,000 21 430 0
2019-12-06 21:07:32 GMT 51.651478 -7.664490 37,000 21 427 -64
2019-12-06 21:07:26 GMT 51.644485 -7.668902 37,000 21 429 -64
2019-12-06 21:07:23 GMT 51.639313 -7.672169 37,000 21 429 -64
2019-12-06 21:07:20 GMT 51.628281 -7.679221 37,000 21 428 0
2019-12-06 21:07:17 GMT 51.622009 -7.683182 37,000 21 428 0
2019-12-06 21:07:13 GMT 51.622009 -7.683182 37,000 21 428 0
2019-12-06 21:07:08 GMT 51.611675 -7.689667 37,000 21 428 0
2019-12-06 21:07:05 GMT 51.605762 -7.693405 37,000 21 428 0
2019-12-06 21:07:02 GMT 51.602085 -7.695770 37,000 21 428 0
2019-12-06 21:06:58 GMT 51.588120 -7.704620 37,000 21 428 0
2019-12-06 21:06:52 GMT 51.575226 -7.712774 37,000 21 428 0
2019-12-06 21:06:48 GMT 51.575226 -7.712774 37,000 21 428 0
2019-12-06 21:06:44 GMT 51.567123 -7.717821 37,000 21 428 0
2019-12-06 21:06:38 GMT 51.557556 -7.723908 37,000 21 428 0
2019-12-06 21:06:35 GMT 51.550919 -7.728065 37,000 21 428 0
2019-12-06 21:06:31 GMT 51.543941 -7.732468 37,000 21 428 0
2019-12-06 21:06:28 GMT 51.536587 -7.737045 37,000 21 428 0
2019-12-06 21:06:24 GMT 51.525555 -7.743988 37,000 21 428 64
2019-12-06 21:06:15 GMT 51.514519 -7.750931 37,000 21 428 0
2019-12-06 21:06:11 GMT 51.507862 -7.755127 37,000 21 428 0
2019-12-06 21:06:07 GMT 51.499763 -7.760239 37,000 21 427 0
2019-12-06 21:06:04 GMT 51.494247 -7.763697 37,000 21 427 0
2019-12-06 21:06:01 GMT 51.480679 -7.772217 37,000 21 427 0
2019-12-06 21:05:57 GMT 51.480679 -7.772217 37,000 21 427 -64
2019-12-06 21:05:53 GMT 51.464859 -7.782180 37,000 21 427 0
2019-12-06 21:05:45 GMT 51.458267 -7.786337 37,000 21 427 0
2019-12-06 21:05:37 GMT 51.444305 -7.795097 37,000 21 427 0
2019-12-06 21:05:34 GMT 51.439526 -7.798080 37,000 21 426 0
2019-12-06 21:05:30 GMT 51.431473 -7.803192 37,000 21 426 0
2019-12-06 21:05:27 GMT 51.425217 -7.807122 37,000 21 426 0
2019-12-06 21:05:24 GMT 51.420822 -7.809869 37,000 21 426 0
2019-12-06 21:05:20 GMT 51.412033 -7.815362 37,000 21 426 0
2019-12-06 21:05:16 GMT 51.405823 -7.819290 37,000 21 425 0
2019-12-06 21:05:13 GMT 51.399956 -7.822952 37,000 21 425 0
2019-12-06 21:05:09 GMT 51.393391 -7.827148 37,000 21 425 0
2019-12-06 21:05:06 GMT 51.387177 -7.831025 37,000 21 425 0
2019-12-06 21:05:03 GMT 51.381706 -7.834473 37,000 21 425 0
2019-12-06 21:04:59 GMT 51.375839 -7.838211 37,000 21 425 0
2019-12-06 21:04:56 GMT 51.369278 -7.842331 37,000 21 424 0
2019-12-06 21:04:52 GMT 51.363052 -7.846243 37,000 21 424 0
2019-12-06 21:04:48 GMT 51.355404 -7.851028 37,000 20 421 0
2019-12-06 21:04:44 GMT 51.346252 -7.856783 37,000 21 424 0
2019-12-06 21:04:39 GMT 51.338242 -7.861831 37,000 21 424 0
2019-12-06 21:04:35 GMT 51.326218 -7.869415 37,000 21 424 0
2019-12-06 21:04:32 GMT 51.326218 -7.869415 37,000 21 424 0
2019-12-06 21:04:29 GMT 51.321095 -7.872620 37,000 21 424 0
2019-12-06 21:04:26 GMT 51.315277 -7.876282 37,000 21 424 0
2019-12-06 21:04:23 GMT 51.308712 -7.880402 37,000 21 424 0
2019-12-06 21:04:19 GMT 51.302151 -7.884445 37,000 21 424 0
2019-12-06 21:04:16 GMT 51.295944 -7.888332 37,000 21 424 0
2019-12-06 21:04:13 GMT 51.290863 -7.891524 37,000 21 423 0
2019-12-06 21:04:07 GMT 51.280315 -7.898178 37,000 21 423 0
2019-12-06 21:04:03 GMT 51.265366 -7.907410 37,000 21 423 0
2019-12-06 21:03:59 GMT 51.265366 -7.907410 37,000 21 423 0
2019-12-06 21:03:55 GMT 51.258087 -7.911938 37,000 21 423 0
2019-12-06 21:03:52 GMT 51.253738 -7.914684 37,000 21 422 0
2019-12-06 21:03:46 GMT 51.241722 -7.922134 37,000 21 422 0
2019-12-06 21:03:42 GMT 51.235161 -7.926178 37,000 21 422 0
2019-12-06 21:03:38 GMT 51.228241 -7.930422 37,000 21 422 0
2019-12-06 21:03:35 GMT 51.222778 -7.933807 37,000 21 422 0
2019-12-06 21:03:32 GMT 51.216614 -7.937622 37,000 21 422 0
2019-12-06 21:03:28 GMT 51.210068 -7.941631 37,000 20 421 0
2019-12-06 21:03:25 GMT 51.204987 -7.944748 37,000 20 421 0
2019-12-06 21:03:22 GMT 51.198395 -7.948683 37,000 20 421 -64
2019-12-06 21:03:16 GMT 51.180954 -7.959298 37,000 20 421 0
2019-12-06 21:03:13 GMT 51.180954 -7.959298 37,000 20 421 0
2019-12-06 21:03:07 GMT 51.172211 -7.964642 37,000 20 421 0
2019-12-06 21:03:03 GMT 51.164932 -7.969096 37,000 20 421 0
2019-12-06 21:03:00 GMT 51.159119 -7.972585 37,000 21 421 0
2019-12-06 21:02:57 GMT 51.154037 -7.975703 37,000 21 421 0
2019-12-06 21:02:54 GMT 51.146759 -7.980157 37,000 21 421 0
2019-12-06 21:02:50 GMT 51.140614 -7.983932 37,000 21 421 0
2019-12-06 21:02:47 GMT 51.134094 -7.987976 37,000 21 421 0
2019-12-06 21:02:43 GMT 51.127899 -7.991811 37,000 21 421 0
2019-12-06 21:02:40 GMT 51.122131 -7.995375 37,000 21 421 0
2019-12-06 21:02:37 GMT 51.115940 -7.999191 37,000 21 422 0
2019-12-06 21:02:33 GMT 51.110168 -8.002777 37,000 21 421 -64
2019-12-06 21:02:30 GMT 51.102905 -8.007355 37,000 21 421 0
2019-12-06 21:02:25 GMT 51.094944 -8.012314 37,000 21 421 0
2019-12-06 21:02:21 GMT 51.087685 -8.016815 37,000 21 421 0
2019-12-06 21:02:17 GMT 51.073204 -8.025818 37,000 21 421 0
2019-12-06 21:02:14 GMT 51.073204 -8.025818 37,000 21 421 0
2019-12-06 21:02:11 GMT 51.069572 -8.028030 37,000 21 421 0
2019-12-06 21:02:04 GMT 51.056538 -8.036118 37,000 21 420 0
2019-12-06 21:02:01 GMT 51.050766 -8.039703 37,000 21 420 0
2019-12-06 21:01:54 GMT 51.038818 -8.047114 37,000 21 420 0
2019-12-06 21:01:51 GMT 51.033051 -8.050677 37,000 21 420 -64
2019-12-06 21:01:47 GMT 51.026505 -8.054686 37,000 21 420 -64
2019-12-06 21:01:44 GMT 51.020004 -8.058694 37,000 21 420 0
2019-12-06 21:01:37 GMT 51.008423 -8.065821 37,000 21 419 0
2019-12-06 21:01:34 GMT 51.003002 -8.069153 37,000 21 419 0
2019-12-06 21:01:31 GMT 50.995789 -8.073578 37,000 21 419 0
2019-12-06 21:01:27 GMT 50.982422 -8.081855 37,000 21 419 64
2019-12-06 21:01:23 GMT 50.982422 -8.081855 37,000 21 419 0
2019-12-06 21:01:20 GMT 50.977386 -8.084972 37,000 21 419 0
2019-12-06 21:01:17 GMT 50.971954 -8.088379 37,000 21 419 0
2019-12-06 21:01:14 GMT 50.966537 -8.091653 37,000 21 419 0
2019-12-06 21:01:10 GMT 50.959305 -8.096107 37,000 21 419 0
2019-12-06 21:01:07 GMT 50.953892 -8.099442 37,000 21 419 0
2019-12-06 21:01:04 GMT 50.948120 -8.103027 37,000 21 419 0
2019-12-06 21:01:00 GMT 50.940536 -8.107687 37,000 21 419 0
2019-12-06 21:00:57 GMT 50.935829 -8.110580 37,000 21 419 0
2019-12-06 21:00:54 GMT 50.930420 -8.113849 37,000 21 419 0
2019-12-06 21:00:50 GMT 50.923920 -8.117857 37,000 21 419 -64
2019-12-06 21:00:47 GMT 50.917767 -8.121643 37,000 21 419 -64
2019-12-06 21:00:44 GMT 50.911652 -8.125429 37,000 21 419 0
2019-12-06 21:00:40 GMT 50.904778 -8.129654 37,000 21 419 0
2019-12-06 21:00:37 GMT 50.899704 -8.132706 37,000 21 419 0
2019-12-06 21:00:33 GMT 50.890686 -8.138271 37,000 21 419 0
2019-12-06 21:00:30 GMT 50.885273 -8.141556 37,000 21 419 0
2019-12-06 21:00:26 GMT 50.880943 -8.144226 37,000 21 420 0
2019-12-06 21:00:22 GMT 50.871540 -8.149948 37,000 21 419 0
2019-12-06 21:00:19 GMT 50.866467 -8.153076 37,000 21 420 0
2019-12-06 21:00:16 GMT 50.862488 -8.155493 37,000 21 419 0
2019-12-06 21:00:13 GMT 50.857452 -8.158536 37,000 21 419 0
2019-12-06 21:00:10 GMT 50.850220 -8.162990 37,000 21 419 0
2019-12-06 21:00:06 GMT 50.844452 -8.166479 37,000 21 420 0
2019-12-06 21:00:03 GMT 50.839371 -8.169597 37,000 21 420 0
2019-12-06 21:00:00 GMT 50.832481 -8.173828 37,000 21 420 0
2019-12-06 20:59:56 GMT 50.818050 -8.182602 37,000 21 420 0
2019-12-06 20:59:52 GMT 50.818050 -8.182602 37,000 21 420 0
2019-12-06 20:59:49 GMT 50.812233 -8.186111 37,000 21 420 0
2019-12-06 20:59:46 GMT 50.806824 -8.189417 37,000 21 420 0
2019-12-06 20:59:43 GMT 50.802475 -8.192089 37,000 21 420 0
2019-12-06 20:59:40 GMT 50.796310 -8.195801 37,000 21 420 0
2019-12-06 20:59:36 GMT 50.788696 -8.200477 37,000 21 420 0
2019-12-06 20:59:32 GMT 50.780392 -8.205490 37,000 21 421 -64
2019-12-06 20:59:29 GMT 50.774918 -8.208866 37,000 21 421 0
2019-12-06 20:59:26 GMT 50.769497 -8.212128 37,000 21 421 -64
2019-12-06 20:59:23 GMT 50.765865 -8.214340 37,000 21 421 -64
2019-12-06 20:59:19 GMT 50.753174 -8.222079 37,000 21 422 -64
2019-12-06 20:59:16 GMT 50.753174 -8.222079 37,000 20 421 -64
2019-12-06 20:59:13 GMT 50.747711 -8.225403 37,000 20 421 -64
2019-12-06 20:59:09 GMT 50.734268 -8.233511 37,000 20 421 64
2019-12-06 20:59:06 GMT 50.734268 -8.233511 37,000 20 421 64
2019-12-06 20:59:03 GMT 50.729141 -8.236554 37,000 20 421 64
2019-12-06 20:58:58 GMT 50.719711 -8.242270 37,000 20 421 -64
2019-12-06 20:58:55 GMT 50.713497 -8.246002 37,000 20 421 -64
2019-12-06 20:58:51 GMT 50.706932 -8.249893 37,000 20 421 0
2019-12-06 20:58:46 GMT 50.698227 -8.255157 37,000 20 421 0
2019-12-06 20:58:42 GMT 50.691662 -8.259125 37,000 20 421 0
2019-12-06 20:58:38 GMT 50.683655 -8.263931 37,000 20 421 0
2019-12-06 20:58:35 GMT 50.672714 -8.270569 37,000 21 422 0
2019-12-06 20:58:32 GMT 50.672714 -8.270569 37,000 21 422 0
2019-12-06 20:58:28 GMT 50.664009 -8.275823 37,000 21 422 0
2019-12-06 20:58:24 GMT 50.659241 -8.278704 37,000 21 422 0
2019-12-06 20:58:21 GMT 50.647999 -8.285547 37,000 21 422 0
2019-12-06 20:58:18 GMT 50.647999 -8.285547 37,000 21 422 0
2019-12-06 20:58:15 GMT 50.642532 -8.288823 37,000 21 422 -64
2019-12-06 20:58:11 GMT 50.635612 -8.293045 37,000 21 422 -64
2019-12-06 20:58:08 GMT 50.629051 -8.296979 37,000 21 422 0
2019-12-06 20:58:05 GMT 50.623230 -8.300542 37,000 21 422 0
2019-12-06 20:58:00 GMT 50.614525 -8.305813 37,000 21 422 0
2019-12-06 20:57:55 GMT 50.605076 -8.311528 37,000 20 421 0
2019-12-06 20:57:50 GMT 50.590549 -8.320288 37,000 21 419 0
2019-12-06 20:57:47 GMT 50.590549 -8.320288 37,000 20 420 -64
2019-12-06 20:57:42 GMT 50.581467 -8.325757 37,000 20 420 0
2019-12-06 20:57:38 GMT 50.572723 -8.330962 37,000 20 420 0
2019-12-06 20:57:34 GMT 50.558945 -8.339129 37,000 20 420 -64
2019-12-06 20:57:30 GMT 50.558945 -8.339129 37,000 20 420 -64
2019-12-06 20:57:27 GMT 50.545166 -8.347369 37,000 20 419 0
2019-12-06 20:57:22 GMT 50.545166 -8.347369 37,000 20 419 0
2019-12-06 20:57:19 GMT 50.540817 -8.349971 37,000 20 419 0
2019-12-06 20:57:16 GMT 50.534317 -8.353874 37,000 20 419 0
2019-12-06 20:57:12 GMT 50.522350 -8.361041 37,000 20 419 0
2019-12-06 20:57:09 GMT 50.516235 -8.364788 37,000 21 419 0
2019-12-06 20:56:59 GMT 50.503593 -8.372399 37,000 21 419 0
2019-12-06 20:56:55 GMT 50.496735 -8.376569 37,000 21 419 0
2019-12-06 20:56:49 GMT 50.485886 -8.383147 37,000 21 419 0
2019-12-06 20:56:46 GMT 50.479057 -8.387245 37,000 21 419 0
2019-12-06 20:56:39 GMT 50.467514 -8.394223 37,000 21 417 -64
2019-12-06 20:56:35 GMT 50.461395 -8.397964 37,000 21 417 -64
2019-12-06 20:56:29 GMT 50.449497 -8.405135 37,000 21 417 64
2019-12-06 20:56:26 GMT 50.442284 -8.409440 37,000 21 417 0
2019-12-06 20:56:22 GMT 50.436859 -8.412708 37,000 21 417 0
2019-12-06 20:56:19 GMT 50.430405 -8.416612 37,000 21 417 -64
2019-12-06 20:56:15 GMT 50.424267 -8.420352 37,000 21 417 -64
2019-12-06 20:56:08 GMT 50.412769 -8.427256 37,000 21 416 -64
2019-12-06 20:56:04 GMT 50.404495 -8.432296 37,000 21 416 64
2019-12-06 20:56:01 GMT 50.399128 -8.435496 37,000 21 415 256
2019-12-06 20:55:58 GMT 50.394100 -8.438539 36,975 21 415 832
2019-12-06 20:55:55 GMT 50.388374 -8.442028 36,775 12 408 1152
2019-12-06 20:55:48 GMT 50.375793 -8.449137 36,825 17 413 960
2019-12-06 20:55:44 GMT 50.369614 -8.452198 36,775 12 408 1152
2019-12-06 20:55:38 GMT 50.357574 -8.457593 36,650 14 409 1088
2019-12-06 20:55:34 GMT 50.351318 -8.459918 36,550 12 408 1152
2019-12-06 20:55:30 GMT 50.343964 -8.462442 36,525 11 408 1216
2019-12-06 20:55:26 GMT 50.336197 -8.464966 36,375 11 409 1088
2019-12-06 20:55:20 GMT 50.325851 -8.468218 36,325 11 409 1088
2019-12-06 20:55:16 GMT 50.317337 -8.470979 36,225 11 409 1216
2019-12-06 20:55:08 GMT 50.301044 -8.476175 36,075 11 410 640
2019-12-06 20:55:04 GMT 50.295456 -8.477976 36,025 11 411 384
2019-12-06 20:55:00 GMT 50.288040 -8.480361 36,000 11 410 64
2019-12-06 20:54:57 GMT 50.282089 -8.482313 36,000 11 410 0
2019-12-06 20:54:53 GMT 50.275764 -8.484340 36,000 11 410 -64
2019-12-06 20:54:50 GMT 50.259426 -8.489611 36,000 11 410 -64
2019-12-06 20:54:45 GMT 50.259426 -8.489611 36,000 11 410 -64
2019-12-06 20:54:40 GMT 50.250870 -8.492359 36,000 11 410 0
2019-12-06 20:54:37 GMT 50.244919 -8.494239 36,000 11 410 0
2019-12-06 20:54:33 GMT 50.237873 -8.496514 36,000 11 410 0
2019-12-06 20:54:30 GMT 50.231598 -8.498503 36,000 11 410 0
2019-12-06 20:54:25 GMT 50.222672 -8.501322 36,000 11 409 0
2019-12-06 20:54:20 GMT 50.213432 -8.504235 36,000 11 409 0
2019-12-06 20:54:15 GMT 50.204540 -8.507055 36,000 11 409 0
2019-12-06 20:54:10 GMT 50.194519 -8.510212 36,000 11 409 0
2019-12-06 20:54:07 GMT 50.184525 -8.513365 36,000 11 409 0
2019-12-06 20:53:56 GMT 50.168976 -8.518339 36,000 11 409 0
2019-12-06 20:53:48 GMT 50.155289 -8.522644 36,000 11 409 0
2019-12-06 20:53:44 GMT 50.147514 -8.525094 36,000 11 409 0
2019-12-06 20:53:39 GMT 50.138260 -8.527993 36,000 11 409 0
2019-12-06 20:53:36 GMT 50.132355 -8.529872 36,000 11 409 0
2019-12-06 20:53:33 GMT 50.127544 -8.531403 36,000 11 409 0
2019-12-06 20:53:29 GMT 50.120140 -8.533779 36,000 11 409 0
2019-12-06 20:53:25 GMT 50.109760 -8.537045 36,000 11 409 0
2019-12-06 20:53:19 GMT 50.100868 -8.539866 36,000 11 409 0
2019-12-06 20:53:14 GMT 50.091614 -8.542810 36,000 11 409 0
2019-12-06 20:53:09 GMT 50.081642 -8.545953 36,000 11 409 0
2019-12-06 20:53:04 GMT 50.072388 -8.548881 36,000 11 409 0
2019-12-06 20:52:58 GMT 50.062370 -8.552040 36,000 11 409 0
2019-12-06 20:52:54 GMT 50.054272 -8.554638 36,000 11 409 0
2019-12-06 20:52:49 GMT 50.044632 -8.557682 36,000 11 409 0
2019-12-06 20:52:44 GMT 50.035355 -8.560590 36,000 11 409 0
2019-12-06 20:52:38 GMT 50.025742 -8.563554 36,000 11 409 0
2019-12-06 20:52:34 GMT 50.007248 -8.569408 36,000 11 409 0
2019-12-06 20:52:28 GMT 50.007248 -8.569408 36,000 11 409 0
2019-12-06 20:52:23 GMT 49.997990 -8.572305 36,000 11 409 0
2019-12-06 20:52:18 GMT 49.988708 -8.575190 36,000 11 409 0
2019-12-06 20:52:13 GMT 49.970215 -8.581045 36,000 11 409 0
2019-12-06 20:52:08 GMT 49.970215 -8.581045 36,000 11 409 -64
2019-12-06 20:52:03 GMT 49.959488 -8.584405 36,000 11 409 0
2019-12-06 20:51:55 GMT 49.943939 -8.589304 36,000 11 409 0
2019-12-06 20:51:51 GMT 49.938400 -8.591019 36,000 11 409 0
2019-12-06 20:51:48 GMT 49.933182 -8.592610 36,000 11 409 0
2019-12-06 20:51:42 GMT 49.921326 -8.596368 36,000 11 409 0
2019-12-06 20:51:37 GMT 49.913177 -8.598898 36,000 11 409 0
2019-12-06 20:51:32 GMT 49.902462 -8.602295 36,000 11 409 0
2019-12-06 20:51:28 GMT 49.895416 -8.604463 36,000 11 409 0
2019-12-06 20:51:22 GMT 49.884682 -8.607862 36,000 11 409 0
2019-12-06 20:51:17 GMT 49.875790 -8.610683 36,000 11 409 0
2019-12-06 20:51:13 GMT 49.866154 -8.613727 36,000 11 409 0
2019-12-06 20:51:08 GMT 49.858006 -8.616325 36,000 11 409 0
2019-12-06 20:51:02 GMT 49.838734 -8.622412 36,000 11 409 0
2019-12-06 20:50:57 GMT 49.838734 -8.622412 36,000 11 409 0
2019-12-06 20:50:53 GMT 49.831329 -8.624713 36,000 11 409 -64
2019-12-06 20:50:50 GMT 49.824627 -8.626791 36,000 11 409 0
2019-12-06 20:50:47 GMT 49.820206 -8.628202 36,000 11 409 0
2019-12-06 20:50:40 GMT 49.806099 -8.632582 36,000 11 408 0
2019-12-06 20:50:30 GMT 49.787201 -8.638362 36,000 11 408 0
2019-12-06 20:50:27 GMT 49.782406 -8.639856 36,000 11 408 0
2019-12-06 20:50:22 GMT 49.772369 -8.642915 36,000 11 408 0
2019-12-06 20:50:17 GMT 49.763489 -8.645590 36,000 11 408 0
2019-12-06 20:50:10 GMT 49.748657 -8.650143 36,000 11 408 0
2019-12-06 20:50:01 GMT 49.733871 -8.654697 36,000 11 408 0
2019-12-06 20:49:57 GMT 49.726822 -8.656855 36,000 11 408 0
2019-12-06 20:49:52 GMT 49.716064 -8.660190 36,000 11 408 0
2019-12-06 20:49:47 GMT 49.708294 -8.662571 36,000 11 408 0
2019-12-06 20:49:39 GMT 49.689068 -8.668584 36,000 11 409 0
2019-12-06 20:49:31 GMT 49.679077 -8.671682 36,000 11 408 0
2019-12-06 20:49:27 GMT 49.670929 -8.674212 36,000 11 408 0
2019-12-06 20:49:22 GMT 49.661316 -8.677248 36,000 11 408 0
2019-12-06 20:49:19 GMT 49.655411 -8.679055 36,000 11 408 0
2019-12-06 20:49:16 GMT 49.651360 -8.680387 36,000 11 408 0
2019-12-06 20:49:10 GMT 49.640625 -8.683680 36,000 11 408 0
2019-12-06 20:49:06 GMT 49.633255 -8.685993 36,000 11 408 0
2019-12-06 20:49:01 GMT 49.622543 -8.689369 36,000 11 408 0
2019-12-06 20:48:56 GMT 49.614395 -8.691893 36,000 11 408 0
2019-12-06 20:48:50 GMT 49.602951 -8.695462 36,000 11 408 0
2019-12-06 20:48:46 GMT 49.595917 -8.697683 36,000 11 408 0
2019-12-06 20:48:40 GMT 49.585236 -8.701027 36,000 11 408 0
2019-12-06 20:48:35 GMT 49.576355 -8.703774 36,000 11 408 0
2019-12-06 20:48:31 GMT 49.566402 -8.706888 36,000 11 408 0
2019-12-06 20:48:26 GMT 49.558254 -8.709412 36,000 11 408 0
2019-12-06 20:48:20 GMT 49.547920 -8.712604 36,000 11 407 0
2019-12-06 20:48:16 GMT 49.540192 -8.714977 36,000 11 407 0
2019-12-06 20:48:09 GMT 49.527252 -8.718988 36,000 11 407 0
2019-12-06 20:48:06 GMT 49.521698 -8.720687 36,000 11 407 0
2019-12-06 20:47:59 GMT 49.509144 -8.724555 36,000 11 407 0
2019-12-06 20:47:55 GMT 49.502151 -8.726758 36,000 11 408 0
2019-12-06 20:47:49 GMT 49.489609 -8.730589 36,000 11 407 0
2019-12-06 20:47:45 GMT 49.483307 -8.732572 36,000 11 407 0
2019-12-06 20:47:40 GMT 49.473019 -8.735764 36,000 11 406 0
2019-12-06 20:47:35 GMT 49.464870 -8.738288 36,000 11 407 0
2019-12-06 20:47:30 GMT 49.454178 -8.741576 36,000 11 407 0
2019-12-06 20:47:25 GMT 49.446808 -8.743816 36,000 11 406 0
2019-12-06 20:47:19 GMT 49.435406 -8.747344 36,000 11 406 0
2019-12-06 20:47:15 GMT 49.428001 -8.749645 36,000 11 406 0
2019-12-06 20:47:10 GMT 49.416969 -8.752996 36,000 11 406 0
2019-12-06 20:47:05 GMT 49.408493 -8.755611 36,000 11 406 0
2019-12-06 20:46:59 GMT 49.397415 -8.758991 36,000 11 406 0
2019-12-06 20:46:54 GMT 49.388199 -8.761814 36,000 11 406 0
2019-12-06 20:46:49 GMT 49.379745 -8.764343 36,000 11 406 0
2019-12-06 20:46:45 GMT 49.371952 -8.766728 36,000 11 406 0
2019-12-06 20:46:39 GMT 49.361664 -8.769836 36,000 11 407 0
2019-12-06 20:46:35 GMT 49.353519 -8.772366 36,000 11 407 0
2019-12-06 20:46:28 GMT 49.340996 -8.776197 36,000 11 407 0
2019-12-06 20:46:24 GMT 49.333595 -8.778438 36,000 11 407 0
2019-12-06 20:46:18 GMT 49.322514 -8.781762 36,000 11 407 -64
2019-12-06 20:46:14 GMT 49.315159 -8.784003 36,000 11 407 0
2019-12-06 20:46:08 GMT 49.304443 -8.787302 36,000 11 407 0
2019-12-06 20:46:04 GMT 49.297073 -8.789555 36,000 11 407 0
2019-12-06 20:45:58 GMT 49.285263 -8.793147 36,000 11 406 0
2019-12-06 20:45:54 GMT 49.278988 -8.795062 36,000 11 406 0
2019-12-06 20:45:47 GMT 49.265350 -8.799274 36,000 11 406 0
2019-12-06 20:45:42 GMT 49.255386 -8.802289 36,000 11 406 0
2019-12-06 20:45:37 GMT 49.245796 -8.805181 36,000 11 406 0
2019-12-06 20:45:33 GMT 49.238441 -8.807421 36,000 11 406 0
2019-12-06 20:45:27 GMT 49.229187 -8.810260 36,000 11 406 0
2019-12-06 20:45:24 GMT 49.221817 -8.812514 36,000 11 406 0
2019-12-06 20:45:17 GMT 49.210419 -8.815950 36,000 11 406 0
2019-12-06 20:45:14 GMT 49.204147 -8.817866 36,000 11 406 0
2019-12-06 20:45:07 GMT 49.191982 -8.821588 36,000 11 406 0
2019-12-06 20:45:03 GMT 49.173157 -8.827303 36,000 11 406 0
2019-12-06 20:44:58 GMT 49.173157 -8.827303 36,000 11 406 0
2019-12-06 20:44:47 GMT 49.153622 -8.833225 36,000 11 406 0
2019-12-06 20:44:37 GMT 49.136307 -8.838501 36,000 11 406 0
2019-12-06 20:44:34 GMT 49.129669 -8.840473 36,000 11 406 0
2019-12-06 20:44:27 GMT 49.117126 -8.844276 36,000 11 406 0
2019-12-06 20:44:17 GMT 49.098320 -8.849921 36,000 11 406 0
2019-12-06 20:44:12 GMT 49.089844 -8.852516 36,000 11 406 0
2019-12-06 20:44:06 GMT 49.079884 -8.855486 36,000 11 406 0
2019-12-06 20:44:03 GMT 49.073639 -8.857375 36,000 11 406 0
2019-12-06 20:43:56 GMT 49.061096 -8.861178 36,000 11 406 0
2019-12-06 20:43:51 GMT 49.050751 -8.864277 36,000 11 406 0
2019-12-06 20:43:46 GMT 49.040451 -8.867375 36,000 11 406 0
2019-12-06 20:43:42 GMT 49.034546 -8.869136 36,000 11 406 0
2019-12-06 20:43:36 GMT 49.023514 -8.872446 36,000 11 406 0
2019-12-06 20:43:32 GMT 49.015736 -8.874785 36,000 11 406 0
2019-12-06 20:43:26 GMT 49.004704 -8.878182 36,000 11 406 0
2019-12-06 20:43:15 GMT 48.985523 -8.883964 36,000 11 406 0
2019-12-06 20:43:06 GMT 48.967880 -8.889385 36,000 11 406 0
2019-12-06 20:42:56 GMT 48.949081 -8.895123 36,000 11 405 0
2019-12-06 20:42:45 GMT 48.929947 -8.900898 36,000 11 405 0
2019-12-06 20:42:36 GMT 48.912323 -8.906250 36,000 11 405 0
2019-12-06 20:42:25 GMT 48.891724 -8.912447 36,000 11 405 0
2019-12-06 20:42:15 GMT 48.874100 -8.917800 36,000 11 405 0
2019-12-06 20:42:05 GMT 48.855743 -8.923363 36,000 11 404 0
2019-12-06 20:41:55 GMT 48.837719 -8.928777 36,000 11 404 0
2019-12-06 20:41:44 GMT 48.818298 -8.934561 36,000 11 404 0
2019-12-06 20:41:34 GMT 48.798897 -8.940414 36,000 11 404 0
2019-12-06 20:41:24 GMT 48.780945 -8.945829 36,000 11 404 0
2019-12-06 20:41:14 GMT 48.761513 -8.951617 36,000 11 404 0
2019-12-06 20:41:04 GMT 48.743916 -8.956893 36,000 11 404 0
2019-12-06 20:40:54 GMT 48.726013 -8.962168 36,000 11 403 0
2019-12-06 20:40:44 GMT 48.707329 -8.967735 36,000 11 403 0
2019-12-06 20:40:34 GMT 48.688660 -8.973224 36,000 11 403 0
2019-12-06 20:40:23 GMT 48.669617 -8.978858 36,000 11 403 0
2019-12-06 20:40:13 GMT 48.650208 -8.984503 36,000 11 403 0
2019-12-06 20:40:03 GMT 48.633404 -8.989563 36,000 11 403 0
2019-12-06 20:39:52 GMT 48.612873 -8.995273 36,000 8 401 0
2019-12-06 20:39:41 GMT 48.592758 -8.998789 36,000 4 397 0
2019-12-06 20:39:33 GMT 48.577423 -8.999986 36,000 0 394 0
2019-12-06 20:39:22 GMT 48.558563 -9.000056 36,000 0 393 0
2019-12-06 20:39:12 GMT 48.538239 -8.999986 36,000 0 393 0
2019-12-06 20:39:00 GMT 48.518646 -8.999915 36,000 0 393 0
2019-12-06 20:38:51 GMT 48.501205 -8.999915 36,000 0 393 0
2019-12-06 20:38:42 GMT 48.484856 -9.000043 36,000 0 393 0
2019-12-06 20:38:32 GMT 48.466415 -8.999211 36,000 356 390 0
2019-12-06 20:38:16 GMT 48.437759 -8.995197 36,000 355 389 0
2019-12-06 20:38:08 GMT 48.423779 -8.993177 36,000 355 389 0
2019-12-06 20:38:00 GMT 48.410881 -8.991298 36,000 355 389 0
2019-12-06 20:37:52 GMT 48.394402 -8.988840 36,000 355 389 0
2019-12-06 20:37:40 GMT 48.373260 -8.985690 36,000 355 389 0
2019-12-06 20:37:31 GMT 48.357861 -8.983419 36,000 355 389 0
2019-12-06 20:37:20 GMT 48.337418 -8.980337 36,000 355 389 0
2019-12-06 20:37:11 GMT 48.321671 -8.978013 36,000 355 389 0
2019-12-06 20:37:00 GMT 48.302261 -8.975548 36,000 358 392 0
2019-12-06 20:36:49 GMT 48.282623 -8.975126 36,000 0 394 0
2019-12-06 20:36:41 GMT 48.265499 -8.975107 36,000 0 394 0
2019-12-06 20:36:30 GMT 48.248043 -8.975107 36,000 0 394 0
2019-12-06 20:36:20 GMT 48.229431 -8.975126 36,000 0 395 0
2019-12-06 20:36:10 GMT 48.211212 -8.975126 36,000 0 395 0
2019-12-06 20:35:59 GMT 48.191528 -8.975126 36,000 0 395 0
2019-12-06 20:35:49 GMT 48.174042 -8.975126 36,000 0 395 0
2019-12-06 20:35:40 GMT 48.155823 -8.975075 36,000 0 395 0
2019-12-06 20:35:29 GMT 48.137203 -8.975055 36,000 0 395 0
2019-12-06 20:35:19 GMT 48.118652 -8.975075 36,000 0 395 0
2019-12-06 20:35:09 GMT 48.099308 -8.975055 36,000 0 395 0
2019-12-06 20:34:59 GMT 48.081806 -8.975126 36,000 0 395 0
2019-12-06 20:34:47 GMT 48.060669 -8.975126 36,000 0 395 0
2019-12-06 20:34:39 GMT 48.044609 -8.975126 36,000 0 395 0
2019-12-06 20:34:27 GMT 48.024220 -8.975196 36,000 0 395 0
2019-12-06 20:34:18 GMT 48.007462 -8.975196 36,000 0 395 0
2019-12-06 20:34:08 GMT 47.989563 -8.975212 36,000 0 395 0
2019-12-06 20:33:59 GMT 47.971344 -8.975212 36,000 0 395 0
2019-12-06 20:33:45 GMT 47.947266 -8.975212 36,000 0 395 0
2019-12-06 20:33:38 GMT 47.933441 -8.975281 36,000 0 394 0
2019-12-06 20:33:25 GMT 47.910828 -8.975281 36,000 0 394 0
2019-12-06 20:33:15 GMT 47.892990 -8.975267 36,000 0 394 0
2019-12-06 20:33:04 GMT 47.871902 -8.975267 36,000 0 394 0
2019-12-06 20:32:58 GMT 47.859146 -8.975281 36,000 0 394 0
2019-12-06 20:32:47 GMT 47.841316 -8.975267 36,000 0 394 0
2019-12-06 20:32:36 GMT 47.820602 -8.975281 36,000 0 394 0
2019-12-06 20:32:27 GMT 47.804214 -8.975267 36,000 0 394 0
2019-12-06 20:32:17 GMT 47.786407 -8.975281 36,000 0 394 0
2019-12-06 20:32:07 GMT 47.767811 -8.975337 36,000 0 394 0
2019-12-06 20:31:54 GMT 47.744534 -8.975337 36,000 0 394 0
2019-12-06 20:30:45 GMT 47.620560 -8.975418 36,000 0 393 0
2019-12-06 20:30:11 GMT 47.555237 -8.975418 36,000 0 393 0
2019-12-06 20:30:05 GMT 47.546871 -8.975408 36,000 0 393 0
2019-12-06 20:29:55 GMT 47.528717 -8.975408 36,000 0 393 0
2019-12-06 20:29:44 GMT 47.508774 -8.975418 36,000 0 393 0
2019-12-06 20:29:33 GMT 47.489182 -8.975487 36,000 0 392 0
2019-12-06 20:29:03 GMT 47.433704 -8.975478 36,000 0 392 0
We lost coverage of the aircraft here for a total of 23 minutes
2019-12-06 20:06:07 GMT 44.988220 -9.011402 36,000 18 392 -128
2019-12-06 20:04:28 GMT 44.823986 -9.123409 36,000 26 396 -128
2019-12-06 20:04:04 GMT 44.784256 -9.151154 36,000 26 397 0
2019-12-06 20:03:33 GMT 44.734558 -9.185776 36,000 26 397 0
2019-12-06 20:03:09 GMT 44.693642 -9.214314 36,000 26 399 0
2019-12-06 20:02:36 GMT 44.641270 -9.250689 36,000 26 400 0
2019-12-06 20:02:09 GMT 44.594112 -9.283380 36,000 26 401 -128
2019-12-06 20:01:37 GMT 44.541553 -9.319756 36,000 26 401 0
We lost coverage of the aircraft here for a total of 6 minutes
2019-12-06 19:55:35 GMT 43.940094 -9.730565 36,000 25 394 0
2019-12-06 19:53:31 GMT 43.737259 -9.867000 36,000 25 394 0
2019-12-06 19:53:13 GMT 43.709385 -9.885668 36,000 25 394 0
2019-12-06 19:53:03 GMT 43.690704 -9.898171 36,000 25 394 0
2019-12-06 19:52:54 GMT 43.676926 -9.907369 36,000 25 394 0
2019-12-06 19:52:43 GMT 43.659210 -9.919249 36,000 25 394 0
2019-12-06 19:52:33 GMT 43.643745 -9.929548 36,000 25 394 0
2019-12-06 19:52:23 GMT 43.625015 -9.942116 36,000 25 395 0
2019-12-06 19:52:13 GMT 43.605972 -9.954891 36,000 25 395 0
2019-12-06 19:52:00 GMT 43.588535 -9.966496 36,000 25 395 0
2019-12-06 19:51:51 GMT 43.574387 -9.975905 36,000 25 395 0
2019-12-06 19:51:41 GMT 43.556625 -9.987722 36,000 25 395 0
2019-12-06 19:51:31 GMT 43.539505 -9.999092 36,000 25 394 0
2019-12-06 19:51:21 GMT 43.523758 -10.009631 36,000 25 394 0
2019-12-06 19:51:10 GMT 43.506683 -10.020936 36,000 25 394 0
2019-12-06 19:51:00 GMT 43.487984 -10.033395 36,000 25 394 0
2019-12-06 19:50:48 GMT 43.468597 -10.046231 36,000 25 394 0
2019-12-06 19:50:37 GMT 43.450554 -10.058180 36,000 25 394 0
2019-12-06 19:50:29 GMT 43.434822 -10.068577 36,000 25 394 0
2019-12-06 19:50:15 GMT 43.415131 -10.081656 36,000 25 393 0
2019-12-06 19:50:08 GMT 43.403351 -10.089438 36,000 25 393 0
2019-12-06 19:49:58 GMT 43.380402 -10.104610 36,000 25 393 0
2019-12-06 19:49:44 GMT 43.364014 -10.115400 36,000 25 393 0
2019-12-06 19:49:28 GMT 43.330353 -10.137698 36,000 25 393 0
2019-12-06 19:49:16 GMT 43.318905 -10.145220 36,000 25 392 0
2019-12-06 19:49:06 GMT 43.302567 -10.156010 36,000 25 391 0
2019-12-06 19:48:57 GMT 43.286591 -10.166569 36,000 25 391 0
2019-12-06 19:48:46 GMT 43.271236 -10.176675 36,000 25 391 0
2019-12-06 19:48:36 GMT 43.254944 -10.187400 36,000 25 391 0
2019-12-06 19:48:21 GMT 43.228546 -10.204830 36,000 25 390 0
2019-12-06 19:48:17 GMT 43.222046 -10.209109 36,000 25 390 0
2019-12-06 19:48:06 GMT 43.204155 -10.220816 36,000 25 390 0
2019-12-06 19:47:56 GMT 43.188858 -10.230826 36,000 25 390 0
2019-12-06 19:47:45 GMT 43.171661 -10.242135 36,000 25 389 0
2019-12-06 19:47:36 GMT 43.155075 -10.253055 36,000 25 389 0
2019-12-06 19:47:29 GMT 43.145370 -10.259442 36,000 25 389 64
2019-12-06 19:47:21 GMT 43.132370 -10.267937 36,000 25 389 0
2019-12-06 19:47:18 GMT 43.127483 -10.271105 36,000 25 389 0
2019-12-06 19:47:11 GMT 43.118404 -10.277056 36,000 25 389 0
2019-12-06 19:47:07 GMT 43.110306 -10.282373 36,000 25 388 0
2019-12-06 19:47:03 GMT 43.102203 -10.287715 36,000 25 388 0
2019-12-06 19:46:59 GMT 43.095734 -10.291966 36,000 25 388 0
2019-12-06 19:46:50 GMT 43.081833 -10.301088 36,000 25 388 0
2019-12-06 19:46:38 GMT 43.063065 -10.313352 36,000 25 388 0
2019-12-06 19:46:28 GMT 43.046574 -10.324140 36,000 25 387 0
2019-12-06 19:46:23 GMT 43.037544 -10.330026 36,000 25 386 0
2019-12-06 19:46:10 GMT 43.018524 -10.342478 36,000 25 386 0
2019-12-06 19:46:04 GMT 43.007889 -10.349448 36,000 25 386 0
2019-12-06 19:45:56 GMT 42.993690 -10.358669 36,000 25 385 0
2019-12-06 19:45:50 GMT 42.985966 -10.363639 36,000 25 384 0
2019-12-06 19:45:35 GMT 42.960571 -10.380164 36,000 25 384 0
2019-12-06 19:45:29 GMT 42.951283 -10.386200 36,000 25 383 0
2019-12-06 19:45:25 GMT 42.943600 -10.391170 36,000 25 383 64
2019-12-06 19:45:13 GMT 42.926697 -10.402200 36,000 25 382 0
2019-12-06 19:45:09 GMT 42.919052 -10.407183 36,000 25 382 0
2019-12-06 19:44:59 GMT 42.903717 -10.417147 36,000 25 382 0
2019-12-06 19:44:49 GMT 42.886806 -10.428183 36,000 25 382 0
2019-12-06 19:44:41 GMT 42.874374 -10.436245 36,000 25 382 0
2019-12-06 19:44:30 GMT 42.856827 -10.447671 36,000 25 382 0
2019-12-06 19:44:26 GMT 42.851395 -10.451192 36,000 25 382 0
2019-12-06 19:44:21 GMT 42.844074 -10.455976 36,000 25 382 0
2019-12-06 19:44:18 GMT 42.837696 -10.460096 36,000 25 382 0
2019-12-06 19:44:08 GMT 42.821411 -10.470673 36,000 25 382 0
2019-12-06 19:43:55 GMT 42.801945 -10.483320 36,000 25 382 0
2019-12-06 19:43:47 GMT 42.788177 -10.492255 36,000 25 382 0
2019-12-06 19:43:37 GMT 42.772247 -10.502555 36,000 25 383 0
2019-12-06 19:43:27 GMT 42.756554 -10.512702 36,000 25 383 0
2019-12-06 19:43:17 GMT 42.740585 -10.523050 36,000 25 383 0
2019-12-06 19:43:10 GMT 42.730637 -10.529459 36,000 25 384 0
2019-12-06 19:43:07 GMT 42.724228 -10.533579 36,000 25 384 0
2019-12-06 19:42:55 GMT 42.707256 -10.544512 36,000 25 384 0
2019-12-06 19:42:46 GMT 42.690590 -10.555306 36,000 25 384 0
2019-12-06 19:42:36 GMT 42.674576 -10.565590 36,000 25 384 64
2019-12-06 19:42:32 GMT 42.668152 -10.569742 36,000 25 384 0
2019-12-06 19:42:29 GMT 42.661423 -10.574091 36,000 25 384 0
2019-12-06 19:42:25 GMT 42.657578 -10.576588 36,000 25 384 0
2019-12-06 19:42:18 GMT 42.645061 -10.584625 36,000 25 384 0
2019-12-06 19:42:08 GMT 42.629288 -10.594753 36,000 25 385 0
2019-12-06 19:42:05 GMT 42.625137 -10.597463 36,000 25 385 0
2019-12-06 19:41:58 GMT 42.608734 -10.607986 36,000 25 385 0
2019-12-06 19:41:55 GMT 42.608734 -10.607986 36,000 25 385 0
2019-12-06 19:41:47 GMT 42.596832 -10.615603 36,000 25 384 0
2019-12-06 19:41:44 GMT 42.591713 -10.618861 36,000 25 384 0
2019-12-06 19:41:39 GMT 42.581772 -10.625277 36,000 25 384 0
2019-12-06 19:41:35 GMT 42.576645 -10.628586 36,000 25 384 0
2019-12-06 19:41:30 GMT 42.568623 -10.633744 36,000 25 384 0
2019-12-06 19:41:27 GMT 42.564468 -10.636389 36,000 25 383 0
2019-12-06 19:41:24 GMT 42.559639 -10.639492 36,000 25 383 0
2019-12-06 19:41:18 GMT 42.549683 -10.645877 36,000 25 383 0
2019-12-06 19:41:13 GMT 42.541992 -10.650808 36,000 25 383 0
2019-12-06 19:41:07 GMT 42.527252 -10.660234 36,000 25 383 0
2019-12-06 19:41:04 GMT 42.527252 -10.660234 36,000 25 383 0
2019-12-06 19:40:53 GMT 42.509949 -10.671283 36,000 25 383 0
2019-12-06 19:40:47 GMT 42.500004 -10.677689 36,000 25 383 0
2019-12-06 19:40:43 GMT 42.494232 -10.681394 36,000 25 383 0
2019-12-06 19:40:32 GMT 42.477264 -10.692257 36,000 25 382 0
2019-12-06 19:40:22 GMT 42.460602 -10.702931 36,000 25 382 0
2019-12-06 19:40:17 GMT 42.451630 -10.708674 36,000 25 382 0
2019-12-06 19:40:10 GMT 42.436935 -10.718099 36,000 25 382 0
2019-12-06 19:40:03 GMT 42.428314 -10.723614 36,000 25 381 0
2019-12-06 19:39:52 GMT 42.412674 -10.733580 36,000 25 381 0
2019-12-06 19:39:48 GMT 42.403458 -10.739519 36,000 25 381 0
2019-12-06 19:39:41 GMT 42.395462 -10.744629 36,000 25 381 0
2019-12-06 19:39:31 GMT 42.372528 -10.759236 36,000 25 380 0
2019-12-06 19:39:23 GMT 42.366806 -10.762919 36,000 25 380 0
2019-12-06 19:39:15 GMT 42.350281 -10.773468 36,000 25 380 0
2019-12-06 19:39:10 GMT 42.345547 -10.776502 36,000 25 379 0
2019-12-06 19:39:06 GMT 42.338242 -10.781208 36,000 25 379 0
2019-12-06 19:39:02 GMT 42.333488 -10.784231 36,000 25 379 0
2019-12-06 19:38:53 GMT 42.317917 -10.794130 36,000 25 378 0
2019-12-06 19:38:50 GMT 42.314758 -10.796190 36,000 25 379 0
2019-12-06 19:38:38 GMT 42.294151 -10.809269 36,000 24 377 0
2019-12-06 19:38:35 GMT 42.287521 -10.813481 36,000 23 377 0
2019-12-06 19:38:28 GMT 42.278549 -10.818724 36,000 23 377 0
2019-12-06 19:38:20 GMT 42.266033 -10.825813 36,000 22 376 0
2019-12-06 19:38:16 GMT 42.257652 -10.830476 36,000 22 376 0
2019-12-06 19:38:13 GMT 42.249619 -10.835016 36,000 22 376 0
2019-12-06 19:38:10 GMT 42.240990 -10.839865 36,000 22 376 0
2019-12-06 19:38:00 GMT 42.232609 -10.844528 36,000 22 376 0
2019-12-06 19:37:56 GMT 42.227489 -10.847466 36,000 22 376 0
2019-12-06 19:37:52 GMT 42.220459 -10.851426 36,000 22 376 0
2019-12-06 19:37:48 GMT 42.214687 -10.854620 36,000 22 376 0
2019-12-06 19:37:45 GMT 42.208916 -10.857878 36,000 22 376 0
2019-12-06 19:37:42 GMT 42.203430 -10.860922 36,000 22 375 0
2019-12-06 19:37:37 GMT 42.197662 -10.864168 36,000 22 375 0
2019-12-06 19:37:31 GMT 42.187126 -10.870141 36,000 22 375 0
2019-12-06 19:37:28 GMT 42.182327 -10.872782 36,000 22 375 0
2019-12-06 19:37:24 GMT 42.174931 -10.876912 36,000 22 374 0
2019-12-06 19:37:19 GMT 42.166946 -10.881396 36,000 22 374 0
2019-12-06 19:37:13 GMT 42.157055 -10.887004 36,000 22 375 0
2019-12-06 19:37:08 GMT 42.150631 -10.890581 36,000 22 375 0
2019-12-06 19:37:04 GMT 42.141357 -10.895816 36,000 22 375 0
2019-12-06 19:37:01 GMT 42.138199 -10.897564 36,000 22 375 0
2019-12-06 19:36:56 GMT 42.123459 -10.905866 36,000 22 374 0
2019-12-06 19:36:51 GMT 42.123459 -10.905866 36,000 22 374 0
2019-12-06 19:36:47 GMT 42.118046 -10.908913 36,000 22 374 0
2019-12-06 19:36:41 GMT 42.101425 -10.918238 36,000 22 373 0
2019-12-06 19:36:37 GMT 42.101425 -10.918238 36,000 22 373 0
2019-12-06 19:36:31 GMT 42.090576 -10.924370 36,000 22 373 0
2019-12-06 19:36:28 GMT 42.085503 -10.927245 36,000 22 373 0
2019-12-06 19:36:16 GMT 42.068233 -10.936890 36,000 22 373 64
2019-12-06 19:36:07 GMT 42.051662 -10.946151 36,000 22 374 64
2019-12-06 19:35:54 GMT 42.033417 -10.956303 36,000 22 374 0
2019-12-06 19:35:47 GMT 42.020004 -10.963856 36,000 22 374 0
2019-12-06 19:35:43 GMT 42.014236 -10.967040 36,000 22 374 0
2019-12-06 19:35:35 GMT 41.986725 -10.982396 36,000 22 374 0
2019-12-06 19:35:26 GMT 41.986725 -10.982396 36,000 22 374 0
2019-12-06 19:35:14 GMT 41.954132 -11.000560 36,000 22 374 0
2019-12-06 19:35:05 GMT 41.954132 -11.000560 36,000 22 374 0
2019-12-06 19:35:02 GMT 41.947384 -11.004277 36,000 22 374 0
2019-12-06 19:34:58 GMT 41.941315 -11.007677 36,000 22 374 0
2019-12-06 19:34:54 GMT 41.932022 -11.012836 36,000 22 374 0
2019-12-06 19:34:48 GMT 41.926300 -11.015979 36,000 22 374 0
2019-12-06 19:34:45 GMT 41.921173 -11.018840 36,000 22 374 0
2019-12-06 19:34:34 GMT 41.898457 -11.031487 36,000 22 374 0
2019-12-06 19:34:28 GMT 41.893295 -11.034331 36,000 22 374 0
2019-12-06 19:34:22 GMT 41.884003 -11.039512 36,000 22 374 0
2019-12-06 19:34:17 GMT 41.876671 -11.043623 36,000 22 374 0
2019-12-06 19:34:14 GMT 41.871872 -11.046254 36,000 22 375 0
2019-12-06 19:34:07 GMT 41.860336 -11.052683 36,000 22 374 0
2019-12-06 19:33:57 GMT 41.844643 -11.061444 36,000 22 374 0
2019-12-06 19:33:54 GMT 41.839828 -11.064106 36,000 22 374 0
2019-12-06 19:33:51 GMT 41.833466 -11.067664 36,000 22 374 0
2019-12-06 19:33:47 GMT 41.822250 -11.073899 36,000 22 374 0
2019-12-06 19:33:43 GMT 41.816162 -11.077277 36,000 22 374 0
2019-12-06 19:33:36 GMT 41.811405 -11.079967 36,000 22 374 0
2019-12-06 19:33:33 GMT 41.807236 -11.082271 36,000 22 374 0
2019-12-06 19:33:26 GMT 41.795105 -11.089013 36,000 22 373 0
2019-12-06 19:33:22 GMT 41.789978 -11.091822 36,000 22 373 0
2019-12-06 19:33:15 GMT 41.773697 -11.100854 36,000 22 373 0
2019-12-06 19:33:09 GMT 41.767639 -11.104181 36,000 22 372 0
2019-12-06 19:33:05 GMT 41.760590 -11.108114 36,000 22 373 0
2019-12-06 19:33:02 GMT 41.757431 -11.109862 36,000 22 373 0
2019-12-06 19:32:56 GMT 41.746536 -11.115792 36,000 22 373 0
2019-12-06 19:32:53 GMT 41.741760 -11.118483 36,000 22 373 0
2019-12-06 19:32:48 GMT 41.734127 -11.122699 36,000 22 373 0
2019-12-06 19:32:43 GMT 41.722961 -11.128838 36,000 22 373 0
2019-12-06 19:32:32 GMT 41.708954 -11.136516 36,000 22 372 0
2019-12-06 19:32:27 GMT 41.699387 -11.141822 36,000 22 372 0
2019-12-06 19:32:22 GMT 41.693024 -11.145318 36,000 22 372 0
2019-12-06 19:32:12 GMT 41.671749 -11.157063 36,000 22 371 0
2019-12-06 19:32:04 GMT 41.664413 -11.161048 36,000 22 371 0
2019-12-06 19:31:59 GMT 41.656525 -11.165431 36,000 22 371 0
2019-12-06 19:31:52 GMT 41.646057 -11.171223 36,000 22 371 0
2019-12-06 19:31:49 GMT 41.640652 -11.174182 36,000 22 371 0
2019-12-06 19:31:40 GMT 41.627338 -11.181527 36,000 22 370 0
2019-12-06 19:31:36 GMT 41.621006 -11.185040 36,000 22 370 0
2019-12-06 19:31:31 GMT 41.611507 -11.190278 36,000 22 370 0
2019-12-06 19:31:27 GMT 41.606140 -11.193258 36,000 22 370 0
2019-12-06 19:31:20 GMT 41.594101 -11.199875 36,000 22 370 0
2019-12-06 19:31:17 GMT 41.583019 -11.205991 36,000 22 370 0
2019-12-06 19:31:12 GMT 41.583019 -11.205991 36,000 22 370 0
2019-12-06 19:31:07 GMT 41.574463 -11.210736 36,000 22 371 0
2019-12-06 19:31:02 GMT 41.566540 -11.215061 36,000 22 371 0
2019-12-06 19:30:57 GMT 41.558624 -11.219413 36,000 22 371 0
2019-12-06 19:30:47 GMT 41.542786 -11.228152 36,000 22 370 0
2019-12-06 19:30:39 GMT 41.530746 -11.234769 36,000 22 371 0
2019-12-06 19:30:36 GMT 41.526306 -11.237203 36,000 22 371 0
2019-12-06 19:30:32 GMT 41.518356 -11.241569 36,000 22 371 0
2019-12-06 19:30:29 GMT 41.514587 -11.243676 36,000 22 371 0
2019-12-06 19:30:21 GMT 41.501881 -11.250639 36,000 22 371 0
2019-12-06 19:30:18 GMT 41.497787 -11.252871 36,000 22 371 0
2019-12-06 19:30:15 GMT 41.491425 -11.256367 36,000 22 371 0
2019-12-06 19:30:08 GMT 41.465424 -11.270662 36,000 22 370 0
2019-12-06 19:29:59 GMT 41.465424 -11.270662 36,000 22 370 0
2019-12-06 19:29:55 GMT 41.460678 -11.273250 36,000 22 370 0
2019-12-06 19:29:51 GMT 41.451790 -11.278105 36,000 22 370 0
2019-12-06 19:29:47 GMT 41.448624 -11.279829 36,000 22 370 0
2019-12-06 19:29:38 GMT 41.433399 -11.288133 36,000 22 370 0
2019-12-06 19:29:26 GMT 41.414967 -11.298225 36,000 22 370 0
2019-12-06 19:29:16 GMT 41.398819 -11.307054 36,000 22 370 0
2019-12-06 19:29:05 GMT 41.381058 -11.316772 36,000 22 370 0
2019-12-06 19:28:53 GMT 41.361710 -11.327341 36,000 22 370 0
2019-12-06 19:28:47 GMT 41.352215 -11.332585 36,000 22 370 0
2019-12-06 19:28:39 GMT 41.339504 -11.339514 36,000 22 370 0
2019-12-06 19:28:34 GMT 41.317299 -11.351624 36,000 22 370 0
2019-12-06 19:28:25 GMT 41.317299 -11.351624 36,000 22 370 0
2019-12-06 19:28:19 GMT 41.308407 -11.356430 36,000 22 370 0
2019-12-06 19:28:16 GMT 41.303009 -11.359375 36,000 22 370 0
2019-12-06 19:28:03 GMT 41.282387 -11.370662 36,000 22 370 0
2019-12-06 19:27:54 GMT 41.268127 -11.378418 36,000 22 370 0
2019-12-06 19:27:48 GMT 41.258316 -11.383771 36,000 22 370 0
2019-12-06 19:27:44 GMT 41.253242 -11.386518 36,000 22 370 0
2019-12-06 19:27:41 GMT 41.247849 -11.389465 36,000 22 370 0
2019-12-06 19:27:38 GMT 41.242767 -11.392212 36,000 22 370 0
2019-12-06 19:27:34 GMT 41.237370 -11.395132 36,000 22 370 0
2019-12-06 19:27:28 GMT 41.226288 -11.401184 36,000 22 370 0
2019-12-06 19:27:25 GMT 41.222488 -11.403259 36,000 22 370 0
2019-12-06 19:27:22 GMT 41.217453 -11.406006 36,000 22 370 0
2019-12-06 19:27:17 GMT 41.203197 -11.413734 36,000 22 370 0
2019-12-06 19:27:13 GMT 41.203197 -11.413734 36,000 22 370 0
2019-12-06 19:27:05 GMT 41.190216 -11.420776 36,000 22 370 0
2019-12-06 19:27:02 GMT 41.185135 -11.423523 36,000 22 369 0
2019-12-06 19:26:57 GMT 41.177536 -11.427673 36,000 22 369 0
2019-12-06 19:26:52 GMT 41.171219 -11.431091 36,000 22 369 0
2019-12-06 19:26:47 GMT 41.160744 -11.436768 36,000 22 369 0
2019-12-06 19:26:42 GMT 41.154739 -11.440002 36,000 22 369 0
2019-12-06 19:26:36 GMT 41.145264 -11.445190 36,000 22 369 0
2019-12-06 19:26:32 GMT 41.139236 -11.448441 36,000 22 369 0
2019-12-06 19:26:23 GMT 41.125031 -11.456116 36,000 22 369 0
2019-12-06 19:26:20 GMT 41.119034 -11.459427 36,000 22 369 0
2019-12-06 19:26:16 GMT 41.112701 -11.462798 36,000 22 369 0
2019-12-06 19:26:13 GMT 41.109192 -11.464722 36,000 22 369 0
2019-12-06 19:26:10 GMT 41.104156 -11.467468 36,000 22 369 0
2019-12-06 19:26:03 GMT 41.092804 -11.473633 36,000 22 369 0
2019-12-06 19:25:59 GMT 41.087425 -11.476531 36,000 22 369 0
2019-12-06 19:25:53 GMT 41.077011 -11.482178 36,000 22 369 0
2019-12-06 19:25:49 GMT 41.070694 -11.485596 36,000 22 369 0
2019-12-06 19:25:41 GMT 41.058701 -11.492065 36,000 22 369 0
2019-12-06 19:25:33 GMT 41.044456 -11.499752 36,000 22 369 0
2019-12-06 19:25:30 GMT 41.031509 -11.506775 36,000 22 369 0
2019-12-06 19:25:25 GMT 41.031509 -11.506775 36,000 22 369 0
2019-12-06 19:25:20 GMT 41.025787 -11.509888 36,000 22 369 0
2019-12-06 19:25:13 GMT 41.009995 -11.518372 36,000 22 369 0
2019-12-06 19:25:10 GMT 41.009995 -11.518372 36,000 22 369 0
2019-12-06 19:25:03 GMT 40.998928 -11.524346 36,000 22 369 0
2019-12-06 19:25:00 GMT 40.981846 -11.533585 36,000 22 369 0
2019-12-06 19:24:53 GMT 40.981846 -11.533585 36,000 22 369 0
2019-12-06 19:24:50 GMT 40.965683 -11.542236 36,000 22 369 0
2019-12-06 19:24:43 GMT 40.965683 -11.542236 36,000 22 369 0
2019-12-06 19:24:40 GMT 40.962200 -11.544134 36,000 22 369 0
2019-12-06 19:24:37 GMT 40.956207 -11.547363 36,000 22 369 0
2019-12-06 19:24:30 GMT 40.940693 -11.555745 36,000 22 369 64
2019-12-06 19:24:27 GMT 40.940693 -11.555745 36,000 22 369 0
2019-12-06 19:24:21 GMT 40.932453 -11.560177 36,000 22 369 0
2019-12-06 19:24:18 GMT 40.923889 -11.564758 36,000 22 370 0
2019-12-06 19:24:10 GMT 40.915009 -11.569519 36,000 22 370 0
2019-12-06 19:24:07 GMT 40.908051 -11.573303 36,000 22 370 0
2019-12-06 19:24:01 GMT 40.898235 -11.578591 36,000 22 370 0
2019-12-06 19:23:57 GMT 40.894089 -11.580811 36,000 22 370 0
2019-12-06 19:23:50 GMT 40.882050 -11.587280 36,000 22 370 0
2019-12-06 19:23:46 GMT 40.876373 -11.590332 36,000 22 370 0
2019-12-06 19:23:39 GMT 40.865276 -11.596257 36,000 22 370 0
2019-12-06 19:23:29 GMT 40.850056 -11.604434 36,000 22 370 0
2019-12-06 19:23:19 GMT 40.833252 -11.613464 36,000 22 370 0
2019-12-06 19:23:08 GMT 40.815491 -11.622986 36,000 22 370 0
2019-12-06 19:22:59 GMT 40.801529 -11.630493 36,000 22 370 0
2019-12-06 19:22:48 GMT 40.784740 -11.639515 36,000 22 370 0
2019-12-06 19:22:38 GMT 40.767929 -11.648560 36,000 22 370 0
2019-12-06 19:22:28 GMT 40.752686 -11.656738 36,000 22 370 0
2019-12-06 19:22:18 GMT 40.736206 -11.665588 36,000 22 371 0
2019-12-06 19:22:07 GMT 40.719986 -11.674222 36,000 22 371 0
2019-12-06 19:21:56 GMT 40.701233 -11.684265 36,000 22 370 0
2019-12-06 19:21:48 GMT 40.687588 -11.691575 36,000 22 370 0
2019-12-06 19:21:39 GMT 40.673309 -11.699158 36,000 22 370 0
2019-12-06 19:21:26 GMT 40.654579 -11.709179 36,000 22 370 0
2019-12-06 19:21:16 GMT 40.638706 -11.717606 36,000 22 370 0
2019-12-06 19:21:06 GMT 40.621620 -11.726657 36,000 22 369 0
2019-12-06 19:20:56 GMT 40.606750 -11.734558 36,000 22 369 0
2019-12-06 19:20:45 GMT 40.589630 -11.743652 36,000 22 369 0
2019-12-06 19:20:35 GMT 40.573837 -11.752075 36,000 22 369 0
2019-12-06 19:20:25 GMT 40.557705 -11.760615 36,000 21 368 0
2019-12-06 19:20:14 GMT 40.540016 -11.770040 36,000 21 368 0
2019-12-06 19:20:05 GMT 40.525818 -11.777588 36,000 21 368 0
2019-12-06 19:19:51 GMT 40.504639 -11.788767 36,000 21 368 0
2019-12-06 19:19:44 GMT 40.493546 -11.794678 36,000 22 370 0
2019-12-06 19:19:35 GMT 40.476425 -11.803711 36,000 22 370 0
2019-12-06 19:19:24 GMT 40.460541 -11.812134 36,000 22 370 0
2019-12-06 19:19:13 GMT 40.444016 -11.820923 36,000 22 370 0
2019-12-06 19:19:04 GMT 40.428772 -11.829041 36,000 22 370 0
2019-12-06 19:18:54 GMT 40.396122 -11.846383 36,000 22 369 0
2019-12-06 19:18:43 GMT 40.396122 -11.846383 36,000 22 369 0
2019-12-06 19:18:33 GMT 40.379642 -11.855122 36,000 22 369 0
2019-12-06 19:18:23 GMT 40.364182 -11.863342 36,000 22 367 0
2019-12-06 19:18:12 GMT 40.346512 -11.872681 36,000 22 366 0
2019-12-06 19:18:03 GMT 40.331741 -11.880465 36,000 22 366 0
2019-12-06 19:17:51 GMT 40.314751 -11.889454 36,000 21 366 0
2019-12-06 19:17:42 GMT 40.299362 -11.897583 36,000 22 365 0
2019-12-06 19:17:31 GMT 40.282768 -11.906308 36,000 22 365 0
2019-12-06 19:17:22 GMT 40.266769 -11.914734 36,000 21 364 0
2019-12-06 19:17:11 GMT 40.251160 -11.922913 36,000 21 364 0
2019-12-06 19:17:01 GMT 40.234909 -11.931458 36,000 21 363 0
2019-12-06 19:16:51 GMT 40.219688 -11.939517 36,000 22 362 0
2019-12-06 19:16:41 GMT 40.202885 -11.948318 36,000 21 361 0
2019-12-06 19:16:30 GMT 40.187714 -11.956299 36,000 21 361 0
2019-12-06 19:16:23 GMT 40.177513 -11.961677 36,000 21 359 0
2019-12-06 19:16:19 GMT 40.171005 -11.965149 36,000 22 360 0
2019-12-06 19:16:09 GMT 40.155216 -11.973412 36,000 22 360 0
2019-12-06 19:15:59 GMT 40.138870 -11.981995 36,000 22 360 0
2019-12-06 19:15:49 GMT 40.124039 -11.989807 36,000 21 359 0
2019-12-06 19:15:39 GMT 40.108612 -11.997864 36,000 21 359 0
2019-12-06 19:15:31 GMT 40.096252 -12.004333 36,000 21 359 0
2019-12-06 19:15:19 GMT 40.075882 -12.015015 36,000 21 359 0
2019-12-06 19:15:10 GMT 40.063229 -12.021602 36,000 21 358 0
2019-12-06 19:15:07 GMT 40.060158 -12.023225 36,000 21 358 0
2019-12-06 19:15:03 GMT 40.053360 -12.026783 36,000 21 358 0
2019-12-06 19:15:00 GMT 40.048141 -12.029541 36,000 21 358 0
2019-12-06 19:14:50 GMT 40.033062 -12.037458 36,000 21 358 0
2019-12-06 19:14:47 GMT 40.029053 -12.039551 36,000 21 358 0
2019-12-06 19:14:40 GMT 40.017700 -12.045510 36,000 21 358 0
2019-12-06 19:14:37 GMT 40.013718 -12.047607 36,000 21 358 0
2019-12-06 19:14:30 GMT 40.002045 -12.053711 36,000 21 357 0
2019-12-06 19:14:27 GMT 39.998055 -12.055747 36,000 21 357 0
2019-12-06 19:14:19 GMT 39.985207 -12.062489 36,000 21 356 0
2019-12-06 19:14:16 GMT 39.981812 -12.064270 36,000 21 356 0
2019-12-06 19:14:07 GMT 39.966522 -12.072266 36,000 21 356 0
2019-12-06 19:13:59 GMT 39.955181 -12.078219 36,000 21 356 0
2019-12-06 19:13:56 GMT 39.949951 -12.080933 36,000 21 356 0
2019-12-06 19:13:48 GMT 39.938606 -12.086834 36,000 21 356 64
2019-12-06 19:13:45 GMT 39.934021 -12.089172 36,000 21 356 64
2019-12-06 19:13:41 GMT 39.927887 -12.092407 36,000 21 356 64
2019-12-06 19:13:36 GMT 39.919327 -12.096843 36,000 21 357 64
2019-12-06 19:13:30 GMT 39.910397 -12.101440 36,000 21 357 64
2019-12-06 19:13:26 GMT 39.903351 -12.105142 36,000 21 357 0
2019-12-06 19:13:21 GMT 39.896576 -12.108605 36,000 21 357 0
2019-12-06 19:13:18 GMT 39.892914 -12.110576 36,000 21 357 0
2019-12-06 19:13:13 GMT 39.884903 -12.114696 36,000 21 357 -64
2019-12-06 19:13:08 GMT 39.877533 -12.118577 36,000 21 357 -64
2019-12-06 19:13:04 GMT 39.870457 -12.122253 36,000 21 357 -64
2019-12-06 19:12:58 GMT 39.861557 -12.126876 36,000 21 357 0
2019-12-06 19:12:55 GMT 39.856350 -12.129578 36,000 21 357 0
2019-12-06 19:12:52 GMT 39.850811 -12.132446 36,000 21 356 0
2019-12-06 19:12:48 GMT 39.845921 -12.135010 36,000 21 356 0
2019-12-06 19:12:44 GMT 39.839779 -12.138184 36,000 21 356 0
2019-12-06 19:12:41 GMT 39.829395 -12.143616 36,000 21 356 0
2019-12-06 19:12:33 GMT 39.824203 -12.146341 36,000 21 356 0
2019-12-06 19:12:30 GMT 39.819305 -12.148849 36,000 21 356 0
2019-12-06 19:12:27 GMT 39.814686 -12.151245 36,000 21 356 0
2019-12-06 19:12:24 GMT 39.808868 -12.154282 36,000 21 356 0
2019-12-06 19:12:21 GMT 39.804306 -12.156677 36,000 21 356 0
2019-12-06 19:12:17 GMT 39.799416 -12.159180 36,000 21 356 0
2019-12-06 19:12:14 GMT 39.792984 -12.162522 36,000 21 356 0
2019-12-06 19:12:10 GMT 39.788383 -12.164917 36,000 21 355 0
2019-12-06 19:12:07 GMT 39.777397 -12.170654 36,000 21 355 -64
2019-12-06 19:12:04 GMT 39.777397 -12.170654 36,000 21 355 -64
2019-12-06 19:12:00 GMT 39.773438 -12.172732 36,000 21 355 -64
2019-12-06 19:11:54 GMT 39.763046 -12.178106 36,000 21 355 0
2019-12-06 19:11:50 GMT 39.757240 -12.181091 36,000 21 354 0
2019-12-06 19:11:47 GMT 39.752354 -12.183655 36,000 21 354 0
2019-12-06 19:11:43 GMT 39.746300 -12.186829 36,000 21 354 64
2019-12-06 19:11:37 GMT 39.737457 -12.191361 36,000 21 354 0
2019-12-06 19:11:33 GMT 39.730728 -12.194884 36,000 21 354 0
2019-12-06 19:11:30 GMT 39.727402 -12.196594 36,000 21 355 0
2019-12-06 19:11:26 GMT 39.720695 -12.200073 36,000 21 355 0
2019-12-06 19:11:23 GMT 39.715202 -12.202942 36,000 21 355 0
2019-12-06 19:11:15 GMT 39.703903 -12.208736 36,000 21 355 0
2019-12-06 19:11:12 GMT 39.699646 -12.210945 36,000 21 354 -64
2019-12-06 19:11:09 GMT 39.695389 -12.213214 36,000 21 354 0
2019-12-06 19:11:06 GMT 39.690205 -12.215881 36,000 21 354 0
2019-12-06 19:11:02 GMT 39.683807 -12.219185 36,000 21 354 0
2019-12-06 19:10:56 GMT 39.674984 -12.223816 36,000 21 354 0
2019-12-06 19:10:52 GMT 39.668564 -12.227126 36,000 21 354 0
2019-12-06 19:10:46 GMT 39.659409 -12.231843 36,000 21 355 0
2019-12-06 19:10:42 GMT 39.653011 -12.235168 36,000 21 355 0
2019-12-06 19:10:36 GMT 39.644489 -12.239563 36,000 21 355 0
2019-12-06 19:10:29 GMT 39.634109 -12.244873 36,000 21 354 -64
2019-12-06 19:10:25 GMT 39.628326 -12.247905 36,000 21 354 64
2019-12-06 19:10:21 GMT 39.621307 -12.251526 36,000 21 354 64
2019-12-06 19:10:15 GMT 39.612183 -12.256226 36,000 21 354 0
2019-12-06 19:10:11 GMT 39.605164 -12.259847 36,000 21 354 0
2019-12-06 19:10:08 GMT 39.602737 -12.261100 36,000 21 354 0
2019-12-06 19:10:05 GMT 39.597244 -12.263907 36,000 21 354 0
2019-12-06 19:10:02 GMT 39.590862 -12.267151 36,000 21 354 64
2019-12-06 19:09:59 GMT 39.587837 -12.268738 36,000 21 354 64
2019-12-06 19:09:55 GMT 39.581738 -12.271851 36,000 21 354 0
2019-12-06 19:09:48 GMT 39.572296 -12.276744 36,000 21 355 0
2019-12-06 19:09:45 GMT 39.566467 -12.279724 36,000 21 355 0
2019-12-06 19:09:40 GMT 39.558556 -12.283752 36,000 21 355 0
2019-12-06 19:09:34 GMT 39.550919 -12.287671 36,000 21 355 0
2019-12-06 19:09:30 GMT 39.542999 -12.291731 36,000 21 354 -64
2019-12-06 19:09:27 GMT 39.539051 -12.293762 36,000 21 354 0
2019-12-06 19:09:24 GMT 39.535374 -12.295654 36,000 21 354 0
2019-12-06 19:09:20 GMT 39.525040 -12.301025 36,000 21 354 -64
2019-12-06 19:09:14 GMT 39.519241 -12.303971 36,000 21 354 64
2019-12-06 19:09:08 GMT 39.510132 -12.308688 36,000 21 354 0
2019-12-06 19:09:03 GMT 39.504044 -12.311793 36,000 21 353 -64
2019-12-06 19:08:59 GMT 39.496456 -12.315735 36,000 21 353 -64
2019-12-06 19:08:54 GMT 39.488846 -12.319615 36,000 21 353 64
2019-12-06 19:08:48 GMT 39.480068 -12.324158 36,000 21 353 0
2019-12-06 19:08:44 GMT 39.473969 -12.327332 36,000 21 353 0
2019-12-06 19:08:37 GMT 39.464287 -12.332336 36,000 21 353 64
2019-12-06 19:08:33 GMT 39.458187 -12.335449 36,000 21 353 -64
2019-12-06 19:08:30 GMT 39.447556 -12.340871 36,000 21 353 64
2019-12-06 19:08:23 GMT 39.443012 -12.343262 36,000 21 354 0
2019-12-06 19:08:19 GMT 39.436310 -12.346680 36,000 21 353 64
2019-12-06 19:08:16 GMT 39.432358 -12.348693 36,000 21 353 64
2019-12-06 19:08:13 GMT 39.426910 -12.351499 36,000 21 353 0
2019-12-06 19:08:07 GMT 39.418060 -12.356018 36,000 21 353 0
2019-12-06 19:08:03 GMT 39.411713 -12.359261 36,000 21 354 0
2019-12-06 19:07:57 GMT 39.402885 -12.363770 36,000 21 354 0
2019-12-06 19:07:53 GMT 39.396469 -12.367083 36,000 21 353 0
2019-12-06 19:07:46 GMT 39.386124 -12.372337 36,000 21 353 0
2019-12-06 19:07:42 GMT 39.380356 -12.375305 36,000 21 354 0
2019-12-06 19:07:36 GMT 39.371567 -12.379801 36,000 21 354 64
2019-12-06 19:07:32 GMT 39.364243 -12.383562 36,000 21 354 -64
2019-12-06 19:07:24 GMT 39.351768 -12.389954 36,000 21 354 0
2019-12-06 19:07:16 GMT 39.338409 -12.396851 36,000 21 354 0
2019-12-06 19:07:13 GMT 39.335339 -12.398376 36,000 21 354 0
2019-12-06 19:07:05 GMT 39.324097 -12.404162 36,000 21 354 64
2019-12-06 19:07:02 GMT 39.318604 -12.406968 36,000 21 355 0
2019-12-06 19:06:56 GMT 39.309448 -12.411685 36,000 21 355 0
2019-12-06 19:06:51 GMT 39.302765 -12.415088 36,000 21 355 0
2019-12-06 19:06:46 GMT 39.294510 -12.419312 36,000 21 355 0
2019-12-06 19:06:41 GMT 39.287807 -12.422791 36,000 21 355 64
2019-12-06 19:06:36 GMT 39.278915 -12.427328 36,000 21 356 0
2019-12-06 19:06:31 GMT 39.272491 -12.430603 36,000 21 356 64
2019-12-06 19:06:25 GMT 39.262390 -12.435807 36,000 21 357 0
2019-12-06 19:06:21 GMT 39.256573 -12.438782 36,000 21 357 0
2019-12-06 19:06:17 GMT 39.249168 -12.442566 36,000 21 358 64
2019-12-06 19:06:13 GMT 39.242420 -12.446045 36,000 21 358 -64
2019-12-06 19:06:10 GMT 39.240280 -12.447092 36,000 21 358 0
2019-12-06 19:06:05 GMT 39.225147 -12.454834 36,000 21 359 0
2019-12-06 19:06:01 GMT 39.225147 -12.454834 36,000 21 359 0
2019-12-06 19:05:56 GMT 39.217438 -12.458735 36,000 21 359 0
2019-12-06 19:05:53 GMT 39.213371 -12.460815 36,000 21 360 -64
2019-12-06 19:05:50 GMT 39.209381 -12.462855 36,000 21 360 -64
2019-12-06 19:05:45 GMT 39.193863 -12.470736 36,000 21 360 64
2019-12-06 19:05:40 GMT 39.193863 -12.470736 36,000 21 360 0
2019-12-06 19:05:36 GMT 39.186447 -12.474498 36,000 21 361 0
2019-12-06 19:05:33 GMT 39.181458 -12.477006 36,000 21 361 64
2019-12-06 19:05:30 GMT 39.178391 -12.478618 36,000 21 361 64
2019-12-06 19:05:24 GMT 39.169052 -12.483335 36,000 21 362 0
2019-12-06 19:05:19 GMT 39.160023 -12.487915 36,000 21 361 64
2019-12-06 19:05:11 GMT 39.131950 -12.502136 36,000 21 363 0
2019-12-06 19:05:02 GMT 39.131950 -12.502136 36,000 21 363 0
2019-12-06 19:04:58 GMT 39.128227 -12.504028 36,000 21 363 0
2019-12-06 19:04:54 GMT 39.115997 -12.510203 36,000 21 363 64
2019-12-06 19:04:51 GMT 39.115997 -12.510203 36,000 21 363 64
2019-12-06 19:04:44 GMT 39.106613 -12.514980 36,000 21 363 -64
2019-12-06 19:04:39 GMT 39.097870 -12.519458 36,000 21 363 64
2019-12-06 19:04:35 GMT 39.090363 -12.523339 36,000 21 363 0
2019-12-06 19:04:29 GMT 39.082512 -12.527283 36,000 21 364 128
2019-12-06 19:04:24 GMT 39.074066 -12.531639 36,000 21 364 -128
2019-12-06 19:04:19 GMT 39.067154 -12.535102 36,000 21 364 128
2019-12-06 19:04:13 GMT 39.058071 -12.539734 36,000 21 364 -64
2019-12-06 19:04:09 GMT 39.050529 -12.543579 36,000 21 365 0
2019-12-06 19:04:03 GMT 39.042023 -12.547879 36,000 21 365 0
2019-12-06 19:03:58 GMT 39.034515 -12.551701 36,000 21 365 128
2019-12-06 19:03:54 GMT 39.025997 -12.556030 36,000 21 366 0
2019-12-06 19:03:48 GMT 39.018410 -12.559875 36,000 21 366 0
2019-12-06 19:03:42 GMT 39.008606 -12.564837 36,000 21 367 0
2019-12-06 19:03:38 GMT 39.001694 -12.568359 36,000 21 367 128
2019-12-06 19:03:30 GMT 38.989014 -12.574748 36,000 21 367 64
2019-12-06 19:03:27 GMT 38.984619 -12.577017 36,000 21 367 64
2019-12-06 19:03:20 GMT 38.972881 -12.582886 36,000 21 367 0
2019-12-06 19:03:16 GMT 38.968140 -12.585317 36,000 21 367 0
2019-12-06 19:03:12 GMT 38.960827 -12.588989 36,000 21 368 0
2019-12-06 19:03:07 GMT 38.953842 -12.592529 36,000 21 369 0
2019-12-06 19:03:03 GMT 38.945251 -12.596840 36,000 21 369 0
2019-12-06 19:02:59 GMT 38.940170 -12.599408 36,000 21 369 0
2019-12-06 19:02:52 GMT 38.929634 -12.604736 36,000 21 370 64
2019-12-06 19:02:49 GMT 38.924835 -12.607110 36,000 21 371 0
2019-12-06 19:02:42 GMT 38.912365 -12.613403 36,000 21 373 0
2019-12-06 19:02:39 GMT 38.908501 -12.615356 36,000 21 373 0
2019-12-06 19:02:32 GMT 38.897919 -12.620724 36,000 21 373 64
2019-12-06 19:02:29 GMT 38.879543 -12.630005 36,000 21 375 0
2019-12-06 19:02:22 GMT 38.879543 -12.630005 36,000 21 375 64
2019-12-06 19:02:19 GMT 38.875633 -12.631958 36,000 21 377 -64
2019-12-06 19:02:12 GMT 38.863632 -12.637979 36,000 21 377 -64
2019-12-06 19:02:08 GMT 38.858131 -12.640747 36,000 21 377 0
2019-12-06 19:02:05 GMT 38.852600 -12.643532 36,000 21 377 0
2019-12-06 19:01:58 GMT 38.842537 -12.648621 36,000 21 378 0
2019-12-06 19:01:49 GMT 38.821632 -12.659180 36,000 21 379 0
2019-12-06 19:01:46 GMT 38.821632 -12.659180 36,000 21 379 0
2019-12-06 19:01:40 GMT 38.812180 -12.664012 36,000 21 380 0
2019-12-06 19:01:37 GMT 38.806599 -12.666809 36,000 21 380 64
2019-12-06 19:01:31 GMT 38.795792 -12.672312 36,000 21 380 64
2019-12-06 19:01:24 GMT 38.785648 -12.677429 36,000 21 381 0
2019-12-06 19:01:16 GMT 38.772472 -12.684082 36,000 21 382 0
2019-12-06 19:01:09 GMT 38.762604 -12.689026 36,000 21 382 0
2019-12-06 19:01:06 GMT 38.755692 -12.692493 36,000 21 383 0
2019-12-06 19:00:58 GMT 38.743473 -12.698608 36,000 21 383 0
2019-12-06 19:00:55 GMT 38.738525 -12.701091 36,000 21 384 0
2019-12-06 19:00:50 GMT 38.729233 -12.705748 36,000 21 384 0
2019-12-06 19:00:45 GMT 38.721954 -12.709390 36,000 21 384 0
2019-12-06 19:00:38 GMT 38.710373 -12.715210 36,000 21 384 0
2019-12-06 19:00:35 GMT 38.704697 -12.718048 36,000 21 384 0
2019-12-06 19:00:29 GMT 38.695450 -12.722705 36,000 21 384 0
2019-12-06 19:00:24 GMT 38.687485 -12.726706 36,000 21 384 64
2019-12-06 19:00:19 GMT 38.678532 -12.731201 36,000 21 384 0
2019-12-06 19:00:13 GMT 38.667919 -12.736511 36,000 21 384 0
2019-12-06 19:00:07 GMT 38.659607 -12.740678 36,000 21 384 64
2019-12-06 18:59:57 GMT 38.642082 -12.749512 36,000 21 384 64
2019-12-06 18:59:48 GMT 38.627151 -12.756978 36,000 21 385 0
2019-12-06 18:59:37 GMT 38.608566 -12.766233 36,000 21 385 0
2019-12-06 18:59:33 GMT 38.601929 -12.769517 36,000 21 385 0
2019-12-06 18:59:27 GMT 38.593277 -12.773816 36,000 21 385 64
2019-12-06 18:59:23 GMT 38.584030 -12.778473 36,000 21 385 64
2019-12-06 18:59:16 GMT 38.575378 -12.782772 36,000 21 384 0
2019-12-06 18:59:11 GMT 38.565445 -12.787787 36,000 21 384 0
2019-12-06 18:59:06 GMT 38.558121 -12.791430 36,000 21 384 0
2019-12-06 18:59:01 GMT 38.549210 -12.795959 36,000 21 385 0
2019-12-06 18:58:57 GMT 38.541550 -12.799729 36,000 21 385 0
2019-12-06 18:58:53 GMT 38.536240 -12.802416 36,000 21 385 0
2019-12-06 18:58:49 GMT 38.527935 -12.806580 36,000 21 385 0
2019-12-06 18:58:46 GMT 38.524632 -12.808228 36,000 21 385 0
2019-12-06 18:58:41 GMT 38.514999 -12.813044 36,000 21 385 0
2019-12-06 18:58:38 GMT 38.509689 -12.815671 36,000 21 385 0
2019-12-06 18:58:30 GMT 38.498383 -12.821284 36,000 21 385 0
2019-12-06 18:58:24 GMT 38.488087 -12.826477 36,000 21 385 0
2019-12-06 18:58:18 GMT 38.478424 -12.831255 36,000 21 385 0
2019-12-06 18:58:13 GMT 38.469772 -12.835554 36,000 21 386 0
2019-12-06 18:58:04 GMT 38.454803 -12.843018 36,000 21 386 -64
2019-12-06 18:57:55 GMT 38.439835 -12.850541 36,000 21 386 -64
2019-12-06 18:57:46 GMT 38.423519 -12.858643 36,000 21 386 0
2019-12-06 18:57:35 GMT 38.406555 -12.867152 36,000 21 386 -64
2019-12-06 18:57:25 GMT 38.389206 -12.875801 36,000 21 386 64
2019-12-06 18:57:14 GMT 38.371567 -12.884634 36,000 21 387 0
2019-12-06 18:57:05 GMT 38.355507 -12.892575 36,000 21 388 0
2019-12-06 18:56:54 GMT 38.338745 -12.900875 36,000 21 390 -64
2019-12-06 18:56:44 GMT 38.321896 -12.909174 36,000 21 392 64
2019-12-06 18:56:35 GMT 38.303879 -12.918052 36,000 21 394 0
2019-12-06 18:56:24 GMT 38.287537 -12.926116 36,000 21 396 -64
2019-12-06 18:56:13 GMT 38.268734 -12.935386 36,000 21 396 0
2019-12-06 18:56:03 GMT 38.252014 -12.943706 36,000 21 396 0
2019-12-06 18:55:54 GMT 38.235626 -12.951771 36,000 21 397 0
2019-12-06 18:55:43 GMT 38.217819 -12.960536 36,000 21 397 64
2019-12-06 18:55:33 GMT 38.198997 -12.969898 36,000 21 397 0
2019-12-06 18:55:24 GMT 38.183624 -12.977542 36,000 21 397 0
2019-12-06 18:55:12 GMT 38.164780 -12.986915 36,000 21 397 0
2019-12-06 18:55:02 GMT 38.146683 -12.995950 36,000 21 397 0
2019-12-06 18:54:53 GMT 38.131264 -13.003633 36,000 21 397 0
2019-12-06 18:54:42 GMT 38.113083 -13.012604 36,000 21 398 0
2019-12-06 18:54:33 GMT 38.096649 -13.020727 36,000 21 397 0
2019-12-06 18:54:22 GMT 38.078110 -13.029844 36,000 21 397 64
2019-12-06 18:54:13 GMT 38.061630 -13.037908 36,000 21 397 0
2019-12-06 18:54:01 GMT 38.026291 -13.055221 36,000 21 397 0
2019-12-06 18:53:51 GMT 38.026291 -13.055221 36,000 21 397 0
2019-12-06 18:53:41 GMT 38.008804 -13.063796 36,000 21 397 64
2019-12-06 18:53:32 GMT 37.992325 -13.071919 36,000 21 398 0
2019-12-06 18:53:26 GMT 37.982391 -13.076776 36,000 21 398 -64
2019-12-06 18:53:21 GMT 37.974518 -13.080685 36,000 21 398 64
2019-12-06 18:53:15 GMT 37.963863 -13.085911 36,000 21 397 0
2019-12-06 18:53:11 GMT 37.956665 -13.089450 36,000 21 397 0
2019-12-06 18:53:02 GMT 37.922058 -13.106451 36,000 21 393 0
2019-12-06 18:52:51 GMT 37.922058 -13.106451 36,000 21 397 0
2019-12-06 18:52:39 GMT 37.902557 -13.116040 36,000 21 396 0
2019-12-06 18:52:31 GMT 37.887840 -13.123229 36,000 21 396 0
2019-12-06 18:52:21 GMT 37.870804 -13.131648 36,000 21 396 0
2019-12-06 18:52:10 GMT 37.853394 -13.140174 36,000 21 395 0
2019-12-06 18:52:00 GMT 37.835632 -13.148882 36,000 21 395 64
2019-12-06 18:51:54 GMT 37.826439 -13.153381 36,000 21 395 0
2019-12-06 18:51:51 GMT 37.817917 -13.157530 36,000 21 395 0
2019-12-06 18:51:44 GMT 37.809036 -13.161855 36,000 21 394 0
2019-12-06 18:51:40 GMT 37.800510 -13.166040 36,000 21 394 64
2019-12-06 18:51:29 GMT 37.782822 -13.174638 36,000 21 394 0
2019-12-06 18:51:22 GMT 37.771229 -13.180310 36,000 21 393 0
2019-12-06 18:51:19 GMT 37.765457 -13.183126 36,000 21 394 0
2019-12-06 18:51:10 GMT 37.749443 -13.190938 36,000 21 393 0
2019-12-06 18:51:07 GMT 37.744694 -13.193266 36,000 21 393 0
2019-12-06 18:50:59 GMT 37.731148 -13.199894 36,000 21 393 0
2019-12-06 18:50:48 GMT 37.710758 -13.209865 36,000 21 393 0
2019-12-06 18:50:40 GMT 37.696884 -13.216611 36,000 21 393 64
2019-12-06 18:50:37 GMT 37.693115 -13.218463 36,000 21 393 0
2019-12-06 18:50:26 GMT 37.673470 -13.228076 36,000 21 393 0
2019-12-06 18:50:18 GMT 37.661922 -13.233629 36,000 21 393 64
2019-12-06 18:50:15 GMT 37.657177 -13.235958 36,000 21 393 0
2019-12-06 18:50:05 GMT 37.639160 -13.244661 36,000 21 393 0
2019-12-06 18:49:53 GMT 37.619747 -13.253990 36,000 21 393 -64
2019-12-06 18:49:45 GMT 37.605503 -13.260856 36,000 21 393 -64
2019-12-06 18:49:38 GMT 37.591911 -13.267484 36,000 21 393 0
2019-12-06 18:49:14 GMT 37.552872 -13.286561 36,000 21 393 0
2019-12-06 18:49:07 GMT 37.541336 -13.292113 36,000 21 393 0
2019-12-06 18:49:03 GMT 37.535580 -13.294890 36,000 21 393 0
2019-12-06 18:48:53 GMT 37.518589 -13.303070 36,000 20 392 0
2019-12-06 18:48:43 GMT 37.499222 -13.312391 36,000 20 392 0
2019-12-06 18:48:33 GMT 37.483955 -13.319729 36,000 20 391 0
2019-12-06 18:48:23 GMT 37.465988 -13.328344 36,000 21 392 0
2019-12-06 18:48:12 GMT 37.447365 -13.337402 36,000 21 392 0
2019-12-06 18:48:05 GMT 37.435867 -13.342955 36,000 21 392 0
2019-12-06 18:48:02 GMT 37.429722 -13.345941 36,000 21 392 0
2019-12-06 18:47:55 GMT 37.419937 -13.350726 36,000 21 392 0
2019-12-06 18:47:47 GMT 37.406029 -13.357405 36,000 21 391 0
2019-12-06 18:47:42 GMT 37.396866 -13.361829 36,000 21 392 0
2019-12-06 18:47:34 GMT 37.383316 -13.368374 36,000 21 392 0
2019-12-06 18:47:26 GMT 37.369434 -13.375078 36,000 21 392 0
2019-12-06 18:47:14 GMT 37.350491 -13.384214 36,000 21 391 64
2019-12-06 18:47:04 GMT 37.332596 -13.392918 36,000 21 391 64
2019-12-06 18:46:54 GMT 37.317032 -13.400515 36,000 21 392 0
2019-12-06 18:46:42 GMT 37.296066 -13.410683 36,000 21 392 64
2019-12-06 18:46:34 GMT 37.282848 -13.416994 36,000 21 391 0
2019-12-06 18:46:24 GMT 37.265625 -13.425351 36,000 21 391 0
2019-12-06 18:46:14 GMT 37.247406 -13.434117 36,000 20 390 0
2019-12-06 18:45:50 GMT 37.207535 -13.453226 36,000 20 390 64
2019-12-06 18:45:42 GMT 37.194717 -13.459362 36,000 21 389 0
2019-12-06 18:45:31 GMT 37.176544 -13.468070 36,000 21 389 0
2019-12-06 18:45:22 GMT 37.160694 -13.475627 36,000 21 389 0
2019-12-06 18:45:14 GMT 37.146591 -13.482434 36,000 21 389 0
2019-12-06 18:44:57 GMT 37.118984 -13.495689 36,000 21 389 -64
2019-12-06 18:44:51 GMT 37.108566 -13.500678 36,000 21 389 -64
2019-12-06 18:44:41 GMT 37.092407 -13.508450 36,000 21 389 0
2019-12-06 18:44:32 GMT 37.077621 -13.515521 36,000 21 389 0
2019-12-06 18:44:23 GMT 37.061508 -13.523293 36,000 21 389 0
2019-12-06 18:44:14 GMT 37.046036 -13.530715 36,000 20 388 64
2019-12-06 18:44:03 GMT 37.028908 -13.538858 36,000 20 388 0
2019-12-06 18:43:33 GMT 36.971184 -13.566443 36,000 20 387 0
2019-12-06 18:43:22 GMT 36.959824 -13.571877 36,000 20 387 0
2019-12-06 18:43:12 GMT 36.942719 -13.579978 36,000 20 387 0
2019-12-06 18:42:45 GMT 36.897858 -13.601250 36,000 20 387 0
2019-12-06 18:42:10 GMT 36.838554 -13.629417 36,000 20 387 0
2019-12-06 18:41:56 GMT 36.814774 -13.640671 36,000 20 387 0
2019-12-06 18:41:48 GMT 36.802002 -13.646679 36,000 20 387 0
2019-12-06 18:41:39 GMT 36.787628 -13.653551 36,000 21 387 0
2019-12-06 18:41:30 GMT 36.771881 -13.661041 36,000 21 387 0
2019-12-06 18:41:12 GMT 36.742100 -13.675232 36,000 21 387 0
2019-12-06 18:41:09 GMT 36.736404 -13.677979 36,000 21 387 0
2019-12-06 18:40:57 GMT 36.715984 -13.687738 36,000 21 387 0
2019-12-06 18:40:49 GMT 36.701569 -13.694687 36,000 21 387 0
2019-12-06 18:40:39 GMT 36.685818 -13.702172 36,000 20 388 0
2019-12-06 18:38:12 GMT 36.439224 -13.818398 36,000 20 389 64
2019-12-06 18:38:08 GMT 36.431808 -13.821888 36,000 20 389 64
2019-12-06 18:37:51 GMT 36.402832 -13.835449 36,000 20 388 0
2019-12-06 18:37:45 GMT 36.393402 -13.839855 36,000 20 389 0
2019-12-06 18:37:39 GMT 36.380947 -13.845695 36,000 20 388 -64
2019-12-06 18:37:25 GMT 36.359024 -13.855877 36,000 20 388 64
2019-12-06 18:37:16 GMT 36.344925 -13.862514 36,000 20 389 64
2019-12-06 18:36:13 GMT 36.238907 -13.912354 36,000 20 391 0
2019-12-06 18:35:23 GMT 36.153534 -13.952122 36,000 20 391 0
2019-12-06 18:35:17 GMT 36.141666 -13.957604 36,000 20 391 0
2019-12-06 18:35:06 GMT 36.125107 -13.965397 36,000 20 390 64
2019-12-06 18:34:55 GMT 36.106155 -13.974266 36,000 20 390 0
We lost coverage of the aircraft here for a total of 32 minutes
2019-12-06 18:02:49 GMT 32.857918 -15.424973 36,000 19 393 64
2019-12-06 18:02:41 GMT 32.844887 -15.430578 36,000 19 394 0
2019-12-06 18:02:33 GMT 32.830124 -15.436890 36,000 19 394 0
2019-12-06 18:02:26 GMT 32.816723 -15.442629 36,000 19 394 -64
2019-12-06 18:02:14 GMT 32.797165 -15.451007 36,000 19 394 0
2019-12-06 18:02:04 GMT 32.781013 -15.457876 36,000 19 394 0
2019-12-06 18:01:54 GMT 32.763836 -15.465163 36,000 19 394 0
2019-12-06 18:01:44 GMT 32.745621 -15.472925 36,000 19 394 0
2019-12-06 18:01:30 GMT 32.721588 -15.483197 36,000 19 394 0
2019-12-06 18:01:22 GMT 32.708858 -15.488649 36,000 19 394 0
2019-12-06 18:01:14 GMT 32.693077 -15.495431 36,000 19 394 0
2019-12-06 18:01:05 GMT 32.674896 -15.503247 36,000 19 394 0
2019-12-06 18:00:53 GMT 32.658417 -15.510278 36,000 19 394 0
2019-12-06 18:00:45 GMT 32.640194 -15.518020 36,000 19 394 0
2019-12-06 18:00:32 GMT 32.621338 -15.526044 36,000 19 394 0
2019-12-06 18:00:22 GMT 32.604858 -15.533075 36,000 19 394 0
2019-12-06 18:00:11 GMT 32.587006 -15.540656 36,000 19 394 0
2019-12-06 18:00:04 GMT 32.574276 -15.546047 36,000 19 394 64
2019-12-06 18:00:01 GMT 32.570179 -15.547784 36,000 19 394 64
2019-12-06 17:59:52 GMT 32.552628 -15.555212 36,000 19 394 0
2019-12-06 17:59:41 GMT 32.535126 -15.562694 36,000 19 394 0
2019-12-06 17:59:33 GMT 32.521729 -15.568396 36,000 19 394 0
2019-12-06 17:59:30 GMT 32.516922 -15.570428 36,000 19 394 0
2019-12-06 17:59:24 GMT 32.504215 -15.575867 36,000 19 394 0
2019-12-06 17:59:20 GMT 32.496674 -15.579062 36,000 19 394 0
2019-12-06 17:59:12 GMT 32.484989 -15.583994 36,000 19 394 0
2019-12-06 17:59:07 GMT 32.476749 -15.587470 36,000 19 394 0
2019-12-06 17:59:03 GMT 32.469208 -15.590721 36,000 19 393 0
2019-12-06 17:58:58 GMT 32.461666 -15.593916 36,000 19 393 0
2019-12-06 17:58:52 GMT 32.450317 -15.598663 36,000 19 393 0
2019-12-06 17:58:43 GMT 32.434570 -15.605365 36,000 19 393 0
2019-12-06 17:58:40 GMT 32.428753 -15.607817 36,000 19 393 0
2019-12-06 17:58:32 GMT 32.416416 -15.613086 36,000 19 393 64
2019-12-06 17:58:29 GMT 32.411621 -15.615104 36,000 19 393 64
2019-12-06 17:58:19 GMT 32.394150 -15.622559 36,000 19 393 64
2019-12-06 17:58:11 GMT 32.380760 -15.628276 36,000 19 394 0
2019-12-06 17:58:08 GMT 32.376297 -15.630139 36,000 19 394 0
2019-12-06 17:57:59 GMT 32.358089 -15.637917 36,000 19 394 0
2019-12-06 17:57:48 GMT 32.332306 -15.648871 36,000 19 394 0
2019-12-06 17:57:41 GMT 32.328526 -15.650473 36,000 19 394 0
2019-12-06 17:57:33 GMT 32.315094 -15.656122 36,000 19 395 0
2019-12-06 17:57:30 GMT 32.297569 -15.663533 36,000 19 395 0
2019-12-06 17:57:23 GMT 32.297569 -15.663533 36,000 19 395 0
2019-12-06 17:57:19 GMT 32.291378 -15.666168 36,000 19 394 0
2019-12-06 17:57:11 GMT 32.275864 -15.672711 36,000 19 394 0
2019-12-06 17:57:02 GMT 32.261772 -15.678667 36,000 19 394 0
2019-12-06 17:56:59 GMT 32.256977 -15.680685 36,000 19 394 0
2019-12-06 17:56:50 GMT 32.239799 -15.687972 36,000 19 395 64
2019-12-06 17:56:41 GMT 32.226719 -15.693521 36,000 19 394 0
2019-12-06 17:56:32 GMT 32.208843 -15.701032 36,000 19 395 0
2019-12-06 17:56:28 GMT 32.202988 -15.703528 36,000 19 395 0
2019-12-06 17:56:20 GMT 32.175743 -15.714989 36,000 19 396 0
2019-12-06 17:56:08 GMT 32.168808 -15.717848 36,000 19 396 0
2019-12-06 17:55:58 GMT 32.152233 -15.724799 36,000 19 396 0
2019-12-06 17:55:48 GMT 32.134312 -15.732310 36,000 19 396 0
2019-12-06 17:55:37 GMT 32.116341 -15.739877 36,000 19 396 0
2019-12-06 17:55:26 GMT 32.095276 -15.748737 36,000 19 396 0
2019-12-06 17:55:18 GMT 32.081802 -15.754395 36,000 19 395 0
2019-12-06 17:55:06 GMT 32.061829 -15.762802 36,000 19 395 0
2019-12-06 17:54:57 GMT 32.044922 -15.769940 36,000 19 395 0
2019-12-06 17:54:46 GMT 32.028351 -15.776862 36,000 19 395 0
2019-12-06 17:54:36 GMT 32.008347 -15.785266 36,000 19 395 0
2019-12-06 17:54:26 GMT 31.993195 -15.791638 36,000 19 395 0
2019-12-06 17:54:15 GMT 31.974264 -15.799629 36,000 19 394 0
2019-12-06 17:54:05 GMT 31.957134 -15.806860 36,000 19 393 0
2019-12-06 17:53:56 GMT 31.939304 -15.814371 36,000 19 392 0
2019-12-06 17:53:44 GMT 31.921568 -15.821882 36,000 19 391 64
2019-12-06 17:53:34 GMT 31.904205 -15.829211 36,000 19 390 0
2019-12-06 17:53:24 GMT 31.887539 -15.836231 36,000 19 390 0
2019-12-06 17:53:15 GMT 31.869896 -15.843630 36,000 19 389 0
2019-12-06 17:53:03 GMT 31.852251 -15.850861 36,000 19 388 0
2019-12-06 17:52:53 GMT 31.834946 -15.858051 36,000 19 388 64
2019-12-06 17:52:44 GMT 31.818361 -15.865043 36,000 19 389 0
2019-12-06 17:52:33 GMT 31.799973 -15.872722 36,000 19 389 -64
2019-12-06 17:52:23 GMT 31.783310 -15.879639 36,000 19 390 -64
2019-12-06 17:52:12 GMT 31.765594 -15.887092 36,000 19 390 64
2019-12-06 17:52:08 GMT 31.757401 -15.890539 36,000 19 392 64
2019-12-06 17:52:03 GMT 31.747833 -15.894524 36,000 19 391 64
2019-12-06 17:51:52 GMT 31.730713 -15.901687 36,000 19 392 -64
2019-12-06 17:51:43 GMT 31.714966 -15.908257 36,000 19 392 0
2019-12-06 17:51:40 GMT 31.709803 -15.910455 36,000 19 392 0
2019-12-06 17:51:37 GMT 31.705658 -15.912158 36,000 19 392 0
2019-12-06 17:51:31 GMT 31.695053 -15.916551 36,000 19 392 0
2019-12-06 17:51:22 GMT 31.677933 -15.923713 36,000 19 391 0
2019-12-06 17:51:11 GMT 31.660126 -15.931091 36,000 19 391 64
2019-12-06 17:51:01 GMT 31.642719 -15.938306 36,000 19 391 0
2019-12-06 17:50:50 GMT 31.622889 -15.946545 36,000 19 391 0
2019-12-06 17:50:39 GMT 31.606457 -15.953302 36,000 19 391 0
2019-12-06 17:50:29 GMT 31.589325 -15.960388 36,000 19 392 0
2019-12-06 17:50:22 GMT 31.574287 -15.966595 36,000 19 392 -64
2019-12-06 17:50:15 GMT 31.565002 -15.970459 36,000 19 392 0
2019-12-06 17:50:10 GMT 31.554749 -15.974713 36,000 19 392 0
2019-12-06 17:49:59 GMT 31.536896 -15.982092 36,000 19 393 0
2019-12-06 17:49:55 GMT 31.529984 -15.984946 36,000 19 393 0
2019-12-06 17:49:49 GMT 31.518997 -15.989523 36,000 19 393 0
2019-12-06 17:49:39 GMT 31.502178 -15.996478 36,000 19 394 -64
2019-12-06 17:49:34 GMT 31.494278 -15.999810 36,000 19 394 0
2019-12-06 17:49:29 GMT 31.483604 -16.004278 36,000 19 393 0
2019-12-06 17:49:18 GMT 31.466812 -16.011335 36,000 19 393 0
2019-12-06 17:49:15 GMT 31.460979 -16.013783 36,000 20 393 0
2019-12-06 17:49:07 GMT 31.447632 -16.019466 36,000 20 393 0
2019-12-06 17:48:57 GMT 31.430861 -16.026636 36,000 20 393 0
2019-12-06 17:48:50 GMT 31.417173 -16.032513 36,000 20 394 0
2019-12-06 17:48:36 GMT 31.394897 -16.041979 36,000 19 394 64
2019-12-06 17:48:27 GMT 31.378721 -16.048609 36,000 18 394 0
2019-12-06 17:48:17 GMT 31.360382 -16.055656 36,000 17 393 -64
2019-12-06 17:48:13 GMT 31.354467 -16.057837 36,000 17 393 0
2019-12-06 17:48:08 GMT 31.346786 -16.060694 36,000 17 393 0
2019-12-06 17:47:57 GMT 31.327328 -16.067944 36,000 17 393 0
2019-12-06 17:47:50 GMT 31.314468 -16.072729 36,000 17 393 -64
2019-12-06 17:47:46 GMT 31.306473 -16.075689 36,000 17 393 0
2019-12-06 17:47:42 GMT 31.300552 -16.077900 36,000 17 393 0
2019-12-06 17:47:32 GMT 31.283524 -16.084259 36,000 17 394 0
2019-12-06 17:47:25 GMT 31.271000 -16.088984 36,000 17 394 0
2019-12-06 17:47:22 GMT 31.266159 -16.090796 36,000 17 394 0
2019-12-06 17:47:14 GMT 31.253311 -16.095617 36,000 17 394 64
2019-12-06 17:47:05 GMT 31.235575 -16.102331 36,000 17 395 0
2019-12-06 17:46:54 GMT 31.217464 -16.109089 36,000 17 395 0
2019-12-06 17:46:44 GMT 31.199263 -16.115900 36,000 17 395 0
2019-12-06 17:46:41 GMT 31.194763 -16.117590 36,000 17 395 0
2019-12-06 17:46:34 GMT 31.181807 -16.122437 36,000 17 395 -64
2019-12-06 17:46:28 GMT 31.173065 -16.125668 36,000 17 396 -64
2019-12-06 17:46:24 GMT 31.163605 -16.129192 36,000 17 395 -64
2019-12-06 17:46:20 GMT 31.159058 -16.130892 36,000 17 395 0
2019-12-06 17:46:13 GMT 31.146147 -16.135620 36,000 17 395 0
2019-12-06 17:46:07 GMT 31.134975 -16.139740 36,000 17 395 0
2019-12-06 17:46:03 GMT 31.127993 -16.142323 36,000 17 395 0
2019-12-06 17:46:00 GMT 31.122757 -16.144247 36,000 17 395 0
2019-12-06 17:45:52 GMT 31.109482 -16.149096 36,000 17 394 -64
2019-12-06 17:45:46 GMT 31.096617 -16.153856 36,000 17 394 0
2019-12-06 17:45:40 GMT 31.087538 -16.157152 36,000 17 394 64
2019-12-06 17:45:35 GMT 31.079544 -16.160135 36,000 17 394 64
2019-12-06 17:45:32 GMT 31.074318 -16.162098 36,000 17 394 0
2019-12-06 17:45:25 GMT 31.056208 -16.168798 36,000 17 394 0
2019-12-06 17:45:22 GMT 31.056208 -16.168798 36,000 17 394 0
2019-12-06 17:45:13 GMT 31.041592 -16.174236 36,000 17 394 0
2019-12-06 17:45:10 GMT 31.036331 -16.176184 36,000 17 394 0
2019-12-06 17:45:05 GMT 31.024475 -16.180599 36,000 17 394 0
2019-12-06 17:44:58 GMT 31.015057 -16.184126 36,000 17 395 0
2019-12-06 17:44:52 GMT 31.004581 -16.188025 36,000 17 395 -64
2019-12-06 17:44:49 GMT 30.997599 -16.190607 36,000 17 395 -64
2019-12-06 17:44:42 GMT 30.987488 -16.194386 36,000 17 395 0
2019-12-06 17:44:38 GMT 30.979111 -16.197456 36,000 17 395 0
2019-12-06 17:44:33 GMT 30.970047 -16.200850 36,000 17 395 0
2019-12-06 17:44:28 GMT 30.962357 -16.203703 36,000 17 395 0
2019-12-06 17:44:19 GMT 30.947369 -16.209284 36,000 17 395 0
2019-12-06 17:44:15 GMT 30.940018 -16.211996 36,000 17 395 0
2019-12-06 17:44:10 GMT 30.928514 -16.216261 36,000 17 395 0
2019-12-06 17:44:07 GMT 30.926056 -16.217167 36,000 17 395 0
2019-12-06 17:44:03 GMT 30.918365 -16.220020 36,000 17 395 0
2019-12-06 17:43:59 GMT 30.911407 -16.222607 36,000 17 395 0
2019-12-06 17:43:53 GMT 30.901281 -16.226313 36,000 17 395 0
2019-12-06 17:43:46 GMT 30.889755 -16.230576 36,000 17 395 0
2019-12-06 17:43:43 GMT 30.883484 -16.232891 36,000 17 395 64
2019-12-06 17:43:39 GMT 30.876842 -16.235321 36,000 17 395 64
2019-12-06 17:43:34 GMT 30.869162 -16.238176 36,000 17 395 0
2019-12-06 17:43:28 GMT 30.857988 -16.242243 36,000 17 395 0
2019-12-06 17:43:22 GMT 30.847515 -16.246143 36,000 17 395 0
2019-12-06 17:43:18 GMT 30.840179 -16.248833 36,000 17 395 0
2019-12-06 17:43:10 GMT 30.825869 -16.254108 36,000 17 395 0
2019-12-06 17:43:05 GMT 30.818188 -16.256964 36,000 17 395 0
2019-12-06 17:43:00 GMT 30.808777 -16.260412 36,000 17 395 0
2019-12-06 17:42:55 GMT 30.801428 -16.263170 36,000 17 395 0
2019-12-06 17:42:51 GMT 30.793442 -16.266121 36,000 17 395 64
2019-12-06 17:42:48 GMT 30.776337 -16.272455 36,000 17 395 64
2019-12-06 17:42:36 GMT 30.767958 -16.275585 36,000 17 395 0
2019-12-06 17:42:29 GMT 30.754303 -16.280661 36,000 17 396 0
2019-12-06 17:42:25 GMT 30.748718 -16.282707 36,000 17 395 0
2019-12-06 17:42:19 GMT 30.737885 -16.286682 36,000 17 396 0
2019-12-06 17:42:16 GMT 30.732996 -16.288494 36,000 17 396 0
2019-12-06 17:42:12 GMT 30.725647 -16.291218 36,000 17 396 0
2019-12-06 17:42:03 GMT 30.709906 -16.296953 36,000 17 396 64
2019-12-06 17:42:00 GMT 30.702877 -16.299536 36,000 17 396 0
2019-12-06 17:41:55 GMT 30.696592 -16.301844 36,000 17 396 0
2019-12-06 17:41:50 GMT 30.686071 -16.305689 36,000 17 397 0
2019-12-06 17:41:43 GMT 30.669964 -16.311621 36,000 17 396 0
2019-12-06 17:41:36 GMT 30.660461 -16.315075 36,000 17 397 0
2019-12-06 17:41:33 GMT 30.657303 -16.316179 36,000 17 397 0
2019-12-06 17:41:29 GMT 30.648560 -16.319435 36,000 17 397 0
2019-12-06 17:41:26 GMT 30.643290 -16.321344 36,000 17 397 0
2019-12-06 17:41:21 GMT 30.635563 -16.324146 36,000 17 397 0
2019-12-06 17:41:15 GMT 30.625040 -16.327991 36,000 17 397 0
2019-12-06 17:41:12 GMT 30.620806 -16.329529 36,000 17 397 0
2019-12-06 17:41:02 GMT 30.602556 -16.336229 36,000 17 398 0
2019-12-06 17:40:56 GMT 30.591990 -16.340076 36,000 17 398 0
2019-12-06 17:40:51 GMT 30.583878 -16.343025 36,000 17 398 0
2019-12-06 17:40:45 GMT 30.572662 -16.347118 36,000 17 398 0
2019-12-06 17:40:37 GMT 30.559635 -16.351940 36,000 17 398 0
2019-12-06 17:40:33 GMT 30.551861 -16.354742 36,000 17 398 0
2019-12-06 17:40:24 GMT 30.535355 -16.360851 36,000 17 398 0
2019-12-06 17:40:21 GMT 30.530773 -16.362488 36,000 17 398 0
2019-12-06 17:40:11 GMT 30.513474 -16.368820 36,000 17 398 64
2019-12-06 17:40:01 GMT 30.494787 -16.375727 36,000 17 400 0
2019-12-06 17:39:50 GMT 30.475748 -16.382757 36,000 17 399 0
2019-12-06 17:39:39 GMT 30.457031 -16.389608 36,000 17 401 0
2019-12-06 17:39:33 GMT 30.440735 -16.395588 36,000 17 400 0
2019-12-06 17:39:23 GMT 30.428009 -16.400272 36,000 17 400 0
2019-12-06 17:39:19 GMT 30.421982 -16.402477 36,000 17 400 0
2019-12-06 17:39:15 GMT 30.414206 -16.405334 36,000 17 400 0
2019-12-06 17:39:11 GMT 30.407501 -16.407759 36,000 17 400 0
2019-12-06 17:39:02 GMT 30.388697 -16.414618 36,000 17 401 0
2019-12-06 17:38:59 GMT 30.386215 -16.415567 36,000 17 401 0
2019-12-06 17:38:52 GMT 30.371704 -16.420824 36,000 17 401 0
2019-12-06 17:38:49 GMT 30.367767 -16.422245 36,000 17 401 0
2019-12-06 17:38:45 GMT 30.359985 -16.425098 36,000 17 401 0
2019-12-06 17:38:40 GMT 30.351826 -16.428076 36,000 17 401 0
2019-12-06 17:38:31 GMT 30.336185 -16.433788 36,000 17 401 0
2019-12-06 17:38:28 GMT 30.331203 -16.435602 36,000 17 402 0
2019-12-06 17:38:18 GMT 30.313065 -16.442225 36,000 17 402 0
2019-12-06 17:38:11 GMT 30.298525 -16.447577 36,000 17 402 0
2019-12-06 17:38:08 GMT 30.294939 -16.448839 36,000 17 402 0
2019-12-06 17:38:00 GMT 30.270401 -16.457788 36,000 17 402 0
2019-12-06 17:37:46 GMT 30.255789 -16.463123 36,000 17 402 64
2019-12-06 17:37:43 GMT 30.250809 -16.464935 36,000 17 403 0
2019-12-06 17:37:37 GMT 30.240463 -16.468666 36,000 17 403 0
2019-12-06 17:37:29 GMT 30.224762 -16.474377 36,000 17 404 0
2019-12-06 17:37:21 GMT 30.209015 -16.480085 36,000 17 405 0
2019-12-06 17:37:11 GMT 30.192898 -16.485973 36,000 17 407 0
2019-12-06 17:37:06 GMT 30.185349 -16.488754 36,000 17 407 0
2019-12-06 17:37:03 GMT 30.178162 -16.491341 36,000 17 407 0
2019-12-06 17:36:56 GMT 30.167013 -16.495422 36,000 17 407 0
2019-12-06 17:36:51 GMT 30.156555 -16.499203 36,000 17 409 0
2019-12-06 17:36:46 GMT 30.148252 -16.502234 36,000 17 408 0
2019-12-06 17:36:42 GMT 30.140293 -16.505144 36,000 17 409 0
2019-12-06 17:36:35 GMT 30.129446 -16.509100 36,000 17 410 0
2019-12-06 17:36:29 GMT 30.114969 -16.514374 36,000 17 410 0
2019-12-06 17:36:26 GMT 30.111740 -16.515575 36,000 17 410 0
2019-12-06 17:36:21 GMT 30.100845 -16.519560 36,000 17 410 0
2019-12-06 17:36:15 GMT 30.092880 -16.522469 36,000 17 410 0
2019-12-06 17:36:12 GMT 30.081299 -16.526669 36,000 17 408 0
2019-12-06 17:36:05 GMT 30.074020 -16.529308 36,000 17 410 0
2019-12-06 17:36:01 GMT 30.064972 -16.532612 36,000 17 408 0
2019-12-06 17:35:55 GMT 30.055893 -16.535933 36,000 17 410 0
2019-12-06 17:35:44 GMT 30.035969 -16.543158 36,000 17 409 0
2019-12-06 17:35:41 GMT 30.030533 -16.545088 36,000 17 409 0
2019-12-06 17:35:33 GMT 30.016022 -16.550365 36,000 17 409 0
2019-12-06 17:35:24 GMT 29.999752 -16.556288 36,000 17 409 0
2019-12-06 17:35:18 GMT 29.987415 -16.560736 36,000 17 409 0
2019-12-06 17:35:13 GMT 29.980152 -16.563318 36,000 17 409 -64
2019-12-06 17:35:04 GMT 29.963150 -16.569483 36,000 17 409 0
2019-12-06 17:34:53 GMT 29.943604 -16.576538 36,000 17 408 0
2019-12-06 17:34:43 GMT 29.925522 -16.583109 36,000 17 409 0
2019-12-06 17:34:33 GMT 29.907486 -16.589672 36,000 17 408 0
2019-12-06 17:34:28 GMT 29.898102 -16.593105 36,000 17 408 0
2019-12-06 17:34:23 GMT 29.889097 -16.596411 36,000 17 408 0
2019-12-06 17:34:19 GMT 29.880438 -16.599533 36,000 17 408 0
2019-12-06 17:34:12 GMT 29.869995 -16.603352 36,000 17 407 0
2019-12-06 17:34:01 GMT 29.850586 -16.610430 36,000 17 407 0
2019-12-06 17:33:51 GMT 29.833002 -16.616768 36,000 17 405 64
2019-12-06 17:33:44 GMT 29.819408 -16.621721 36,000 17 402 0
2019-12-06 17:33:41 GMT 29.814789 -16.623425 36,000 17 402 64
2019-12-06 17:33:35 GMT 29.801624 -16.628185 36,025 17 401 -128
2019-12-06 17:33:31 GMT 29.797028 -16.629814 36,025 17 401 -128
2019-12-06 17:33:21 GMT 29.778954 -16.636263 36,025 17 398 384
2019-12-06 17:33:14 GMT 29.765547 -16.641003 35,950 17 398 768
2019-12-06 17:33:11 GMT 29.760956 -16.642597 35,925 17 399 768
2019-12-06 17:33:06 GMT 29.749998 -16.646441 35,850 17 399 704
2019-12-06 17:33:00 GMT 29.742226 -16.649187 35,800 17 399 512
2019-12-06 17:32:57 GMT 29.736546 -16.651234 35,775 17 399 640
2019-12-06 17:32:50 GMT 29.724197 -16.655590 35,725 17 399 704
2019-12-06 17:32:40 GMT 29.686361 -16.669113 35,500 17 401 768
2019-12-06 17:32:29 GMT 29.686361 -16.669113 35,450 17 400 896
2019-12-06 17:32:20 GMT 29.670410 -16.674870 35,325 17 400 640
2019-12-06 17:32:09 GMT 29.652008 -16.681473 35,225 17 401 768
2019-12-06 17:31:59 GMT 29.633200 -16.688179 35,075 17 401 832
2019-12-06 17:31:54 GMT 29.625046 -16.691086 35,025 17 401 832
2019-12-06 17:31:49 GMT 29.615845 -16.694412 34,950 17 401 768
2019-12-06 17:31:38 GMT 29.597029 -16.701319 34,800 17 402 1024
2019-12-06 17:31:28 GMT 29.578949 -16.707933 34,625 17 403 896
2019-12-06 17:31:17 GMT 29.560066 -16.714890 34,475 18 403 960
2019-12-06 17:31:08 GMT 29.542648 -16.721403 34,325 17 404 832
2019-12-06 17:30:57 GMT 29.524452 -16.728140 34,200 17 404 704
2019-12-06 17:30:47 GMT 29.498058 -16.737671 34,000 17 403 768
2019-12-06 17:30:37 GMT 29.487350 -16.741442 33,925 17 403 768
2019-12-06 17:30:26 GMT 29.468445 -16.748236 33,775 17 403 640
2019-12-06 17:30:16 GMT 29.442078 -16.757849 33,625 17 402 768
2019-12-06 17:30:04 GMT 29.427155 -16.763182 33,500 17 401 704
2019-12-06 17:29:56 GMT 29.396948 -16.773701 33,050 17 400 896
2019-12-06 17:29:46 GMT 29.378174 -16.780350 33,050 17 401 960
2019-12-06 17:29:35 GMT 29.378174 -16.780350 33,125 17 401 1024
2019-12-06 17:29:32 GMT 29.370346 -16.783148 33,050 17 401 960
2019-12-06 17:29:25 GMT 29.360413 -16.786688 32,950 17 401 1024
2019-12-06 17:29:15 GMT 29.323906 -16.799604 32,650 17 401 832
2019-12-06 17:29:05 GMT 29.323906 -16.799604 32,600 17 400 768
2019-12-06 17:28:56 GMT 29.308594 -16.804962 32,450 16 400 832
2019-12-06 17:28:53 GMT 29.303284 -16.806820 32,450 16 400 832
2019-12-06 17:28:42 GMT 29.284515 -16.813414 32,125 17 396 768
2019-12-06 17:28:31 GMT 29.262680 -16.821125 32,125 17 396 768
2019-12-06 17:28:24 GMT 29.251419 -16.825138 32,050 17 396 640
2019-12-06 17:28:20 GMT 29.245466 -16.827230 31,825 18 378 1280
2019-12-06 17:28:12 GMT 29.230755 -16.832508 31,875 17 393 960
2019-12-06 17:28:02 GMT 29.212967 -16.838924 31,775 17 394 832
2019-12-06 17:27:52 GMT 29.195572 -16.845158 31,625 17 393 960
2019-12-06 17:27:41 GMT 29.177490 -16.851654 31,475 17 392 896
2019-12-06 17:27:32 GMT 29.161905 -16.857283 31,325 17 391 960
2019-12-06 17:27:29 GMT 29.153572 -16.860189 31,250 17 391 960
2019-12-06 17:27:24 GMT 29.145985 -16.862883 31,200 17 390 960
2019-12-06 17:27:21 GMT 29.141842 -16.864338 31,175 17 390 960
2019-12-06 17:27:11 GMT 29.124571 -16.870422 31,000 17 389 1088
2019-12-06 17:27:00 GMT 29.106308 -16.876953 30,850 17 388 832
2019-12-06 17:26:52 GMT 29.091564 -16.882217 30,675 17 387 1408
2019-12-06 17:26:49 GMT 29.087421 -16.883671 30,625 17 388 1280
2019-12-06 17:26:40 GMT 29.071335 -16.889471 30,450 17 388 1088
2019-12-06 17:26:29 GMT 29.053528 -16.895916 30,250 17 387 1216
2019-12-06 17:26:19 GMT 29.036726 -16.901928 30,100 17 387 1088
2019-12-06 17:26:08 GMT 29.017227 -16.908697 29,875 17 384 1088
2019-12-06 17:25:59 GMT 29.001526 -16.914192 29,675 17 382 1088
2019-12-06 17:25:49 GMT 28.966572 -16.926754 29,475 17 382 1088
2019-12-06 17:25:38 GMT 28.966572 -16.926754 29,300 17 381 1088
2019-12-06 17:25:28 GMT 28.949020 -16.933056 29,150 17 380 1088
2019-12-06 17:25:18 GMT 28.932217 -16.939196 28,900 18 375 1216
2019-12-06 17:25:08 GMT 28.915457 -16.945333 28,725 18 375 1216
2019-12-06 17:25:02 GMT 28.902420 -16.950108 28,600 18 378 1280
2019-12-06 17:24:57 GMT 28.897442 -16.951958 28,575 18 378 1280
2019-12-06 17:24:51 GMT 28.885803 -16.956341 28,400 18 377 1152
2019-12-06 17:24:47 GMT 28.880821 -16.958204 28,325 18 375 1216
2019-12-06 17:24:37 GMT 28.864202 -16.964346 28,175 18 376 1280
2019-12-06 17:24:26 GMT 28.846664 -16.970814 27,925 15 371 1024
2019-12-06 17:24:17 GMT 28.830093 -16.976624 27,775 16 372 1280
2019-12-06 17:24:06 GMT 28.813568 -16.981958 27,600 15 369 1024
2019-12-06 17:24:00 GMT 28.803635 -16.984917 27,400 14 367 1280
2019-12-06 17:23:56 GMT 28.796356 -16.987082 27,400 14 367 1280
2019-12-06 17:23:50 GMT 28.786787 -16.989872 27,275 15 367 1344
2019-12-06 17:23:46 GMT 28.779572 -16.992134 27,175 16 366 1408
2019-12-06 17:23:40 GMT 28.769794 -16.995365 27,025 16 366 1472
2019-12-06 17:23:35 GMT 28.762627 -16.997787 26,925 16 366 1280
2019-12-06 17:23:29 GMT 28.752897 -17.001020 26,825 16 363 1280
2019-12-06 17:23:25 GMT 28.746426 -17.003227 26,725 16 363 1600
2019-12-06 17:23:19 GMT 28.736092 -17.006674 26,575 16 363 1472
2019-12-06 17:23:15 GMT 28.729980 -17.008789 26,475 17 363 1216
2019-12-06 17:23:09 GMT 28.719727 -17.012436 26,350 17 361 1344
2019-12-06 17:23:05 GMT 28.713364 -17.014706 26,275 17 361 1664
2019-12-06 17:22:58 GMT 28.703156 -17.018456 26,075 17 361 1280
2019-12-06 17:22:55 GMT 28.697126 -17.020622 25,875 17 359 1216
2019-12-06 17:22:47 GMT 28.684418 -17.025146 25,850 17 357 1344
2019-12-06 17:22:44 GMT 28.680601 -17.026546 25,800 17 357 1344
2019-12-06 17:22:37 GMT 28.668915 -17.030815 25,625 18 357 1344
2019-12-06 17:22:34 GMT 28.664566 -17.032507 25,575 19 357 1344
2019-12-06 17:22:28 GMT 28.654903 -17.036402 25,450 19 355 1216
2019-12-06 17:22:24 GMT 28.648407 -17.039003 25,350 19 354 1216
2019-12-06 17:22:17 GMT 28.638750 -17.042704 25,225 18 352 1280
2019-12-06 17:22:13 GMT 28.631907 -17.045235 25,175 17 351 1280
2019-12-06 17:22:07 GMT 28.622910 -17.048351 25,025 16 349 1344
2019-12-06 17:22:03 GMT 28.616684 -17.050465 24,750 16 348 1152
2019-12-06 17:21:57 GMT 28.606796 -17.053898 24,825 17 347 1024
2019-12-06 17:21:52 GMT 28.599134 -17.056599 24,775 17 345 1152
2019-12-06 17:21:46 GMT 28.590614 -17.059668 24,625 17 344 1344
2019-12-06 17:21:43 GMT 28.583912 -17.062037 24,525 17 341 1216
2019-12-06 17:21:36 GMT 28.575165 -17.065201 24,400 17 341 1216
2019-12-06 17:21:31 GMT 28.565506 -17.068581 24,350 17 340 1280
2019-12-06 17:21:26 GMT 28.554703 -17.072279 24,100 16 337 1344
2019-12-06 17:21:22 GMT 28.554703 -17.072279 24,100 16 337 1344
2019-12-06 17:21:15 GMT 28.544203 -17.075932 23,950 17 336 1408
2019-12-06 17:21:12 GMT 28.539455 -17.077600 23,875 17 335 1408
2019-12-06 17:21:05 GMT 28.528793 -17.081318 23,700 17 333 1792
2019-12-06 17:21:02 GMT 28.524651 -17.082771 23,625 16 334 1664
2019-12-06 17:20:55 GMT 28.513687 -17.086487 23,450 16 332 1536
2019-12-06 17:20:52 GMT 28.509289 -17.087996 23,350 16 331 1728
2019-12-06 17:20:45 GMT 28.498674 -17.091549 23,150 16 332 2176
2019-12-06 17:20:40 GMT 28.489830 -17.094620 22,950 17 331 1856
2019-12-06 17:20:34 GMT 28.483358 -17.096882 22,825 17 331 2048
2019-12-06 17:20:31 GMT 28.479216 -17.098282 22,725 17 331 2176
2019-12-06 17:20:27 GMT 28.471581 -17.100973 22,525 17 332 2304
2019-12-06 17:20:22 GMT 28.464844 -17.103390 22,350 17 332 2368
2019-12-06 17:20:19 GMT 28.458639 -17.105659 22,200 17 333 2304
2019-12-06 17:20:14 GMT 28.453033 -17.107668 22,075 17 333 2368
2019-12-06 17:20:11 GMT 28.449190 -17.109053 21,975 17 334 2176
2019-12-06 17:20:04 GMT 28.438293 -17.113054 21,725 17 333 1984
2019-12-06 17:20:01 GMT 28.434174 -17.114534 21,650 17 333 2176
2019-12-06 17:19:53 GMT 28.422913 -17.118443 21,350 17 334 2432
2019-12-06 17:19:50 GMT 28.418512 -17.119984 21,250 17 334 2304
2019-12-06 17:19:47 GMT 28.412292 -17.122192 21,075 17 334 2048
2019-12-06 17:19:43 GMT 28.407246 -17.123970 20,975 17 334 1728
2019-12-06 17:19:40 GMT 28.403412 -17.125309 20,900 17 333 1728
2019-12-06 17:19:35 GMT 28.396027 -17.127901 20,750 17 331 2304
2019-12-06 17:19:30 GMT 28.388393 -17.130594 20,550 17 331 2304
2019-12-06 17:19:22 GMT 28.376907 -17.134605 20,275 17 332 2048
2019-12-06 17:19:19 GMT 28.361710 -17.139992 19,875 17 329 1920
2019-12-06 17:19:12 GMT 28.361710 -17.139992 19,950 17 329 1920
2019-12-06 17:19:00 GMT 28.344818 -17.145908 19,550 17 325 1856
2019-12-06 17:18:50 GMT 28.330202 -17.151274 19,325 18 324 1856
2019-12-06 17:18:39 GMT 28.314699 -17.156227 19,000 8 319 2112
2019-12-06 17:18:31 GMT 28.302017 -17.157370 18,725 358 319 1792
2019-12-06 17:18:20 GMT 28.287094 -17.155205 18,425 346 317 2048
2019-12-06 17:18:10 GMT 28.272663 -17.149227 18,050 333 321 1984
2019-12-06 17:18:03 GMT 28.262466 -17.141523 17,800 307 331 2304
2019-12-06 17:18:00 GMT 28.260223 -17.139305 17,725 318 326 2176
2019-12-06 17:17:49 GMT 28.249786 -17.124832 17,350 303 333 2368
2019-12-06 17:17:38 GMT 28.241055 -17.109213 16,975 303 331 1984
2019-12-06 17:17:29 GMT 28.233187 -17.095211 16,700 303 328 1728
2019-12-06 17:17:18 GMT 28.224976 -17.080519 16,425 303 321 1856
2019-12-06 17:17:08 GMT 28.216736 -17.065729 16,100 303 317 1984
2019-12-06 17:16:58 GMT 28.208748 -17.051535 15,825 303 312 832
2019-12-06 17:16:48 GMT 28.200741 -17.037371 15,725 303 301 896
2019-12-06 17:16:37 GMT 28.193060 -17.023746 15,550 303 290 768
2019-12-06 17:16:27 GMT 28.185938 -17.011145 15,400 303 279 1792
2019-12-06 17:16:17 GMT 28.178970 -16.998543 15,000 303 276 2304
2019-12-06 17:16:06 GMT 28.171644 -16.985725 14,600 304 274 2560
2019-12-06 17:15:56 GMT 28.164322 -16.972979 14,175 303 272 2240
2019-12-06 17:15:46 GMT 28.157501 -16.961042 13,800 303 270 2560
2019-12-06 17:15:35 GMT 28.150406 -16.948734 13,375 304 268 2624
2019-12-06 17:15:25 GMT 28.143585 -16.936956 12,975 304 267 2304
2019-12-06 17:15:15 GMT 28.136452 -16.924545 12,575 303 265 2496
2019-12-06 17:15:04 GMT 28.129669 -16.912661 12,175 303 264 2176
2019-12-06 17:14:54 GMT 28.122894 -16.900513 11,775 302 263 2752
2019-12-06 17:14:44 GMT 28.116434 -16.888464 11,325 301 264 2688
2019-12-06 17:14:33 GMT 28.109756 -16.875738 10,900 301 266 1920
2019-12-06 17:14:23 GMT 28.103439 -16.863802 10,525 302 264 2688
2019-12-06 17:14:13 GMT 28.096743 -16.851843 10,125 304 263 2240
2019-12-06 17:14:03 GMT 28.089935 -16.840139 9,750 304 260 2944
2019-12-06 17:13:52 GMT 28.082870 -16.828093 9,225 303 261 3008
2019-12-06 17:13:42 GMT 28.076120 -16.816029 8,775 302 260 2880
2019-12-06 17:13:32 GMT 28.069656 -16.804276 8,250 302 261 3200
2019-12-06 17:13:21 GMT 28.063086 -16.792387 7,775 303 260 1920
2019-12-06 17:13:11 GMT 28.056427 -16.780825 7,450 304 253 2688
2019-12-06 17:13:01 GMT 28.049540 -16.769176 6,775 305 256 5056
2019-12-06 17:12:51 GMT 28.042557 -16.757975 6,150 306 262 3264
2019-12-06 17:12:40 GMT 28.035095 -16.746069 5,575 306 264 2880
2019-12-06 17:12:30 GMT 28.027891 -16.734600 5,125 305 261 3136
2019-12-06 17:12:19 GMT 28.020723 -16.722916 4,600 305 260 2624
2019-12-06 17:12:09 GMT 28.013809 -16.711473 4,125 302 258 2496
2019-12-06 17:11:59 GMT 28.008526 -16.699219 3,750 287 254 2560
2019-12-06 17:11:49 GMT 28.006758 -16.685755 3,325 268 249 2496
2019-12-06 17:11:38 GMT 28.009411 -16.672668 2,875 250 244 2240
2019-12-06 17:11:28 GMT 28.013647 -16.661036 2,500 248 237 2368

Making use of Plane Finder data

You are free to use the raw flight data, aircraft information and images provided in this report for your own purposes provided the data is correctly attributed to Plane Finder. We ask that you please credit Plane Finder and link to planefinder.net in close proximity to the content.

Optionally one of the following logos (no smaller then 150x24px) can be used and must link to planefinder.net

Embedding the Plane Finder map

You are welcome to embed the Plane Finder playback map on your website to offer visitors a more interactive experience. We suggest using the following HTML code:

<iframe src="//planefinder.net/data/report/TOM1573-G-FDZD-7700-squawk-2019-12-06/map" width="800" height="600" seamless="seamless"></iframe>

Where our data comes from

Plane Finder has a global network of data feeds and antenna radars that receive data broadcast directly from aircraft. The primary technologies used are ADS-B and MLAT. We also show feeds from the FAA and a FLARM glider feed.

Click here to find out more about the Plane Finder network.

How we collect our data